<?xml version="1.0" encoding="UTF-8"?>
<gpx version="1.1" creator="https://www.youtrack.es" xsi:schemaLocation="http://www.topografix.com/GPX/1/1 http://www.topografix.com/GPX/1/1/gpx.xsd http://www.garmin.com/xmlschemas/GpxExtensions/v3 http://www.garmin.com/xmlschemas/GpxExtensionsv3.xsd http://www.garmin.com/xmlschemas/TrackPointExtension/v1 http://www.garmin.com/xmlschemas/TrackPointExtensionv1.xsd" xmlns:gpxtpx="http://www.garmin.com/xmlschemas/TrackPointExtension/v1" xmlns:gpxx="http://www.garmin.com/xmlschemas/GpxExtensions/v3" xmlns:xsi="http://www.w3.org/2001/XMLSchema-instance">
  <metadata>
    <link href="https://www.youtrack.es">
      <text>YouTrack.es</text>
    </link>
    <time>2026-05-09T06:34:53Z</time>
  </metadata>
  <trk>
    <src>https://www.youtrack.es</src>
    <link href="https://www.youtrack.es/ruta/35483-oncotrail22-tram-07">
      <text>YouTrack.es</text>
    </link>
    <trkseg>
      <trkpt lat="41.952893" lon="3.090182">
        <ele>67.044</ele>
        <time>2021-10-02T13:38:24Z</time>
      </trkpt>
      <trkpt lat="41.952893" lon="3.090182">
        <ele>67.005</ele>
        <time>2021-10-02T13:38:24Z</time>
      </trkpt>
      <trkpt lat="41.952893" lon="3.090182">
        <ele>67.015</ele>
        <time>2021-10-02T13:38:24Z</time>
      </trkpt>
      <trkpt lat="41.952987" lon="3.089674">
        <ele>65.008</ele>
        <time>2021-10-02T13:38:44Z</time>
      </trkpt>
      <trkpt lat="41.952987" lon="3.089674">
        <ele>65.033</ele>
        <time>2021-10-02T13:38:44Z</time>
      </trkpt>
      <trkpt lat="41.952987" lon="3.089674">
        <ele>65.062</ele>
        <time>2021-10-02T13:38:44Z</time>
      </trkpt>
      <trkpt lat="41.952987" lon="3.089674">
        <ele>65.066</ele>
        <time>2021-10-02T13:38:44Z</time>
      </trkpt>
      <trkpt lat="41.953000" lon="3.089626">
        <ele>64.618</ele>
        <time>2021-10-02T13:38:46Z</time>
      </trkpt>
      <trkpt lat="41.953000" lon="3.089626">
        <ele>64.648</ele>
        <time>2021-10-02T13:38:46Z</time>
      </trkpt>
      <trkpt lat="41.953039" lon="3.089533">
        <ele>63.886</ele>
        <time>2021-10-02T13:38:50Z</time>
      </trkpt>
      <trkpt lat="41.953107" lon="3.089438">
        <ele>63.063</ele>
        <time>2021-10-02T13:38:54Z</time>
      </trkpt>
      <trkpt lat="41.953155" lon="3.089336">
        <ele>62.898</ele>
        <time>2021-10-02T13:38:59Z</time>
      </trkpt>
      <trkpt lat="41.953171" lon="3.089256">
        <ele>62.139</ele>
        <time>2021-10-02T13:39:02Z</time>
      </trkpt>
      <trkpt lat="41.953171" lon="3.089186">
        <ele>62.001</ele>
        <time>2021-10-02T13:39:05Z</time>
      </trkpt>
      <trkpt lat="41.953171" lon="3.089132">
        <ele>62.021</ele>
        <time>2021-10-02T13:39:07Z</time>
      </trkpt>
      <trkpt lat="41.953171" lon="3.089132">
        <ele>62.008</ele>
        <time>2021-10-02T13:39:07Z</time>
      </trkpt>
      <trkpt lat="41.953161" lon="3.089009">
        <ele>62.032</ele>
        <time>2021-10-02T13:39:11Z</time>
      </trkpt>
      <trkpt lat="41.953107" lon="3.088751">
        <ele>62.011</ele>
        <time>2021-10-02T13:39:21Z</time>
      </trkpt>
      <trkpt lat="41.953091" lon="3.088553">
        <ele>62.045</ele>
        <time>2021-10-02T13:39:28Z</time>
      </trkpt>
      <trkpt lat="41.953096" lon="3.088467">
        <ele>62.037</ele>
        <time>2021-10-02T13:39:32Z</time>
      </trkpt>
      <trkpt lat="41.953129" lon="3.088376">
        <ele>61.017</ele>
        <time>2021-10-02T13:39:35Z</time>
      </trkpt>
      <trkpt lat="41.953198" lon="3.088210">
        <ele>61.025</ele>
        <time>2021-10-02T13:39:42Z</time>
      </trkpt>
      <trkpt lat="41.953273" lon="3.088054">
        <ele>62.012</ele>
        <time>2021-10-02T13:39:49Z</time>
      </trkpt>
      <trkpt lat="41.953338" lon="3.087931">
        <ele>62.537</ele>
        <time>2021-10-02T13:39:55Z</time>
      </trkpt>
      <trkpt lat="41.953402" lon="3.087818">
        <ele>63.086</ele>
        <time>2021-10-02T13:40:00Z</time>
      </trkpt>
      <trkpt lat="41.953461" lon="3.087754">
        <ele>62.460</ele>
        <time>2021-10-02T13:40:04Z</time>
      </trkpt>
      <trkpt lat="41.953563" lon="3.087657">
        <ele>62.026</ele>
        <time>2021-10-02T13:40:10Z</time>
      </trkpt>
      <trkpt lat="41.953756" lon="3.087624">
        <ele>59.908</ele>
        <time>2021-10-02T13:40:20Z</time>
      </trkpt>
      <trkpt lat="41.953783" lon="3.087520">
        <ele>59.377</ele>
        <time>2021-10-02T13:40:24Z</time>
      </trkpt>
      <trkpt lat="41.953790" lon="3.087389">
        <ele>58.166</ele>
        <time>2021-10-02T13:40:29Z</time>
      </trkpt>
      <trkpt lat="41.953753" lon="3.087330">
        <ele>58.080</ele>
        <time>2021-10-02T13:40:31Z</time>
      </trkpt>
      <trkpt lat="41.953719" lon="3.087235">
        <ele>58.032</ele>
        <time>2021-10-02T13:40:35Z</time>
      </trkpt>
      <trkpt lat="41.953556" lon="3.087010">
        <ele>58.632</ele>
        <time>2021-10-02T13:40:47Z</time>
      </trkpt>
      <trkpt lat="41.953465" lon="3.086933">
        <ele>58.180</ele>
        <time>2021-10-02T13:40:52Z</time>
      </trkpt>
      <trkpt lat="41.953308" lon="3.086758">
        <ele>58.147</ele>
        <time>2021-10-02T13:41:02Z</time>
      </trkpt>
      <trkpt lat="41.953263" lon="3.086611">
        <ele>59.252</ele>
        <time>2021-10-02T13:41:08Z</time>
      </trkpt>
      <trkpt lat="41.953219" lon="3.086493">
        <ele>59.272</ele>
        <time>2021-10-02T13:41:13Z</time>
      </trkpt>
      <trkpt lat="41.953171" lon="3.086319">
        <ele>60.113</ele>
        <time>2021-10-02T13:41:20Z</time>
      </trkpt>
      <trkpt lat="41.953088" lon="3.085971">
        <ele>60.514</ele>
        <time>2021-10-02T13:41:33Z</time>
      </trkpt>
      <trkpt lat="41.952999" lon="3.085793">
        <ele>59.508</ele>
        <time>2021-10-02T13:41:41Z</time>
      </trkpt>
      <trkpt lat="41.952873" lon="3.085535">
        <ele>59.276</ele>
        <time>2021-10-02T13:41:53Z</time>
      </trkpt>
      <trkpt lat="41.952709" lon="3.085468">
        <ele>59.115</ele>
        <time>2021-10-02T13:42:01Z</time>
      </trkpt>
      <trkpt lat="41.952463" lon="3.085414">
        <ele>59.619</ele>
        <time>2021-10-02T13:42:14Z</time>
      </trkpt>
      <trkpt lat="41.952237" lon="3.085383">
        <ele>60.981</ele>
        <time>2021-10-02T13:42:25Z</time>
      </trkpt>
      <trkpt lat="41.952127" lon="3.085420">
        <ele>60.591</ele>
        <time>2021-10-02T13:42:31Z</time>
      </trkpt>
      <trkpt lat="41.952050" lon="3.085494">
        <ele>60.459</ele>
        <time>2021-10-02T13:42:35Z</time>
      </trkpt>
      <trkpt lat="41.951993" lon="3.085613">
        <ele>59.186</ele>
        <time>2021-10-02T13:42:40Z</time>
      </trkpt>
      <trkpt lat="41.951938" lon="3.085756">
        <ele>59.421</ele>
        <time>2021-10-02T13:42:46Z</time>
      </trkpt>
      <trkpt lat="41.951873" lon="3.085902">
        <ele>60.182</ele>
        <time>2021-10-02T13:42:53Z</time>
      </trkpt>
      <trkpt lat="41.951813" lon="3.085978">
        <ele>60.143</ele>
        <time>2021-10-02T13:42:57Z</time>
      </trkpt>
      <trkpt lat="41.951730" lon="3.086034">
        <ele>60.017</ele>
        <time>2021-10-02T13:43:01Z</time>
      </trkpt>
      <trkpt lat="41.951603" lon="3.086068">
        <ele>60.208</ele>
        <time>2021-10-02T13:43:08Z</time>
      </trkpt>
      <trkpt lat="41.951475" lon="3.086107">
        <ele>60.977</ele>
        <time>2021-10-02T13:43:14Z</time>
      </trkpt>
      <trkpt lat="41.951297" lon="3.086113">
        <ele>61.036</ele>
        <time>2021-10-02T13:43:23Z</time>
      </trkpt>
      <trkpt lat="41.951144" lon="3.086101">
        <ele>61.020</ele>
        <time>2021-10-02T13:43:31Z</time>
      </trkpt>
      <trkpt lat="41.951046" lon="3.086043">
        <ele>61.072</ele>
        <time>2021-10-02T13:43:36Z</time>
      </trkpt>
      <trkpt lat="41.950981" lon="3.086037">
        <ele>61.122</ele>
        <time>2021-10-02T13:43:39Z</time>
      </trkpt>
      <trkpt lat="41.950843" lon="3.086082">
        <ele>63.540</ele>
        <time>2021-10-02T13:43:46Z</time>
      </trkpt>
      <trkpt lat="41.950773" lon="3.086184">
        <ele>65.757</ele>
        <time>2021-10-02T13:43:52Z</time>
      </trkpt>
      <trkpt lat="41.950682" lon="3.086347">
        <ele>68.562</ele>
        <time>2021-10-02T13:43:59Z</time>
      </trkpt>
      <trkpt lat="41.950572" lon="3.086404">
        <ele>70.036</ele>
        <time>2021-10-02T13:44:05Z</time>
      </trkpt>
      <trkpt lat="41.950355" lon="3.086321">
        <ele>70.917</ele>
        <time>2021-10-02T13:44:16Z</time>
      </trkpt>
      <trkpt lat="41.950232" lon="3.086262">
        <ele>71.118</ele>
        <time>2021-10-02T13:44:23Z</time>
      </trkpt>
      <trkpt lat="41.950012" lon="3.086118">
        <ele>69.108</ele>
        <time>2021-10-02T13:44:35Z</time>
      </trkpt>
      <trkpt lat="41.949888" lon="3.086010">
        <ele>67.742</ele>
        <time>2021-10-02T13:44:42Z</time>
      </trkpt>
      <trkpt lat="41.949690" lon="3.085903">
        <ele>66.211</ele>
        <time>2021-10-02T13:44:53Z</time>
      </trkpt>
      <trkpt lat="41.949438" lon="3.085774">
        <ele>66.095</ele>
        <time>2021-10-02T13:45:06Z</time>
      </trkpt>
      <trkpt lat="41.949132" lon="3.085603">
        <ele>66.027</ele>
        <time>2021-10-02T13:45:23Z</time>
      </trkpt>
      <trkpt lat="41.949052" lon="3.085533">
        <ele>66.077</ele>
        <time>2021-10-02T13:45:27Z</time>
      </trkpt>
      <trkpt lat="41.948901" lon="3.085372">
        <ele>66.065</ele>
        <time>2021-10-02T13:45:37Z</time>
      </trkpt>
      <trkpt lat="41.948730" lon="3.085254">
        <ele>67.032</ele>
        <time>2021-10-02T13:45:47Z</time>
      </trkpt>
      <trkpt lat="41.948633" lon="3.085222">
        <ele>67.017</ele>
        <time>2021-10-02T13:45:51Z</time>
      </trkpt>
      <trkpt lat="41.948102" lon="3.085147">
        <ele>67.213</ele>
        <time>2021-10-02T13:46:18Z</time>
      </trkpt>
      <trkpt lat="41.947802" lon="3.085077">
        <ele>67.343</ele>
        <time>2021-10-02T13:46:33Z</time>
      </trkpt>
      <trkpt lat="41.947652" lon="3.085082">
        <ele>67.207</ele>
        <time>2021-10-02T13:46:40Z</time>
      </trkpt>
      <trkpt lat="41.947394" lon="3.085109">
        <ele>66.908</ele>
        <time>2021-10-02T13:46:53Z</time>
      </trkpt>
      <trkpt lat="41.947013" lon="3.085189">
        <ele>66.280</ele>
        <time>2021-10-02T13:47:12Z</time>
      </trkpt>
      <trkpt lat="41.946681" lon="3.085254">
        <ele>67.079</ele>
        <time>2021-10-02T13:47:29Z</time>
      </trkpt>
      <trkpt lat="41.946583" lon="3.085273">
        <ele>67.173</ele>
        <time>2021-10-02T13:47:34Z</time>
      </trkpt>
      <trkpt lat="41.946539" lon="3.085263">
        <ele>67.685</ele>
        <time>2021-10-02T13:47:36Z</time>
      </trkpt>
      <trkpt lat="41.946527" lon="3.085169">
        <ele>67.055</ele>
        <time>2021-10-02T13:47:40Z</time>
      </trkpt>
      <trkpt lat="41.946527" lon="3.085073">
        <ele>67.033</ele>
        <time>2021-10-02T13:47:43Z</time>
      </trkpt>
      <trkpt lat="41.946530" lon="3.084975">
        <ele>67.020</ele>
        <time>2021-10-02T13:47:47Z</time>
      </trkpt>
      <trkpt lat="41.946520" lon="3.084524">
        <ele>69.025</ele>
        <time>2021-10-02T13:48:04Z</time>
      </trkpt>
      <trkpt lat="41.946528" lon="3.084320">
        <ele>69.736</ele>
        <time>2021-10-02T13:48:11Z</time>
      </trkpt>
      <trkpt lat="41.946524" lon="3.084054">
        <ele>72.517</ele>
        <time>2021-10-02T13:48:21Z</time>
      </trkpt>
      <trkpt lat="41.946509" lon="3.083862">
        <ele>73.118</ele>
        <time>2021-10-02T13:48:28Z</time>
      </trkpt>
      <trkpt lat="41.946504" lon="3.083694">
        <ele>73.008</ele>
        <time>2021-10-02T13:48:34Z</time>
      </trkpt>
      <trkpt lat="41.946493" lon="3.083476">
        <ele>73.052</ele>
        <time>2021-10-02T13:48:42Z</time>
      </trkpt>
      <trkpt lat="41.946495" lon="3.083290">
        <ele>73.941</ele>
        <time>2021-10-02T13:48:49Z</time>
      </trkpt>
      <trkpt lat="41.946490" lon="3.083003">
        <ele>75.055</ele>
        <time>2021-10-02T13:49:00Z</time>
      </trkpt>
      <trkpt lat="41.946531" lon="3.082587">
        <ele>76.687</ele>
        <time>2021-10-02T13:49:15Z</time>
      </trkpt>
      <trkpt lat="41.946536" lon="3.082385">
        <ele>76.017</ele>
        <time>2021-10-02T13:49:23Z</time>
      </trkpt>
      <trkpt lat="41.946557" lon="3.082227">
        <ele>76.025</ele>
        <time>2021-10-02T13:49:29Z</time>
      </trkpt>
      <trkpt lat="41.945345" lon="3.081906">
        <ele>78.032</ele>
        <time>2021-10-02T13:50:30Z</time>
      </trkpt>
      <trkpt lat="41.944851" lon="3.081810">
        <ele>78.047</ele>
        <time>2021-10-02T13:50:55Z</time>
      </trkpt>
      <trkpt lat="41.944540" lon="3.081767">
        <ele>79.039</ele>
        <time>2021-10-02T13:51:10Z</time>
      </trkpt>
      <trkpt lat="41.944175" lon="3.081747">
        <ele>79.001</ele>
        <time>2021-10-02T13:51:28Z</time>
      </trkpt>
      <trkpt lat="41.943885" lon="3.081700">
        <ele>80.021</ele>
        <time>2021-10-02T13:51:43Z</time>
      </trkpt>
      <trkpt lat="41.943504" lon="3.081664">
        <ele>80.008</ele>
        <time>2021-10-02T13:52:02Z</time>
      </trkpt>
      <trkpt lat="41.943137" lon="3.081650">
        <ele>80.012</ele>
        <time>2021-10-02T13:52:20Z</time>
      </trkpt>
      <trkpt lat="41.942892" lon="3.081656">
        <ele>81.091</ele>
        <time>2021-10-02T13:52:32Z</time>
      </trkpt>
      <trkpt lat="41.942772" lon="3.081674">
        <ele>81.085</ele>
        <time>2021-10-02T13:52:38Z</time>
      </trkpt>
      <trkpt lat="41.942357" lon="3.081781">
        <ele>81.027</ele>
        <time>2021-10-02T13:52:59Z</time>
      </trkpt>
      <trkpt lat="41.942086" lon="3.081873">
        <ele>81.767</ele>
        <time>2021-10-02T13:53:13Z</time>
      </trkpt>
      <trkpt lat="41.941830" lon="3.081951">
        <ele>82.085</ele>
        <time>2021-10-02T13:53:26Z</time>
      </trkpt>
      <trkpt lat="41.941561" lon="3.082015">
        <ele>82.062</ele>
        <time>2021-10-02T13:53:39Z</time>
      </trkpt>
      <trkpt lat="41.941314" lon="3.082011">
        <ele>81.077</ele>
        <time>2021-10-02T13:53:52Z</time>
      </trkpt>
      <trkpt lat="41.941091" lon="3.081992">
        <ele>81.017</ele>
        <time>2021-10-02T13:54:03Z</time>
      </trkpt>
      <trkpt lat="41.941034" lon="3.082078">
        <ele>80.287</ele>
        <time>2021-10-02T13:54:07Z</time>
      </trkpt>
      <trkpt lat="41.940965" lon="3.082139">
        <ele>80.015</ele>
        <time>2021-10-02T13:54:11Z</time>
      </trkpt>
      <trkpt lat="41.940874" lon="3.082242">
        <ele>79.408</ele>
        <time>2021-10-02T13:54:17Z</time>
      </trkpt>
      <trkpt lat="41.940776" lon="3.082313">
        <ele>79.790</ele>
        <time>2021-10-02T13:54:23Z</time>
      </trkpt>
      <trkpt lat="41.940656" lon="3.082313">
        <ele>80.099</ele>
        <time>2021-10-02T13:54:29Z</time>
      </trkpt>
      <trkpt lat="41.940416" lon="3.082320">
        <ele>81.053</ele>
        <time>2021-10-02T13:54:40Z</time>
      </trkpt>
      <trkpt lat="41.940302" lon="3.082220">
        <ele>81.085</ele>
        <time>2021-10-02T13:54:47Z</time>
      </trkpt>
      <trkpt lat="41.940145" lon="3.082127">
        <ele>81.645</ele>
        <time>2021-10-02T13:54:56Z</time>
      </trkpt>
      <trkpt lat="41.939996" lon="3.082112">
        <ele>81.313</ele>
        <time>2021-10-02T13:55:03Z</time>
      </trkpt>
      <trkpt lat="41.939786" lon="3.082180">
        <ele>81.920</ele>
        <time>2021-10-02T13:55:14Z</time>
      </trkpt>
      <trkpt lat="41.939591" lon="3.082269">
        <ele>82.965</ele>
        <time>2021-10-02T13:55:24Z</time>
      </trkpt>
      <trkpt lat="41.939496" lon="3.082326">
        <ele>82.919</ele>
        <time>2021-10-02T13:55:29Z</time>
      </trkpt>
      <trkpt lat="41.939278" lon="3.082308">
        <ele>80.909</ele>
        <time>2021-10-02T13:55:40Z</time>
      </trkpt>
      <trkpt lat="41.939155" lon="3.082318">
        <ele>80.819</ele>
        <time>2021-10-02T13:55:46Z</time>
      </trkpt>
      <trkpt lat="41.939072" lon="3.082268">
        <ele>81.008</ele>
        <time>2021-10-02T13:55:51Z</time>
      </trkpt>
      <trkpt lat="41.939035" lon="3.082165">
        <ele>81.150</ele>
        <time>2021-10-02T13:55:55Z</time>
      </trkpt>
      <trkpt lat="41.938908" lon="3.082225">
        <ele>83.529</ele>
        <time>2021-10-02T13:56:02Z</time>
      </trkpt>
      <trkpt lat="41.938679" lon="3.082360">
        <ele>83.423</ele>
        <time>2021-10-02T13:56:14Z</time>
      </trkpt>
      <trkpt lat="41.938524" lon="3.082431">
        <ele>83.365</ele>
        <time>2021-10-02T13:56:22Z</time>
      </trkpt>
      <trkpt lat="41.938218" lon="3.082463">
        <ele>85.035</ele>
        <time>2021-10-02T13:56:37Z</time>
      </trkpt>
      <trkpt lat="41.937968" lon="3.082516">
        <ele>86.073</ele>
        <time>2021-10-02T13:56:50Z</time>
      </trkpt>
      <trkpt lat="41.937779" lon="3.082602">
        <ele>86.910</ele>
        <time>2021-10-02T13:57:00Z</time>
      </trkpt>
      <trkpt lat="41.937517" lon="3.082679">
        <ele>88.125</ele>
        <time>2021-10-02T13:57:13Z</time>
      </trkpt>
      <trkpt lat="41.937271" lon="3.082636">
        <ele>90.958</ele>
        <time>2021-10-02T13:57:26Z</time>
      </trkpt>
      <trkpt lat="41.937271" lon="3.082636">
        <ele>90.952</ele>
        <time>2021-10-02T13:57:26Z</time>
      </trkpt>
      <trkpt lat="41.937048" lon="3.082533">
        <ele>95.017</ele>
        <time>2021-10-02T13:57:37Z</time>
      </trkpt>
      <trkpt lat="41.936944" lon="3.082355">
        <ele>96.008</ele>
        <time>2021-10-02T13:57:46Z</time>
      </trkpt>
      <trkpt lat="41.936803" lon="3.082095">
        <ele>97.924</ele>
        <time>2021-10-02T13:57:58Z</time>
      </trkpt>
      <trkpt lat="41.936692" lon="3.081838">
        <ele>99.023</ele>
        <time>2021-10-02T13:58:09Z</time>
      </trkpt>
      <trkpt lat="41.936707" lon="3.081767">
        <ele>99.277</ele>
        <time>2021-10-02T13:58:11Z</time>
      </trkpt>
      <trkpt lat="41.936509" lon="3.081893">
        <ele>100.089</ele>
        <time>2021-10-02T13:58:22Z</time>
      </trkpt>
      <trkpt lat="41.936352" lon="3.081819">
        <ele>101.729</ele>
        <time>2021-10-02T13:58:31Z</time>
      </trkpt>
      <trkpt lat="41.936141" lon="3.081688">
        <ele>103.567</ele>
        <time>2021-10-02T13:58:42Z</time>
      </trkpt>
      <trkpt lat="41.935872" lon="3.081476">
        <ele>106.194</ele>
        <time>2021-10-02T13:58:58Z</time>
      </trkpt>
      <trkpt lat="41.935504" lon="3.081057">
        <ele>109.859</ele>
        <time>2021-10-02T13:59:22Z</time>
      </trkpt>
      <trkpt lat="41.935126" lon="3.080714">
        <ele>110.838</ele>
        <time>2021-10-02T13:59:44Z</time>
      </trkpt>
      <trkpt lat="41.934629" lon="3.080233">
        <ele>111.070</ele>
        <time>2021-10-02T14:00:15Z</time>
      </trkpt>
      <trkpt lat="41.934288" lon="3.079821">
        <ele>113.017</ele>
        <time>2021-10-02T14:00:37Z</time>
      </trkpt>
      <trkpt lat="41.934214" lon="3.079619">
        <ele>116.908</ele>
        <time>2021-10-02T14:00:46Z</time>
      </trkpt>
      <trkpt lat="41.934199" lon="3.078948">
        <ele>124.042</ele>
        <time>2021-10-02T14:01:11Z</time>
      </trkpt>
      <trkpt lat="41.934169" lon="3.078857">
        <ele>124.571</ele>
        <time>2021-10-02T14:01:14Z</time>
      </trkpt>
      <trkpt lat="41.934086" lon="3.078796">
        <ele>126.315</ele>
        <time>2021-10-02T14:01:19Z</time>
      </trkpt>
      <trkpt lat="41.933838" lon="3.078938">
        <ele>130.397</ele>
        <time>2021-10-02T14:01:33Z</time>
      </trkpt>
      <trkpt lat="41.933708" lon="3.078948">
        <ele>133.067</ele>
        <time>2021-10-02T14:01:39Z</time>
      </trkpt>
      <trkpt lat="41.933554" lon="3.078845">
        <ele>136.385</ele>
        <time>2021-10-02T14:01:48Z</time>
      </trkpt>
      <trkpt lat="41.933464" lon="3.078643">
        <ele>140.762</ele>
        <time>2021-10-02T14:01:57Z</time>
      </trkpt>
      <trkpt lat="41.933417" lon="3.078358">
        <ele>145.417</ele>
        <time>2021-10-02T14:02:08Z</time>
      </trkpt>
      <trkpt lat="41.933423" lon="3.078062">
        <ele>149.491</ele>
        <time>2021-10-02T14:02:19Z</time>
      </trkpt>
      <trkpt lat="41.933426" lon="3.077686">
        <ele>151.981</ele>
        <time>2021-10-02T14:02:33Z</time>
      </trkpt>
      <trkpt lat="41.933463" lon="3.077054">
        <ele>154.419</ele>
        <time>2021-10-02T14:02:56Z</time>
      </trkpt>
      <trkpt lat="41.933372" lon="3.076763">
        <ele>158.908</ele>
        <time>2021-10-02T14:03:08Z</time>
      </trkpt>
      <trkpt lat="41.933298" lon="3.076513">
        <ele>162.718</ele>
        <time>2021-10-02T14:03:18Z</time>
      </trkpt>
      <trkpt lat="41.933247" lon="3.076386">
        <ele>166.227</ele>
        <time>2021-10-02T14:03:24Z</time>
      </trkpt>
      <trkpt lat="41.933210" lon="3.076267">
        <ele>168.741</ele>
        <time>2021-10-02T14:03:28Z</time>
      </trkpt>
      <trkpt lat="41.933126" lon="3.076124">
        <ele>174.073</ele>
        <time>2021-10-02T14:03:36Z</time>
      </trkpt>
      <trkpt lat="41.933077" lon="3.075989">
        <ele>178.323</ele>
        <time>2021-10-02T14:03:41Z</time>
      </trkpt>
      <trkpt lat="41.933161" lon="3.075988">
        <ele>176.521</ele>
        <time>2021-10-02T14:03:46Z</time>
      </trkpt>
      <trkpt lat="41.933476" lon="3.075847">
        <ele>172.828</ele>
        <time>2021-10-02T14:04:02Z</time>
      </trkpt>
      <trkpt lat="41.933662" lon="3.075792">
        <ele>171.073</ele>
        <time>2021-10-02T14:04:12Z</time>
      </trkpt>
      <trkpt lat="41.933698" lon="3.075757">
        <ele>170.588</ele>
        <time>2021-10-02T14:04:14Z</time>
      </trkpt>
      <trkpt lat="41.933327" lon="3.075304">
        <ele>173.724</ele>
        <time>2021-10-02T14:04:39Z</time>
      </trkpt>
      <trkpt lat="41.933102" lon="3.075020">
        <ele>178.226</ele>
        <time>2021-10-02T14:04:54Z</time>
      </trkpt>
      <trkpt lat="41.932937" lon="3.074928">
        <ele>179.808</ele>
        <time>2021-10-02T14:05:03Z</time>
      </trkpt>
      <trkpt lat="41.932910" lon="3.074883">
        <ele>180.087</ele>
        <time>2021-10-02T14:05:05Z</time>
      </trkpt>
      <trkpt lat="41.932763" lon="3.074875">
        <ele>179.446</ele>
        <time>2021-10-02T14:05:13Z</time>
      </trkpt>
      <trkpt lat="41.932491" lon="3.074937">
        <ele>181.040</ele>
        <time>2021-10-02T14:05:26Z</time>
      </trkpt>
      <trkpt lat="41.932455" lon="3.074678">
        <ele>176.062</ele>
        <time>2021-10-02T14:05:36Z</time>
      </trkpt>
      <trkpt lat="41.932454" lon="3.074420">
        <ele>178.292</ele>
        <time>2021-10-02T14:05:46Z</time>
      </trkpt>
      <trkpt lat="41.932419" lon="3.074254">
        <ele>180.760</ele>
        <time>2021-10-02T14:05:52Z</time>
      </trkpt>
      <trkpt lat="41.932307" lon="3.073980">
        <ele>181.327</ele>
        <time>2021-10-02T14:06:04Z</time>
      </trkpt>
      <trkpt lat="41.932270" lon="3.073803">
        <ele>181.072</ele>
        <time>2021-10-02T14:06:11Z</time>
      </trkpt>
      <trkpt lat="41.932260" lon="3.073614">
        <ele>179.684</ele>
        <time>2021-10-02T14:06:18Z</time>
      </trkpt>
      <trkpt lat="41.932266" lon="3.073463">
        <ele>177.407</ele>
        <time>2021-10-02T14:06:23Z</time>
      </trkpt>
      <trkpt lat="41.932301" lon="3.073341">
        <ele>175.617</ele>
        <time>2021-10-02T14:06:28Z</time>
      </trkpt>
      <trkpt lat="41.932361" lon="3.073254">
        <ele>174.208</ele>
        <time>2021-10-02T14:06:33Z</time>
      </trkpt>
      <trkpt lat="41.932501" lon="3.073146">
        <ele>170.237</ele>
        <time>2021-10-02T14:06:41Z</time>
      </trkpt>
      <trkpt lat="41.932595" lon="3.073029">
        <ele>167.956</ele>
        <time>2021-10-02T14:06:47Z</time>
      </trkpt>
      <trkpt lat="41.932683" lon="3.072907">
        <ele>164.950</ele>
        <time>2021-10-02T14:06:54Z</time>
      </trkpt>
      <trkpt lat="41.932766" lon="3.072711">
        <ele>161.212</ele>
        <time>2021-10-02T14:07:02Z</time>
      </trkpt>
      <trkpt lat="41.932784" lon="3.072572">
        <ele>159.912</ele>
        <time>2021-10-02T14:07:07Z</time>
      </trkpt>
      <trkpt lat="41.932790" lon="3.072215">
        <ele>155.780</ele>
        <time>2021-10-02T14:07:21Z</time>
      </trkpt>
      <trkpt lat="41.932906" lon="3.072022">
        <ele>151.487</ele>
        <time>2021-10-02T14:07:30Z</time>
      </trkpt>
      <trkpt lat="41.933001" lon="3.071781">
        <ele>147.252</ele>
        <time>2021-10-02T14:07:40Z</time>
      </trkpt>
      <trkpt lat="41.933011" lon="3.071692">
        <ele>146.587</ele>
        <time>2021-10-02T14:07:44Z</time>
      </trkpt>
      <trkpt lat="41.933038" lon="3.071293">
        <ele>143.242</ele>
        <time>2021-10-02T14:07:58Z</time>
      </trkpt>
      <trkpt lat="41.933111" lon="3.071049">
        <ele>142.026</ele>
        <time>2021-10-02T14:08:08Z</time>
      </trkpt>
      <trkpt lat="41.933051" lon="3.070898">
        <ele>144.408</ele>
        <time>2021-10-02T14:08:15Z</time>
      </trkpt>
      <trkpt lat="41.932777" lon="3.070857">
        <ele>153.097</ele>
        <time>2021-10-02T14:08:29Z</time>
      </trkpt>
      <trkpt lat="41.932519" lon="3.070700">
        <ele>159.626</ele>
        <time>2021-10-02T14:08:43Z</time>
      </trkpt>
      <trkpt lat="41.932285" lon="3.070444">
        <ele>168.060</ele>
        <time>2021-10-02T14:08:59Z</time>
      </trkpt>
      <trkpt lat="41.931894" lon="3.070047">
        <ele>175.782</ele>
        <time>2021-10-02T14:09:23Z</time>
      </trkpt>
      <trkpt lat="41.931490" lon="3.069728">
        <ele>177.732</ele>
        <time>2021-10-02T14:09:46Z</time>
      </trkpt>
      <trkpt lat="41.931317" lon="3.069536">
        <ele>180.060</ele>
        <time>2021-10-02T14:09:57Z</time>
      </trkpt>
      <trkpt lat="41.931100" lon="3.069151">
        <ele>187.277</ele>
        <time>2021-10-02T14:10:16Z</time>
      </trkpt>
      <trkpt lat="41.930962" lon="3.068969">
        <ele>188.882</ele>
        <time>2021-10-02T14:10:25Z</time>
      </trkpt>
      <trkpt lat="41.930603" lon="3.068603">
        <ele>187.366</ele>
        <time>2021-10-02T14:10:48Z</time>
      </trkpt>
      <trkpt lat="41.930390" lon="3.068379">
        <ele>185.029</ele>
        <time>2021-10-02T14:11:01Z</time>
      </trkpt>
      <trkpt lat="41.929996" lon="3.068158">
        <ele>182.021</ele>
        <time>2021-10-02T14:11:22Z</time>
      </trkpt>
      <trkpt lat="41.929911" lon="3.068072">
        <ele>182.008</ele>
        <time>2021-10-02T14:11:27Z</time>
      </trkpt>
      <trkpt lat="41.929832" lon="3.067681">
        <ele>183.785</ele>
        <time>2021-10-02T14:11:42Z</time>
      </trkpt>
      <trkpt lat="41.929766" lon="3.067498">
        <ele>183.164</ele>
        <time>2021-10-02T14:11:50Z</time>
      </trkpt>
      <trkpt lat="41.929721" lon="3.067409">
        <ele>183.648</ele>
        <time>2021-10-02T14:11:54Z</time>
      </trkpt>
      <trkpt lat="41.929677" lon="3.067187">
        <ele>182.090</ele>
        <time>2021-10-02T14:12:02Z</time>
      </trkpt>
      <trkpt lat="41.929460" lon="3.066754">
        <ele>178.390</ele>
        <time>2021-10-02T14:12:22Z</time>
      </trkpt>
      <trkpt lat="41.929443" lon="3.066521">
        <ele>176.968</ele>
        <time>2021-10-02T14:12:30Z</time>
      </trkpt>
      <trkpt lat="41.929576" lon="3.066177">
        <ele>173.325</ele>
        <time>2021-10-02T14:12:45Z</time>
      </trkpt>
      <trkpt lat="41.929592" lon="3.066061">
        <ele>170.780</ele>
        <time>2021-10-02T14:12:49Z</time>
      </trkpt>
      <trkpt lat="41.929550" lon="3.065849">
        <ele>167.614</ele>
        <time>2021-10-02T14:12:58Z</time>
      </trkpt>
      <trkpt lat="41.929475" lon="3.065638">
        <ele>164.254</ele>
        <time>2021-10-02T14:13:06Z</time>
      </trkpt>
      <trkpt lat="41.929726" lon="3.065529">
        <ele>165.609</ele>
        <time>2021-10-02T14:13:19Z</time>
      </trkpt>
      <trkpt lat="41.930088" lon="3.065469">
        <ele>169.408</ele>
        <time>2021-10-02T14:13:38Z</time>
      </trkpt>
      <trkpt lat="41.930200" lon="3.065405">
        <ele>169.350</ele>
        <time>2021-10-02T14:13:44Z</time>
      </trkpt>
      <trkpt lat="41.930239" lon="3.065268">
        <ele>168.269</ele>
        <time>2021-10-02T14:13:49Z</time>
      </trkpt>
      <trkpt lat="41.930203" lon="3.065062">
        <ele>166.983</ele>
        <time>2021-10-02T14:13:57Z</time>
      </trkpt>
      <trkpt lat="41.930144" lon="3.064898">
        <ele>166.535</ele>
        <time>2021-10-02T14:14:04Z</time>
      </trkpt>
      <trkpt lat="41.930126" lon="3.064779">
        <ele>166.095</ele>
        <time>2021-10-02T14:14:08Z</time>
      </trkpt>
      <trkpt lat="41.930185" lon="3.064565">
        <ele>166.553</ele>
        <time>2021-10-02T14:14:16Z</time>
      </trkpt>
      <trkpt lat="41.930436" lon="3.064236">
        <ele>167.160</ele>
        <time>2021-10-02T14:14:34Z</time>
      </trkpt>
      <trkpt lat="41.930528" lon="3.064085">
        <ele>165.165</ele>
        <time>2021-10-02T14:14:41Z</time>
      </trkpt>
      <trkpt lat="41.930896" lon="3.063266">
        <ele>170.139</ele>
        <time>2021-10-02T14:15:16Z</time>
      </trkpt>
      <trkpt lat="41.931029" lon="3.062896">
        <ele>176.101</ele>
        <time>2021-10-02T14:15:32Z</time>
      </trkpt>
      <trkpt lat="41.931099" lon="3.062663">
        <ele>181.021</ele>
        <time>2021-10-02T14:15:41Z</time>
      </trkpt>
      <trkpt lat="41.931294" lon="3.062361">
        <ele>185.008</ele>
        <time>2021-10-02T14:15:56Z</time>
      </trkpt>
      <trkpt lat="41.931531" lon="3.062030">
        <ele>189.532</ele>
        <time>2021-10-02T14:16:13Z</time>
      </trkpt>
      <trkpt lat="41.931614" lon="3.061859">
        <ele>189.961</ele>
        <time>2021-10-02T14:16:21Z</time>
      </trkpt>
      <trkpt lat="41.931694" lon="3.061614">
        <ele>189.265</ele>
        <time>2021-10-02T14:16:31Z</time>
      </trkpt>
      <trkpt lat="41.931906" lon="3.061347">
        <ele>189.387</ele>
        <time>2021-10-02T14:16:45Z</time>
      </trkpt>
      <trkpt lat="41.931965" lon="3.061137">
        <ele>189.287</ele>
        <time>2021-10-02T14:16:53Z</time>
      </trkpt>
      <trkpt lat="41.932070" lon="3.060890">
        <ele>187.035</ele>
        <time>2021-10-02T14:17:04Z</time>
      </trkpt>
      <trkpt lat="41.932184" lon="3.060643">
        <ele>187.142</ele>
        <time>2021-10-02T14:17:15Z</time>
      </trkpt>
      <trkpt lat="41.931866" lon="3.060500">
        <ele>192.037</ele>
        <time>2021-10-02T14:17:31Z</time>
      </trkpt>
      <trkpt lat="41.931793" lon="3.060388">
        <ele>192.065</ele>
        <time>2021-10-02T14:17:37Z</time>
      </trkpt>
      <trkpt lat="41.931762" lon="3.060114">
        <ele>195.668</ele>
        <time>2021-10-02T14:17:47Z</time>
      </trkpt>
      <trkpt lat="41.931561" lon="3.059766">
        <ele>196.914</ele>
        <time>2021-10-02T14:18:04Z</time>
      </trkpt>
      <trkpt lat="41.931497" lon="3.059651">
        <ele>196.408</ele>
        <time>2021-10-02T14:18:09Z</time>
      </trkpt>
      <trkpt lat="41.931438" lon="3.059493">
        <ele>196.185</ele>
        <time>2021-10-02T14:18:15Z</time>
      </trkpt>
      <trkpt lat="41.931429" lon="3.059384">
        <ele>194.814</ele>
        <time>2021-10-02T14:18:19Z</time>
      </trkpt>
      <trkpt lat="41.931439" lon="3.059291">
        <ele>193.578</ele>
        <time>2021-10-02T14:18:23Z</time>
      </trkpt>
      <trkpt lat="41.931528" lon="3.059183">
        <ele>193.850</ele>
        <time>2021-10-02T14:18:29Z</time>
      </trkpt>
      <trkpt lat="41.931707" lon="3.059069">
        <ele>194.070</ele>
        <time>2021-10-02T14:18:39Z</time>
      </trkpt>
      <trkpt lat="41.931788" lon="3.058924">
        <ele>194.948</ele>
        <time>2021-10-02T14:18:45Z</time>
      </trkpt>
      <trkpt lat="41.931883" lon="3.058730">
        <ele>195.015</ele>
        <time>2021-10-02T14:18:54Z</time>
      </trkpt>
      <trkpt lat="41.931916" lon="3.058637">
        <ele>196.520</ele>
        <time>2021-10-02T14:18:58Z</time>
      </trkpt>
      <trkpt lat="41.931919" lon="3.058539">
        <ele>196.792</ele>
        <time>2021-10-02T14:19:01Z</time>
      </trkpt>
      <trkpt lat="41.931910" lon="3.058437">
        <ele>196.673</ele>
        <time>2021-10-02T14:19:05Z</time>
      </trkpt>
      <trkpt lat="41.931908" lon="3.058297">
        <ele>196.520</ele>
        <time>2021-10-02T14:19:10Z</time>
      </trkpt>
      <trkpt lat="41.931915" lon="3.058195">
        <ele>196.408</ele>
        <time>2021-10-02T14:19:14Z</time>
      </trkpt>
      <trkpt lat="41.931987" lon="3.058011">
        <ele>196.268</ele>
        <time>2021-10-02T14:19:22Z</time>
      </trkpt>
      <trkpt lat="41.932051" lon="3.057934">
        <ele>196.367</ele>
        <time>2021-10-02T14:19:26Z</time>
      </trkpt>
      <trkpt lat="41.932125" lon="3.057808">
        <ele>197.121</ele>
        <time>2021-10-02T14:19:32Z</time>
      </trkpt>
      <trkpt lat="41.932229" lon="3.057593">
        <ele>198.363</ele>
        <time>2021-10-02T14:19:42Z</time>
      </trkpt>
      <trkpt lat="41.932308" lon="3.057556">
        <ele>199.063</ele>
        <time>2021-10-02T14:19:46Z</time>
      </trkpt>
      <trkpt lat="41.932370" lon="3.057446">
        <ele>199.091</ele>
        <time>2021-10-02T14:19:51Z</time>
      </trkpt>
      <trkpt lat="41.932429" lon="3.057167">
        <ele>200.868</ele>
        <time>2021-10-02T14:20:02Z</time>
      </trkpt>
      <trkpt lat="41.932430" lon="3.056936">
        <ele>201.833</ele>
        <time>2021-10-02T14:20:10Z</time>
      </trkpt>
      <trkpt lat="41.932440" lon="3.056738">
        <ele>201.431</ele>
        <time>2021-10-02T14:20:17Z</time>
      </trkpt>
      <trkpt lat="41.932417" lon="3.056589">
        <ele>200.361</ele>
        <time>2021-10-02T14:20:23Z</time>
      </trkpt>
      <trkpt lat="41.932399" lon="3.056506">
        <ele>198.907</ele>
        <time>2021-10-02T14:20:26Z</time>
      </trkpt>
      <trkpt lat="41.932321" lon="3.056331">
        <ele>196.008</ele>
        <time>2021-10-02T14:20:34Z</time>
      </trkpt>
      <trkpt lat="41.932302" lon="3.056224">
        <ele>195.152</ele>
        <time>2021-10-02T14:20:38Z</time>
      </trkpt>
      <trkpt lat="41.932330" lon="3.055833">
        <ele>193.081</ele>
        <time>2021-10-02T14:20:53Z</time>
      </trkpt>
      <trkpt lat="41.932349" lon="3.055661">
        <ele>191.965</ele>
        <time>2021-10-02T14:20:59Z</time>
      </trkpt>
      <trkpt lat="41.932376" lon="3.055561">
        <ele>190.297</ele>
        <time>2021-10-02T14:21:03Z</time>
      </trkpt>
      <trkpt lat="41.932487" lon="3.055407">
        <ele>188.337</ele>
        <time>2021-10-02T14:21:11Z</time>
      </trkpt>
      <trkpt lat="41.932600" lon="3.055152">
        <ele>188.925</ele>
        <time>2021-10-02T14:21:22Z</time>
      </trkpt>
      <trkpt lat="41.932645" lon="3.054948">
        <ele>190.722</ele>
        <time>2021-10-02T14:21:30Z</time>
      </trkpt>
      <trkpt lat="41.932829" lon="3.054783">
        <ele>193.677</ele>
        <time>2021-10-02T14:21:41Z</time>
      </trkpt>
      <trkpt lat="41.932902" lon="3.054770">
        <ele>192.427</ele>
        <time>2021-10-02T14:21:44Z</time>
      </trkpt>
      <trkpt lat="41.932977" lon="3.054728">
        <ele>190.868</ele>
        <time>2021-10-02T14:21:49Z</time>
      </trkpt>
      <trkpt lat="41.933007" lon="3.054668">
        <ele>189.614</ele>
        <time>2021-10-02T14:21:51Z</time>
      </trkpt>
      <trkpt lat="41.933025" lon="3.054537">
        <ele>189.408</ele>
        <time>2021-10-02T14:21:56Z</time>
      </trkpt>
      <trkpt lat="41.933129" lon="3.054238">
        <ele>187.581</ele>
        <time>2021-10-02T14:22:08Z</time>
      </trkpt>
      <trkpt lat="41.933205" lon="3.054121">
        <ele>186.090</ele>
        <time>2021-10-02T14:22:14Z</time>
      </trkpt>
      <trkpt lat="41.933295" lon="3.054039">
        <ele>184.494</ele>
        <time>2021-10-02T14:22:20Z</time>
      </trkpt>
      <trkpt lat="41.933505" lon="3.053906">
        <ele>181.596</ele>
        <time>2021-10-02T14:22:31Z</time>
      </trkpt>
      <trkpt lat="41.933663" lon="3.053839">
        <ele>177.776</ele>
        <time>2021-10-02T14:22:40Z</time>
      </trkpt>
      <trkpt lat="41.933786" lon="3.053770">
        <ele>175.214</ele>
        <time>2021-10-02T14:22:46Z</time>
      </trkpt>
      <trkpt lat="41.934037" lon="3.053536">
        <ele>170.651</ele>
        <time>2021-10-02T14:23:02Z</time>
      </trkpt>
      <trkpt lat="41.934376" lon="3.053286">
        <ele>164.876</ele>
        <time>2021-10-02T14:23:21Z</time>
      </trkpt>
      <trkpt lat="41.934516" lon="3.053168">
        <ele>164.669</ele>
        <time>2021-10-02T14:23:29Z</time>
      </trkpt>
      <trkpt lat="41.934589" lon="3.053070">
        <ele>164.904</ele>
        <time>2021-10-02T14:23:34Z</time>
      </trkpt>
      <trkpt lat="41.934687" lon="3.052896">
        <ele>164.224</ele>
        <time>2021-10-02T14:23:42Z</time>
      </trkpt>
      <trkpt lat="41.934778" lon="3.052761">
        <ele>164.008</ele>
        <time>2021-10-02T14:23:49Z</time>
      </trkpt>
      <trkpt lat="41.934861" lon="3.052712">
        <ele>164.065</ele>
        <time>2021-10-02T14:23:53Z</time>
      </trkpt>
      <trkpt lat="41.934955" lon="3.052594">
        <ele>164.034</ele>
        <time>2021-10-02T14:24:00Z</time>
      </trkpt>
      <trkpt lat="41.935134" lon="3.052523">
        <ele>161.788</ele>
        <time>2021-10-02T14:24:09Z</time>
      </trkpt>
      <trkpt lat="41.935259" lon="3.052452">
        <ele>158.720</ele>
        <time>2021-10-02T14:24:16Z</time>
      </trkpt>
      <trkpt lat="41.935437" lon="3.052226">
        <ele>153.920</ele>
        <time>2021-10-02T14:24:28Z</time>
      </trkpt>
      <trkpt lat="41.935587" lon="3.052131">
        <ele>151.258</ele>
        <time>2021-10-02T14:24:37Z</time>
      </trkpt>
      <trkpt lat="41.935745" lon="3.052145">
        <ele>147.975</ele>
        <time>2021-10-02T14:24:45Z</time>
      </trkpt>
      <trkpt lat="41.935951" lon="3.052088">
        <ele>144.830</ele>
        <time>2021-10-02T14:24:55Z</time>
      </trkpt>
      <trkpt lat="41.936391" lon="3.052124">
        <ele>137.041</ele>
        <time>2021-10-02T14:25:17Z</time>
      </trkpt>
      <trkpt lat="41.936580" lon="3.052109">
        <ele>131.781</ele>
        <time>2021-10-02T14:25:27Z</time>
      </trkpt>
      <trkpt lat="41.936832" lon="3.052258">
        <ele>127.209</ele>
        <time>2021-10-02T14:25:41Z</time>
      </trkpt>
      <trkpt lat="41.936933" lon="3.052276">
        <ele>124.908</ele>
        <time>2021-10-02T14:25:46Z</time>
      </trkpt>
      <trkpt lat="41.937178" lon="3.052280">
        <ele>120.643</ele>
        <time>2021-10-02T14:25:58Z</time>
      </trkpt>
      <trkpt lat="41.937335" lon="3.052214">
        <ele>119.012</ele>
        <time>2021-10-02T14:26:06Z</time>
      </trkpt>
      <trkpt lat="41.937395" lon="3.052275">
        <ele>118.536</ele>
        <time>2021-10-02T14:26:10Z</time>
      </trkpt>
      <trkpt lat="41.937342" lon="3.051993">
        <ele>116.048</ele>
        <time>2021-10-02T14:26:21Z</time>
      </trkpt>
      <trkpt lat="41.937268" lon="3.051857">
        <ele>114.888</ele>
        <time>2021-10-02T14:26:27Z</time>
      </trkpt>
      <trkpt lat="41.936858" lon="3.051487">
        <ele>116.826</ele>
        <time>2021-10-02T14:26:52Z</time>
      </trkpt>
      <trkpt lat="41.936585" lon="3.051390">
        <ele>120.793</ele>
        <time>2021-10-02T14:27:06Z</time>
      </trkpt>
      <trkpt lat="41.936522" lon="3.051333">
        <ele>122.198</ele>
        <time>2021-10-02T14:27:10Z</time>
      </trkpt>
      <trkpt lat="41.936511" lon="3.051235">
        <ele>122.319</ele>
        <time>2021-10-02T14:27:13Z</time>
      </trkpt>
      <trkpt lat="41.936564" lon="3.051169">
        <ele>122.609</ele>
        <time>2021-10-02T14:27:17Z</time>
      </trkpt>
      <trkpt lat="41.936773" lon="3.051130">
        <ele>121.819</ele>
        <time>2021-10-02T14:27:27Z</time>
      </trkpt>
      <trkpt lat="41.937346" lon="3.050926">
        <ele>117.208</ele>
        <time>2021-10-02T14:27:57Z</time>
      </trkpt>
      <trkpt lat="41.937633" lon="3.050803">
        <ele>115.110</ele>
        <time>2021-10-02T14:28:12Z</time>
      </trkpt>
      <trkpt lat="41.937664" lon="3.050737">
        <ele>114.719</ele>
        <time>2021-10-02T14:28:15Z</time>
      </trkpt>
      <trkpt lat="41.937602" lon="3.050320">
        <ele>115.433</ele>
        <time>2021-10-02T14:28:30Z</time>
      </trkpt>
      <trkpt lat="41.937696" lon="3.050188">
        <ele>113.145</ele>
        <time>2021-10-02T14:28:37Z</time>
      </trkpt>
      <trkpt lat="41.937827" lon="3.050034">
        <ele>110.525</ele>
        <time>2021-10-02T14:28:46Z</time>
      </trkpt>
      <trkpt lat="41.937863" lon="3.049945">
        <ele>109.153</ele>
        <time>2021-10-02T14:28:50Z</time>
      </trkpt>
      <trkpt lat="41.937877" lon="3.049700">
        <ele>106.090</ele>
        <time>2021-10-02T14:28:59Z</time>
      </trkpt>
      <trkpt lat="41.937688" lon="3.049729">
        <ele>106.015</ele>
        <time>2021-10-02T14:29:08Z</time>
      </trkpt>
      <trkpt lat="41.937334" lon="3.049817">
        <ele>108.071</ele>
        <time>2021-10-02T14:29:26Z</time>
      </trkpt>
      <trkpt lat="41.937034" lon="3.049893">
        <ele>110.941</ele>
        <time>2021-10-02T14:29:41Z</time>
      </trkpt>
      <trkpt lat="41.936748" lon="3.049733">
        <ele>113.615</ele>
        <time>2021-10-02T14:29:57Z</time>
      </trkpt>
      <trkpt lat="41.936527" lon="3.049647">
        <ele>117.008</ele>
        <time>2021-10-02T14:30:08Z</time>
      </trkpt>
      <trkpt lat="41.936352" lon="3.049493">
        <ele>118.576</ele>
        <time>2021-10-02T14:30:19Z</time>
      </trkpt>
      <trkpt lat="41.936232" lon="3.049376">
        <ele>120.955</ele>
        <time>2021-10-02T14:30:26Z</time>
      </trkpt>
      <trkpt lat="41.936166" lon="3.049192">
        <ele>123.439</ele>
        <time>2021-10-02T14:30:34Z</time>
      </trkpt>
      <trkpt lat="41.936150" lon="3.048974">
        <ele>127.021</ele>
        <time>2021-10-02T14:30:42Z</time>
      </trkpt>
      <trkpt lat="41.936083" lon="3.048881">
        <ele>128.531</ele>
        <time>2021-10-02T14:30:47Z</time>
      </trkpt>
      <trkpt lat="41.935904" lon="3.048874">
        <ele>128.539</ele>
        <time>2021-10-02T14:30:56Z</time>
      </trkpt>
      <trkpt lat="41.935756" lon="3.048827">
        <ele>127.156</ele>
        <time>2021-10-02T14:31:03Z</time>
      </trkpt>
      <trkpt lat="41.935125" lon="3.048792">
        <ele>118.971</ele>
        <time>2021-10-02T14:31:35Z</time>
      </trkpt>
      <trkpt lat="41.934938" lon="3.048856">
        <ele>118.128</ele>
        <time>2021-10-02T14:31:44Z</time>
      </trkpt>
      <trkpt lat="41.934822" lon="3.048871">
        <ele>118.289</ele>
        <time>2021-10-02T14:31:50Z</time>
      </trkpt>
      <trkpt lat="41.934669" lon="3.048854">
        <ele>118.017</ele>
        <time>2021-10-02T14:31:58Z</time>
      </trkpt>
      <trkpt lat="41.934432" lon="3.048777">
        <ele>117.708</ele>
        <time>2021-10-02T14:32:10Z</time>
      </trkpt>
      <trkpt lat="41.934191" lon="3.048681">
        <ele>115.321</ele>
        <time>2021-10-02T14:32:22Z</time>
      </trkpt>
      <trkpt lat="41.933959" lon="3.048492">
        <ele>112.030</ele>
        <time>2021-10-02T14:32:36Z</time>
      </trkpt>
      <trkpt lat="41.933838" lon="3.048364">
        <ele>110.934</ele>
        <time>2021-10-02T14:32:43Z</time>
      </trkpt>
      <trkpt lat="41.933699" lon="3.048194">
        <ele>109.076</ele>
        <time>2021-10-02T14:32:53Z</time>
      </trkpt>
      <trkpt lat="41.933570" lon="3.048150">
        <ele>108.046</ele>
        <time>2021-10-02T14:32:59Z</time>
      </trkpt>
      <trkpt lat="41.933438" lon="3.048038">
        <ele>106.444</ele>
        <time>2021-10-02T14:33:07Z</time>
      </trkpt>
      <trkpt lat="41.933306" lon="3.047881">
        <ele>102.581</ele>
        <time>2021-10-02T14:33:16Z</time>
      </trkpt>
      <trkpt lat="41.932990" lon="3.047645">
        <ele>94.526</ele>
        <time>2021-10-02T14:33:34Z</time>
      </trkpt>
      <trkpt lat="41.932875" lon="3.047642">
        <ele>94.024</ele>
        <time>2021-10-02T14:33:40Z</time>
      </trkpt>
      <trkpt lat="41.932564" lon="3.047560">
        <ele>91.404</ele>
        <time>2021-10-02T14:33:56Z</time>
      </trkpt>
      <trkpt lat="41.932520" lon="3.047636">
        <ele>90.214</ele>
        <time>2021-10-02T14:33:59Z</time>
      </trkpt>
      <trkpt lat="41.932455" lon="3.047704">
        <ele>89.008</ele>
        <time>2021-10-02T14:34:04Z</time>
      </trkpt>
      <trkpt lat="41.932402" lon="3.047704">
        <ele>89.091</ele>
        <time>2021-10-02T14:34:06Z</time>
      </trkpt>
      <trkpt lat="41.932360" lon="3.047742">
        <ele>87.960</ele>
        <time>2021-10-02T14:34:09Z</time>
      </trkpt>
      <trkpt lat="41.932268" lon="3.047671">
        <ele>87.394</ele>
        <time>2021-10-02T14:34:14Z</time>
      </trkpt>
      <trkpt lat="41.931792" lon="3.047889">
        <ele>82.046</ele>
        <time>2021-10-02T14:34:39Z</time>
      </trkpt>
      <trkpt lat="41.931389" lon="3.048115">
        <ele>79.516</ele>
        <time>2021-10-02T14:35:01Z</time>
      </trkpt>
      <trkpt lat="41.931327" lon="3.048214">
        <ele>80.494</ele>
        <time>2021-10-02T14:35:06Z</time>
      </trkpt>
      <trkpt lat="41.931180" lon="3.048310">
        <ele>80.181</ele>
        <time>2021-10-02T14:35:14Z</time>
      </trkpt>
      <trkpt lat="41.930999" lon="3.048398">
        <ele>80.616</ele>
        <time>2021-10-02T14:35:23Z</time>
      </trkpt>
      <trkpt lat="41.930847" lon="3.048493">
        <ele>81.942</ele>
        <time>2021-10-02T14:35:31Z</time>
      </trkpt>
      <trkpt lat="41.930621" lon="3.048589">
        <ele>82.722</ele>
        <time>2021-10-02T14:35:43Z</time>
      </trkpt>
      <trkpt lat="41.930072" lon="3.048866">
        <ele>84.314</ele>
        <time>2021-10-02T14:36:12Z</time>
      </trkpt>
      <trkpt lat="41.929848" lon="3.048959">
        <ele>85.808</ele>
        <time>2021-10-02T14:36:24Z</time>
      </trkpt>
      <trkpt lat="41.929620" lon="3.049033">
        <ele>86.183</ele>
        <time>2021-10-02T14:36:36Z</time>
      </trkpt>
      <trkpt lat="41.929557" lon="3.049093">
        <ele>88.092</ele>
        <time>2021-10-02T14:36:40Z</time>
      </trkpt>
      <trkpt lat="41.929578" lon="3.048897">
        <ele>84.826</ele>
        <time>2021-10-02T14:36:47Z</time>
      </trkpt>
      <trkpt lat="41.929582" lon="3.048614">
        <ele>82.038</ele>
        <time>2021-10-02T14:36:57Z</time>
      </trkpt>
      <trkpt lat="41.929530" lon="3.048487">
        <ele>81.058</ele>
        <time>2021-10-02T14:37:03Z</time>
      </trkpt>
      <trkpt lat="41.929469" lon="3.048395">
        <ele>80.256</ele>
        <time>2021-10-02T14:37:07Z</time>
      </trkpt>
      <trkpt lat="41.929220" lon="3.048228">
        <ele>78.013</ele>
        <time>2021-10-02T14:37:21Z</time>
      </trkpt>
      <trkpt lat="41.929083" lon="3.048220">
        <ele>78.488</ele>
        <time>2021-10-02T14:37:28Z</time>
      </trkpt>
      <trkpt lat="41.928667" lon="3.048275">
        <ele>78.256</ele>
        <time>2021-10-02T14:37:49Z</time>
      </trkpt>
      <trkpt lat="41.928615" lon="3.048258">
        <ele>78.059</ele>
        <time>2021-10-02T14:37:51Z</time>
      </trkpt>
      <trkpt lat="41.928350" lon="3.048169">
        <ele>75.714</ele>
        <time>2021-10-02T14:38:05Z</time>
      </trkpt>
      <trkpt lat="41.928204" lon="3.048193">
        <ele>74.308</ele>
        <time>2021-10-02T14:38:12Z</time>
      </trkpt>
      <trkpt lat="41.928109" lon="3.048248">
        <ele>73.384</ele>
        <time>2021-10-02T14:38:17Z</time>
      </trkpt>
      <trkpt lat="41.927996" lon="3.048290">
        <ele>72.143</ele>
        <time>2021-10-02T14:38:23Z</time>
      </trkpt>
      <trkpt lat="41.927951" lon="3.048283">
        <ele>72.887</ele>
        <time>2021-10-02T14:38:26Z</time>
      </trkpt>
      <trkpt lat="41.927946" lon="3.048231">
        <ele>73.939</ele>
        <time>2021-10-02T14:38:28Z</time>
      </trkpt>
      <trkpt lat="41.927951" lon="3.048139">
        <ele>76.489</ele>
        <time>2021-10-02T14:38:31Z</time>
      </trkpt>
      <trkpt lat="41.927820" lon="3.047815">
        <ele>79.327</ele>
        <time>2021-10-02T14:38:45Z</time>
      </trkpt>
      <trkpt lat="41.927714" lon="3.047646">
        <ele>78.784</ele>
        <time>2021-10-02T14:38:53Z</time>
      </trkpt>
      <trkpt lat="41.927602" lon="3.047561">
        <ele>79.729</ele>
        <time>2021-10-02T14:38:59Z</time>
      </trkpt>
      <trkpt lat="41.927280" lon="3.047430">
        <ele>82.584</ele>
        <time>2021-10-02T14:39:16Z</time>
      </trkpt>
      <trkpt lat="41.926927" lon="3.046993">
        <ele>87.207</ele>
        <time>2021-10-02T14:39:40Z</time>
      </trkpt>
      <trkpt lat="41.926160" lon="3.046815">
        <ele>95.217</ele>
        <time>2021-10-02T14:40:19Z</time>
      </trkpt>
      <trkpt lat="41.925928" lon="3.046913">
        <ele>99.008</ele>
        <time>2021-10-02T14:40:31Z</time>
      </trkpt>
      <trkpt lat="41.925795" lon="3.047016">
        <ele>99.717</ele>
        <time>2021-10-02T14:40:39Z</time>
      </trkpt>
      <trkpt lat="41.925693" lon="3.047188">
        <ele>100.076</ele>
        <time>2021-10-02T14:40:47Z</time>
      </trkpt>
      <trkpt lat="41.925590" lon="3.047264">
        <ele>101.280</ele>
        <time>2021-10-02T14:40:53Z</time>
      </trkpt>
      <trkpt lat="41.925521" lon="3.047237">
        <ele>103.722</ele>
        <time>2021-10-02T14:40:56Z</time>
      </trkpt>
      <trkpt lat="41.925463" lon="3.047197">
        <ele>105.722</ele>
        <time>2021-10-02T14:41:00Z</time>
      </trkpt>
      <trkpt lat="41.925420" lon="3.047099">
        <ele>107.660</ele>
        <time>2021-10-02T14:41:04Z</time>
      </trkpt>
      <trkpt lat="41.925472" lon="3.046977">
        <ele>109.067</ele>
        <time>2021-10-02T14:41:09Z</time>
      </trkpt>
      <trkpt lat="41.925591" lon="3.046768">
        <ele>109.182</ele>
        <time>2021-10-02T14:41:19Z</time>
      </trkpt>
      <trkpt lat="41.925833" lon="3.046517">
        <ele>108.952</ele>
        <time>2021-10-02T14:41:34Z</time>
      </trkpt>
      <trkpt lat="41.925899" lon="3.046387">
        <ele>109.853</ele>
        <time>2021-10-02T14:41:40Z</time>
      </trkpt>
      <trkpt lat="41.925925" lon="3.046207">
        <ele>109.908</ele>
        <time>2021-10-02T14:41:47Z</time>
      </trkpt>
      <trkpt lat="41.925910" lon="3.045765">
        <ele>110.808</ele>
        <time>2021-10-02T14:42:03Z</time>
      </trkpt>
      <trkpt lat="41.925893" lon="3.045538">
        <ele>110.454</ele>
        <time>2021-10-02T14:42:11Z</time>
      </trkpt>
      <trkpt lat="41.925842" lon="3.045245">
        <ele>111.333</ele>
        <time>2021-10-02T14:42:22Z</time>
      </trkpt>
      <trkpt lat="41.925888" lon="3.045120">
        <ele>110.897</ele>
        <time>2021-10-02T14:42:28Z</time>
      </trkpt>
      <trkpt lat="41.926083" lon="3.044782">
        <ele>113.469</ele>
        <time>2021-10-02T14:42:43Z</time>
      </trkpt>
      <trkpt lat="41.926139" lon="3.044649">
        <ele>114.319</ele>
        <time>2021-10-02T14:42:49Z</time>
      </trkpt>
      <trkpt lat="41.926074" lon="3.044481">
        <ele>117.447</ele>
        <time>2021-10-02T14:42:56Z</time>
      </trkpt>
      <trkpt lat="41.926082" lon="3.044350">
        <ele>119.684</ele>
        <time>2021-10-02T14:43:01Z</time>
      </trkpt>
      <trkpt lat="41.926147" lon="3.044233">
        <ele>121.099</ele>
        <time>2021-10-02T14:43:07Z</time>
      </trkpt>
      <trkpt lat="41.926301" lon="3.044054">
        <ele>120.533</ele>
        <time>2021-10-02T14:43:17Z</time>
      </trkpt>
      <trkpt lat="41.926440" lon="3.043965">
        <ele>120.123</ele>
        <time>2021-10-02T14:43:24Z</time>
      </trkpt>
      <trkpt lat="41.926676" lon="3.043809">
        <ele>119.415</ele>
        <time>2021-10-02T14:43:37Z</time>
      </trkpt>
      <trkpt lat="41.926751" lon="3.043716">
        <ele>119.208</ele>
        <time>2021-10-02T14:43:42Z</time>
      </trkpt>
      <trkpt lat="41.926780" lon="3.043615">
        <ele>119.942</ele>
        <time>2021-10-02T14:43:46Z</time>
      </trkpt>
      <trkpt lat="41.926905" lon="3.043576">
        <ele>118.351</ele>
        <time>2021-10-02T14:43:53Z</time>
      </trkpt>
      <trkpt lat="41.926951" lon="3.043518">
        <ele>118.045</ele>
        <time>2021-10-02T14:43:56Z</time>
      </trkpt>
      <trkpt lat="41.927062" lon="3.042808">
        <ele>116.857</ele>
        <time>2021-10-02T14:44:23Z</time>
      </trkpt>
      <trkpt lat="41.927014" lon="3.042387">
        <ele>111.337</ele>
        <time>2021-10-02T14:44:39Z</time>
      </trkpt>
      <trkpt lat="41.927140" lon="3.042269">
        <ele>109.945</ele>
        <time>2021-10-02T14:44:46Z</time>
      </trkpt>
      <trkpt lat="41.927190" lon="3.042170">
        <ele>108.342</ele>
        <time>2021-10-02T14:44:51Z</time>
      </trkpt>
      <trkpt lat="41.927223" lon="3.041927">
        <ele>107.167</ele>
        <time>2021-10-02T14:45:00Z</time>
      </trkpt>
      <trkpt lat="41.927353" lon="3.041583">
        <ele>105.662</ele>
        <time>2021-10-02T14:45:14Z</time>
      </trkpt>
      <trkpt lat="41.927496" lon="3.041417">
        <ele>104.683</ele>
        <time>2021-10-02T14:45:23Z</time>
      </trkpt>
      <trkpt lat="41.927593" lon="3.041358">
        <ele>103.911</ele>
        <time>2021-10-02T14:45:29Z</time>
      </trkpt>
      <trkpt lat="41.927715" lon="3.041104">
        <ele>104.408</ele>
        <time>2021-10-02T14:45:40Z</time>
      </trkpt>
      <trkpt lat="41.927945" lon="3.040927">
        <ele>104.395</ele>
        <time>2021-10-02T14:45:53Z</time>
      </trkpt>
      <trkpt lat="41.928123" lon="3.040833">
        <ele>105.664</ele>
        <time>2021-10-02T14:46:03Z</time>
      </trkpt>
      <trkpt lat="41.928333" lon="3.040608">
        <ele>105.338</ele>
        <time>2021-10-02T14:46:16Z</time>
      </trkpt>
      <trkpt lat="41.928450" lon="3.040475">
        <ele>103.690</ele>
        <time>2021-10-02T14:46:23Z</time>
      </trkpt>
      <trkpt lat="41.928544" lon="3.040277">
        <ele>104.580</ele>
        <time>2021-10-02T14:46:32Z</time>
      </trkpt>
      <trkpt lat="41.928566" lon="3.040120">
        <ele>106.018</ele>
        <time>2021-10-02T14:46:38Z</time>
      </trkpt>
      <trkpt lat="41.928524" lon="3.039984">
        <ele>106.065</ele>
        <time>2021-10-02T14:46:44Z</time>
      </trkpt>
      <trkpt lat="41.928466" lon="3.039880">
        <ele>106.060</ele>
        <time>2021-10-02T14:46:48Z</time>
      </trkpt>
      <trkpt lat="41.928446" lon="3.039765">
        <ele>105.014</ele>
        <time>2021-10-02T14:46:53Z</time>
      </trkpt>
      <trkpt lat="41.928468" lon="3.039651">
        <ele>105.054</ele>
        <time>2021-10-02T14:46:57Z</time>
      </trkpt>
      <trkpt lat="41.928541" lon="3.039541">
        <ele>105.009</ele>
        <time>2021-10-02T14:47:02Z</time>
      </trkpt>
      <trkpt lat="41.928750" lon="3.039335">
        <ele>103.008</ele>
        <time>2021-10-02T14:47:15Z</time>
      </trkpt>
      <trkpt lat="41.928845" lon="3.039217">
        <ele>102.510</ele>
        <time>2021-10-02T14:47:22Z</time>
      </trkpt>
      <trkpt lat="41.928927" lon="3.039089">
        <ele>101.279</ele>
        <time>2021-10-02T14:47:28Z</time>
      </trkpt>
      <trkpt lat="41.928952" lon="3.038873">
        <ele>101.013</ele>
        <time>2021-10-02T14:47:36Z</time>
      </trkpt>
      <trkpt lat="41.928907" lon="3.038495">
        <ele>100.515</ele>
        <time>2021-10-02T14:47:50Z</time>
      </trkpt>
      <trkpt lat="41.928877" lon="3.038300">
        <ele>99.885</ele>
        <time>2021-10-02T14:47:58Z</time>
      </trkpt>
      <trkpt lat="41.928883" lon="3.038180">
        <ele>99.853</ele>
        <time>2021-10-02T14:48:02Z</time>
      </trkpt>
      <trkpt lat="41.929013" lon="3.037833">
        <ele>98.910</ele>
        <time>2021-10-02T14:48:16Z</time>
      </trkpt>
      <trkpt lat="41.929036" lon="3.037614">
        <ele>98.475</ele>
        <time>2021-10-02T14:48:24Z</time>
      </trkpt>
      <trkpt lat="41.929030" lon="3.037302">
        <ele>97.626</ele>
        <time>2021-10-02T14:48:36Z</time>
      </trkpt>
      <trkpt lat="41.929023" lon="3.036966">
        <ele>97.047</ele>
        <time>2021-10-02T14:48:48Z</time>
      </trkpt>
      <trkpt lat="41.928991" lon="3.036838">
        <ele>97.111</ele>
        <time>2021-10-02T14:48:53Z</time>
      </trkpt>
      <trkpt lat="41.929058" lon="3.036729">
        <ele>97.908</ele>
        <time>2021-10-02T14:48:59Z</time>
      </trkpt>
      <trkpt lat="41.929328" lon="3.036677">
        <ele>96.941</ele>
        <time>2021-10-02T14:49:12Z</time>
      </trkpt>
      <trkpt lat="41.929643" lon="3.036652">
        <ele>96.070</ele>
        <time>2021-10-02T14:49:28Z</time>
      </trkpt>
      <trkpt lat="41.929661" lon="3.036596">
        <ele>96.074</ele>
        <time>2021-10-02T14:49:30Z</time>
      </trkpt>
      <trkpt lat="41.929676" lon="3.036294">
        <ele>96.066</ele>
        <time>2021-10-02T14:49:41Z</time>
      </trkpt>
      <trkpt lat="41.929683" lon="3.036081">
        <ele>95.066</ele>
        <time>2021-10-02T14:49:49Z</time>
      </trkpt>
      <trkpt lat="41.929683" lon="3.036081">
        <ele>95.066</ele>
        <time>2021-10-02T14:49:49Z</time>
      </trkpt>
      <trkpt lat="41.929683" lon="3.036081">
        <ele>95.029</ele>
        <time>2021-10-02T14:49:49Z</time>
      </trkpt>
      <trkpt lat="41.929683" lon="3.036081">
        <ele>95.021</ele>
        <time>2021-10-02T14:49:49Z</time>
      </trkpt>
      <trkpt lat="41.929683" lon="3.036081">
        <ele>95.008</ele>
        <time>2021-10-02T14:49:49Z</time>
      </trkpt>
      <trkpt lat="41.929683" lon="3.036081">
        <ele>95.095</ele>
        <time>2021-10-02T14:49:49Z</time>
      </trkpt>
      <trkpt lat="41.929616" lon="3.036041">
        <ele>95.024</ele>
        <time>2021-10-02T14:49:53Z</time>
      </trkpt>
      <trkpt lat="41.929525" lon="3.036008">
        <ele>95.658</ele>
        <time>2021-10-02T14:49:57Z</time>
      </trkpt>
      <trkpt lat="41.929209" lon="3.035987">
        <ele>96.710</ele>
        <time>2021-10-02T14:50:13Z</time>
      </trkpt>
      <trkpt lat="41.929064" lon="3.036003">
        <ele>97.020</ele>
        <time>2021-10-02T14:50:20Z</time>
      </trkpt>
      <trkpt lat="41.928983" lon="3.036030">
        <ele>97.068</ele>
        <time>2021-10-02T14:50:24Z</time>
      </trkpt>
      <trkpt lat="41.928624" lon="3.036180">
        <ele>98.013</ele>
        <time>2021-10-02T14:50:43Z</time>
      </trkpt>
      <trkpt lat="41.928452" lon="3.036228">
        <ele>99.022</ele>
        <time>2021-10-02T14:50:52Z</time>
      </trkpt>
      <trkpt lat="41.928377" lon="3.036100">
        <ele>98.653</ele>
        <time>2021-10-02T14:50:58Z</time>
      </trkpt>
      <trkpt lat="41.928297" lon="3.036035">
        <ele>98.004</ele>
        <time>2021-10-02T14:51:02Z</time>
      </trkpt>
      <trkpt lat="41.928216" lon="3.035923">
        <ele>97.914</ele>
        <time>2021-10-02T14:51:08Z</time>
      </trkpt>
      <trkpt lat="41.928136" lon="3.035762">
        <ele>97.008</ele>
        <time>2021-10-02T14:51:15Z</time>
      </trkpt>
      <trkpt lat="41.928104" lon="3.035654">
        <ele>97.084</ele>
        <time>2021-10-02T14:51:20Z</time>
      </trkpt>
      <trkpt lat="41.928055" lon="3.035268">
        <ele>96.083</ele>
        <time>2021-10-02T14:51:34Z</time>
      </trkpt>
      <trkpt lat="41.928012" lon="3.035161">
        <ele>95.067</ele>
        <time>2021-10-02T14:51:39Z</time>
      </trkpt>
      <trkpt lat="41.927792" lon="3.034791">
        <ele>93.969</ele>
        <time>2021-10-02T14:51:56Z</time>
      </trkpt>
      <trkpt lat="41.927669" lon="3.034549">
        <ele>91.939</ele>
        <time>2021-10-02T14:52:07Z</time>
      </trkpt>
      <trkpt lat="41.927637" lon="3.034464">
        <ele>90.717</ele>
        <time>2021-10-02T14:52:11Z</time>
      </trkpt>
      <trkpt lat="41.927594" lon="3.034260">
        <ele>88.142</ele>
        <time>2021-10-02T14:52:18Z</time>
      </trkpt>
      <trkpt lat="41.927594" lon="3.034179">
        <ele>87.471</ele>
        <time>2021-10-02T14:52:21Z</time>
      </trkpt>
      <trkpt lat="41.927621" lon="3.034067">
        <ele>86.928</ele>
        <time>2021-10-02T14:52:26Z</time>
      </trkpt>
      <trkpt lat="41.927674" lon="3.033922">
        <ele>85.589</ele>
        <time>2021-10-02T14:52:32Z</time>
      </trkpt>
      <trkpt lat="41.927733" lon="3.033831">
        <ele>84.417</ele>
        <time>2021-10-02T14:52:36Z</time>
      </trkpt>
      <trkpt lat="41.927798" lon="3.033761">
        <ele>82.908</ele>
        <time>2021-10-02T14:52:40Z</time>
      </trkpt>
      <trkpt lat="41.927884" lon="3.033686">
        <ele>81.631</ele>
        <time>2021-10-02T14:52:46Z</time>
      </trkpt>
      <trkpt lat="41.927916" lon="3.033653">
        <ele>81.040</ele>
        <time>2021-10-02T14:52:48Z</time>
      </trkpt>
      <trkpt lat="41.927932" lon="3.033616">
        <ele>80.444</ele>
        <time>2021-10-02T14:52:49Z</time>
      </trkpt>
      <trkpt lat="41.927937" lon="3.033568">
        <ele>79.686</ele>
        <time>2021-10-02T14:52:51Z</time>
      </trkpt>
      <trkpt lat="41.927927" lon="3.033509">
        <ele>79.076</ele>
        <time>2021-10-02T14:52:53Z</time>
      </trkpt>
      <trkpt lat="41.927819" lon="3.033364">
        <ele>78.674</ele>
        <time>2021-10-02T14:53:01Z</time>
      </trkpt>
      <trkpt lat="41.927728" lon="3.033208">
        <ele>78.249</ele>
        <time>2021-10-02T14:53:08Z</time>
      </trkpt>
      <trkpt lat="41.927701" lon="3.033192">
        <ele>78.458</ele>
        <time>2021-10-02T14:53:10Z</time>
      </trkpt>
      <trkpt lat="41.927610" lon="3.033187">
        <ele>78.348</ele>
        <time>2021-10-02T14:53:14Z</time>
      </trkpt>
      <trkpt lat="41.927460" lon="3.033165">
        <ele>75.661</ele>
        <time>2021-10-02T14:53:22Z</time>
      </trkpt>
      <trkpt lat="41.927277" lon="3.033171">
        <ele>74.117</ele>
        <time>2021-10-02T14:53:31Z</time>
      </trkpt>
      <trkpt lat="41.927208" lon="3.033133">
        <ele>74.008</ele>
        <time>2021-10-02T14:53:35Z</time>
      </trkpt>
      <trkpt lat="41.927084" lon="3.033020">
        <ele>72.153</ele>
        <time>2021-10-02T14:53:42Z</time>
      </trkpt>
      <trkpt lat="41.927068" lon="3.032956">
        <ele>71.592</ele>
        <time>2021-10-02T14:53:44Z</time>
      </trkpt>
      <trkpt lat="41.927031" lon="3.032919">
        <ele>71.076</ele>
        <time>2021-10-02T14:53:47Z</time>
      </trkpt>
      <trkpt lat="41.926982" lon="3.032897">
        <ele>70.598</ele>
        <time>2021-10-02T14:53:49Z</time>
      </trkpt>
      <trkpt lat="41.926902" lon="3.032876">
        <ele>70.058</ele>
        <time>2021-10-02T14:53:53Z</time>
      </trkpt>
      <trkpt lat="41.926795" lon="3.032865">
        <ele>69.056</ele>
        <time>2021-10-02T14:53:59Z</time>
      </trkpt>
      <trkpt lat="41.926736" lon="3.032897">
        <ele>69.061</ele>
        <time>2021-10-02T14:54:02Z</time>
      </trkpt>
      <trkpt lat="41.926661" lon="3.032967">
        <ele>68.270</ele>
        <time>2021-10-02T14:54:06Z</time>
      </trkpt>
      <trkpt lat="41.926526" lon="3.033122">
        <ele>67.592</ele>
        <time>2021-10-02T14:54:15Z</time>
      </trkpt>
      <trkpt lat="41.926333" lon="3.033117">
        <ele>67.773</ele>
        <time>2021-10-02T14:54:25Z</time>
      </trkpt>
      <trkpt lat="41.926269" lon="3.033096">
        <ele>68.920</ele>
        <time>2021-10-02T14:54:28Z</time>
      </trkpt>
      <trkpt lat="41.926242" lon="3.033058">
        <ele>69.008</ele>
        <time>2021-10-02T14:54:30Z</time>
      </trkpt>
      <trkpt lat="41.926226" lon="3.033010">
        <ele>69.098</ele>
        <time>2021-10-02T14:54:32Z</time>
      </trkpt>
      <trkpt lat="41.926231" lon="3.032961">
        <ele>68.757</ele>
        <time>2021-10-02T14:54:34Z</time>
      </trkpt>
      <trkpt lat="41.926285" lon="3.032854">
        <ele>69.261</ele>
        <time>2021-10-02T14:54:39Z</time>
      </trkpt>
      <trkpt lat="41.926312" lon="3.032795">
        <ele>70.363</ele>
        <time>2021-10-02T14:54:41Z</time>
      </trkpt>
      <trkpt lat="41.926365" lon="3.032736">
        <ele>72.073</ele>
        <time>2021-10-02T14:54:45Z</time>
      </trkpt>
      <trkpt lat="41.926441" lon="3.032693">
        <ele>70.131</ele>
        <time>2021-10-02T14:54:49Z</time>
      </trkpt>
      <trkpt lat="41.926478" lon="3.032586">
        <ele>70.096</ele>
        <time>2021-10-02T14:54:53Z</time>
      </trkpt>
      <trkpt lat="41.926478" lon="3.032522">
        <ele>70.335</ele>
        <time>2021-10-02T14:54:56Z</time>
      </trkpt>
      <trkpt lat="41.926441" lon="3.032033">
        <ele>71.116</ele>
        <time>2021-10-02T14:55:14Z</time>
      </trkpt>
      <trkpt lat="41.926462" lon="3.031830">
        <ele>73.576</ele>
        <time>2021-10-02T14:55:21Z</time>
      </trkpt>
      <trkpt lat="41.926298" lon="3.031772">
        <ele>74.413</ele>
        <time>2021-10-02T14:55:30Z</time>
      </trkpt>
      <trkpt lat="41.926040" lon="3.031807">
        <ele>76.708</ele>
        <time>2021-10-02T14:55:43Z</time>
      </trkpt>
      <trkpt lat="41.925846" lon="3.031920">
        <ele>78.120</ele>
        <time>2021-10-02T14:55:53Z</time>
      </trkpt>
      <trkpt lat="41.925657" lon="3.032099">
        <ele>79.139</ele>
        <time>2021-10-02T14:56:05Z</time>
      </trkpt>
      <trkpt lat="41.925550" lon="3.032157">
        <ele>80.383</ele>
        <time>2021-10-02T14:56:10Z</time>
      </trkpt>
      <trkpt lat="41.925312" lon="3.032208">
        <ele>82.035</ele>
        <time>2021-10-02T14:56:22Z</time>
      </trkpt>
      <trkpt lat="41.925071" lon="3.032134">
        <ele>84.165</ele>
        <time>2021-10-02T14:56:35Z</time>
      </trkpt>
      <trkpt lat="41.924958" lon="3.031969">
        <ele>86.093</ele>
        <time>2021-10-02T14:56:43Z</time>
      </trkpt>
      <trkpt lat="41.924930" lon="3.031837">
        <ele>86.698</ele>
        <time>2021-10-02T14:56:48Z</time>
      </trkpt>
      <trkpt lat="41.924801" lon="3.031598">
        <ele>86.597</ele>
        <time>2021-10-02T14:56:59Z</time>
      </trkpt>
      <trkpt lat="41.924590" lon="3.031336">
        <ele>84.655</ele>
        <time>2021-10-02T14:57:13Z</time>
      </trkpt>
      <trkpt lat="41.924457" lon="3.031183">
        <ele>83.107</ele>
        <time>2021-10-02T14:57:22Z</time>
      </trkpt>
      <trkpt lat="41.924328" lon="3.031099">
        <ele>81.717</ele>
        <time>2021-10-02T14:57:29Z</time>
      </trkpt>
      <trkpt lat="41.924154" lon="3.030918">
        <ele>80.608</ele>
        <time>2021-10-02T14:57:40Z</time>
      </trkpt>
      <trkpt lat="41.924011" lon="3.030612">
        <ele>78.794</ele>
        <time>2021-10-02T14:57:53Z</time>
      </trkpt>
      <trkpt lat="41.923709" lon="3.030195">
        <ele>85.513</ele>
        <time>2021-10-02T14:58:15Z</time>
      </trkpt>
      <trkpt lat="41.923615" lon="3.030056">
        <ele>85.337</ele>
        <time>2021-10-02T14:58:22Z</time>
      </trkpt>
      <trkpt lat="41.923580" lon="3.029974">
        <ele>84.759</ele>
        <time>2021-10-02T14:58:25Z</time>
      </trkpt>
      <trkpt lat="41.923569" lon="3.029853">
        <ele>83.969</ele>
        <time>2021-10-02T14:58:30Z</time>
      </trkpt>
      <trkpt lat="41.923516" lon="3.029733">
        <ele>82.137</ele>
        <time>2021-10-02T14:58:35Z</time>
      </trkpt>
      <trkpt lat="41.923466" lon="3.029650">
        <ele>80.642</ele>
        <time>2021-10-02T14:58:39Z</time>
      </trkpt>
      <trkpt lat="41.923364" lon="3.029511">
        <ele>79.021</ele>
        <time>2021-10-02T14:58:46Z</time>
      </trkpt>
      <trkpt lat="41.923251" lon="3.029519">
        <ele>78.595</ele>
        <time>2021-10-02T14:58:52Z</time>
      </trkpt>
      <trkpt lat="41.923163" lon="3.029434">
        <ele>80.949</ele>
        <time>2021-10-02T14:58:58Z</time>
      </trkpt>
      <trkpt lat="41.923084" lon="3.029294">
        <ele>82.223</ele>
        <time>2021-10-02T14:59:04Z</time>
      </trkpt>
      <trkpt lat="41.923066" lon="3.029171">
        <ele>83.008</ele>
        <time>2021-10-02T14:59:09Z</time>
      </trkpt>
      <trkpt lat="41.923053" lon="3.028994">
        <ele>83.248</ele>
        <time>2021-10-02T14:59:15Z</time>
      </trkpt>
      <trkpt lat="41.923084" lon="3.028904">
        <ele>83.977</ele>
        <time>2021-10-02T14:59:19Z</time>
      </trkpt>
      <trkpt lat="41.923097" lon="3.028790">
        <ele>84.751</ele>
        <time>2021-10-02T14:59:23Z</time>
      </trkpt>
      <trkpt lat="41.923159" lon="3.028652">
        <ele>85.063</ele>
        <time>2021-10-02T14:59:29Z</time>
      </trkpt>
      <trkpt lat="41.923154" lon="3.028631">
        <ele>85.673</ele>
        <time>2021-10-02T14:59:30Z</time>
      </trkpt>
      <trkpt lat="41.923063" lon="3.028581">
        <ele>89.211</ele>
        <time>2021-10-02T14:59:35Z</time>
      </trkpt>
      <trkpt lat="41.923025" lon="3.028470">
        <ele>91.926</ele>
        <time>2021-10-02T14:59:40Z</time>
      </trkpt>
      <trkpt lat="41.922972" lon="3.028439">
        <ele>92.195</ele>
        <time>2021-10-02T14:59:43Z</time>
      </trkpt>
      <trkpt lat="41.922922" lon="3.028393">
        <ele>93.467</ele>
        <time>2021-10-02T14:59:46Z</time>
      </trkpt>
      <trkpt lat="41.922879" lon="3.028332">
        <ele>94.481</ele>
        <time>2021-10-02T14:59:49Z</time>
      </trkpt>
      <trkpt lat="41.922919" lon="3.028259">
        <ele>94.719</ele>
        <time>2021-10-02T14:59:52Z</time>
      </trkpt>
      <trkpt lat="41.922892" lon="3.028167">
        <ele>96.008</ele>
        <time>2021-10-02T14:59:56Z</time>
      </trkpt>
      <trkpt lat="41.922879" lon="3.028064">
        <ele>97.365</ele>
        <time>2021-10-02T15:00:00Z</time>
      </trkpt>
      <trkpt lat="41.922889" lon="3.027982">
        <ele>97.034</ele>
        <time>2021-10-02T15:00:03Z</time>
      </trkpt>
      <trkpt lat="41.922919" lon="3.027902">
        <ele>97.578</ele>
        <time>2021-10-02T15:00:06Z</time>
      </trkpt>
      <trkpt lat="41.922949" lon="3.027821">
        <ele>98.670</ele>
        <time>2021-10-02T15:00:10Z</time>
      </trkpt>
      <trkpt lat="41.922976" lon="3.027744">
        <ele>99.990</ele>
        <time>2021-10-02T15:00:13Z</time>
      </trkpt>
      <trkpt lat="41.922955" lon="3.027710">
        <ele>100.028</ele>
        <time>2021-10-02T15:00:14Z</time>
      </trkpt>
      <trkpt lat="41.922923" lon="3.027677">
        <ele>100.093</ele>
        <time>2021-10-02T15:00:16Z</time>
      </trkpt>
      <trkpt lat="41.922916" lon="3.027611">
        <ele>101.132</ele>
        <time>2021-10-02T15:00:19Z</time>
      </trkpt>
      <trkpt lat="41.922883" lon="3.027522">
        <ele>102.234</ele>
        <time>2021-10-02T15:00:23Z</time>
      </trkpt>
      <trkpt lat="41.922885" lon="3.027445">
        <ele>103.955</ele>
        <time>2021-10-02T15:00:26Z</time>
      </trkpt>
      <trkpt lat="41.922939" lon="3.027387">
        <ele>104.010</ele>
        <time>2021-10-02T15:00:29Z</time>
      </trkpt>
      <trkpt lat="41.922939" lon="3.027333">
        <ele>104.008</ele>
        <time>2021-10-02T15:00:31Z</time>
      </trkpt>
      <trkpt lat="41.922805" lon="3.027348">
        <ele>104.882</ele>
        <time>2021-10-02T15:00:38Z</time>
      </trkpt>
      <trkpt lat="41.922658" lon="3.027386">
        <ele>105.971</ele>
        <time>2021-10-02T15:00:45Z</time>
      </trkpt>
      <trkpt lat="41.922458" lon="3.027421">
        <ele>107.795</ele>
        <time>2021-10-02T15:00:55Z</time>
      </trkpt>
      <trkpt lat="41.922313" lon="3.027428">
        <ele>109.097</ele>
        <time>2021-10-02T15:01:02Z</time>
      </trkpt>
      <trkpt lat="41.922136" lon="3.027382">
        <ele>109.967</ele>
        <time>2021-10-02T15:01:11Z</time>
      </trkpt>
      <trkpt lat="41.921874" lon="3.027320">
        <ele>113.055</ele>
        <time>2021-10-02T15:01:25Z</time>
      </trkpt>
      <trkpt lat="41.921739" lon="3.027308">
        <ele>114.170</ele>
        <time>2021-10-02T15:01:31Z</time>
      </trkpt>
      <trkpt lat="41.921590" lon="3.027325">
        <ele>115.759</ele>
        <time>2021-10-02T15:01:39Z</time>
      </trkpt>
      <trkpt lat="41.921483" lon="3.027378">
        <ele>116.245</ele>
        <time>2021-10-02T15:01:44Z</time>
      </trkpt>
      <trkpt lat="41.921225" lon="3.027489">
        <ele>120.947</ele>
        <time>2021-10-02T15:01:58Z</time>
      </trkpt>
      <trkpt lat="41.920950" lon="3.027602">
        <ele>125.011</ele>
        <time>2021-10-02T15:02:12Z</time>
      </trkpt>
      <trkpt lat="41.920839" lon="3.027581">
        <ele>125.008</ele>
        <time>2021-10-02T15:02:18Z</time>
      </trkpt>
      <trkpt lat="41.920677" lon="3.027642">
        <ele>125.153</ele>
        <time>2021-10-02T15:02:26Z</time>
      </trkpt>
      <trkpt lat="41.920674" lon="3.027631">
        <ele>125.292</ele>
        <time>2021-10-02T15:02:27Z</time>
      </trkpt>
      <trkpt lat="41.920418" lon="3.027604">
        <ele>126.096</ele>
        <time>2021-10-02T15:02:39Z</time>
      </trkpt>
      <trkpt lat="41.919968" lon="3.027614">
        <ele>126.058</ele>
        <time>2021-10-02T15:03:02Z</time>
      </trkpt>
      <trkpt lat="41.919880" lon="3.027626">
        <ele>125.278</ele>
        <time>2021-10-02T15:03:06Z</time>
      </trkpt>
      <trkpt lat="41.919860" lon="3.027742">
        <ele>126.026</ele>
        <time>2021-10-02T15:03:11Z</time>
      </trkpt>
      <trkpt lat="41.919788" lon="3.027996">
        <ele>124.731</ele>
        <time>2021-10-02T15:03:21Z</time>
      </trkpt>
      <trkpt lat="41.919676" lon="3.028226">
        <ele>122.940</ele>
        <time>2021-10-02T15:03:31Z</time>
      </trkpt>
      <trkpt lat="41.919554" lon="3.028374">
        <ele>123.512</ele>
        <time>2021-10-02T15:03:39Z</time>
      </trkpt>
      <trkpt lat="41.919354" lon="3.028546">
        <ele>124.832</ele>
        <time>2021-10-02T15:03:51Z</time>
      </trkpt>
      <trkpt lat="41.919207" lon="3.028711">
        <ele>125.605</ele>
        <time>2021-10-02T15:04:00Z</time>
      </trkpt>
      <trkpt lat="41.918996" lon="3.028972">
        <ele>125.408</ele>
        <time>2021-10-02T15:04:14Z</time>
      </trkpt>
      <trkpt lat="41.918898" lon="3.029123">
        <ele>124.890</ele>
        <time>2021-10-02T15:04:22Z</time>
      </trkpt>
      <trkpt lat="41.918690" lon="3.029392">
        <ele>126.749</ele>
        <time>2021-10-02T15:04:36Z</time>
      </trkpt>
      <trkpt lat="41.918595" lon="3.029527">
        <ele>128.333</ele>
        <time>2021-10-02T15:04:43Z</time>
      </trkpt>
      <trkpt lat="41.918542" lon="3.029657">
        <ele>129.415</ele>
        <time>2021-10-02T15:04:49Z</time>
      </trkpt>
      <trkpt lat="41.918443" lon="3.029776">
        <ele>129.135</ele>
        <time>2021-10-02T15:04:55Z</time>
      </trkpt>
      <trkpt lat="41.918362" lon="3.029859">
        <ele>130.253</ele>
        <time>2021-10-02T15:05:00Z</time>
      </trkpt>
      <trkpt lat="41.918274" lon="3.029924">
        <ele>131.728</ele>
        <time>2021-10-02T15:05:05Z</time>
      </trkpt>
      <trkpt lat="41.918149" lon="3.029965">
        <ele>133.077</ele>
        <time>2021-10-02T15:05:12Z</time>
      </trkpt>
      <trkpt lat="41.918062" lon="3.030011">
        <ele>133.764</ele>
        <time>2021-10-02T15:05:16Z</time>
      </trkpt>
      <trkpt lat="41.917943" lon="3.030084">
        <ele>134.906</ele>
        <time>2021-10-02T15:05:23Z</time>
      </trkpt>
      <trkpt lat="41.917813" lon="3.030106">
        <ele>135.316</ele>
        <time>2021-10-02T15:05:29Z</time>
      </trkpt>
      <trkpt lat="41.917623" lon="3.030128">
        <ele>137.308</ele>
        <time>2021-10-02T15:05:39Z</time>
      </trkpt>
      <trkpt lat="41.917481" lon="3.030188">
        <ele>138.035</ele>
        <time>2021-10-02T15:05:46Z</time>
      </trkpt>
      <trkpt lat="41.917396" lon="3.030318">
        <ele>138.964</ele>
        <time>2021-10-02T15:05:53Z</time>
      </trkpt>
      <trkpt lat="41.917433" lon="3.030515">
        <ele>144.818</ele>
        <time>2021-10-02T15:06:00Z</time>
      </trkpt>
      <trkpt lat="41.917480" lon="3.030610">
        <ele>145.010</ele>
        <time>2021-10-02T15:06:05Z</time>
      </trkpt>
      <trkpt lat="41.917511" lon="3.030681">
        <ele>145.610</ele>
        <time>2021-10-02T15:06:08Z</time>
      </trkpt>
      <trkpt lat="41.917444" lon="3.030892">
        <ele>146.378</ele>
        <time>2021-10-02T15:06:16Z</time>
      </trkpt>
      <trkpt lat="41.917298" lon="3.031224">
        <ele>148.093</ele>
        <time>2021-10-02T15:06:30Z</time>
      </trkpt>
      <trkpt lat="41.917127" lon="3.031432">
        <ele>147.132</ele>
        <time>2021-10-02T15:06:42Z</time>
      </trkpt>
      <trkpt lat="41.916959" lon="3.031713">
        <ele>146.458</ele>
        <time>2021-10-02T15:06:55Z</time>
      </trkpt>
      <trkpt lat="41.916810" lon="3.031990">
        <ele>149.652</ele>
        <time>2021-10-02T15:07:08Z</time>
      </trkpt>
      <trkpt lat="41.916824" lon="3.032110">
        <ele>151.517</ele>
        <time>2021-10-02T15:07:12Z</time>
      </trkpt>
      <trkpt lat="41.916871" lon="3.032233">
        <ele>153.308</ele>
        <time>2021-10-02T15:07:18Z</time>
      </trkpt>
      <trkpt lat="41.916915" lon="3.032326">
        <ele>153.664</ele>
        <time>2021-10-02T15:07:22Z</time>
      </trkpt>
      <trkpt lat="41.916912" lon="3.032383">
        <ele>153.763</ele>
        <time>2021-10-02T15:07:24Z</time>
      </trkpt>
      <trkpt lat="41.916889" lon="3.032471">
        <ele>154.297</ele>
        <time>2021-10-02T15:07:27Z</time>
      </trkpt>
      <trkpt lat="41.916827" lon="3.032557">
        <ele>156.599</ele>
        <time>2021-10-02T15:07:32Z</time>
      </trkpt>
      <trkpt lat="41.916698" lon="3.032723">
        <ele>160.499</ele>
        <time>2021-10-02T15:07:41Z</time>
      </trkpt>
      <trkpt lat="41.916625" lon="3.032832">
        <ele>162.197</ele>
        <time>2021-10-02T15:07:46Z</time>
      </trkpt>
      <trkpt lat="41.916596" lon="3.032904">
        <ele>163.642</ele>
        <time>2021-10-02T15:07:49Z</time>
      </trkpt>
      <trkpt lat="41.916558" lon="3.033009">
        <ele>164.821</ele>
        <time>2021-10-02T15:07:54Z</time>
      </trkpt>
      <trkpt lat="41.916507" lon="3.033225">
        <ele>166.023</ele>
        <time>2021-10-02T15:08:02Z</time>
      </trkpt>
      <trkpt lat="41.916394" lon="3.033569">
        <ele>168.683</ele>
        <time>2021-10-02T15:08:16Z</time>
      </trkpt>
      <trkpt lat="41.916327" lon="3.033793">
        <ele>168.811</ele>
        <time>2021-10-02T15:08:25Z</time>
      </trkpt>
      <trkpt lat="41.916211" lon="3.033928">
        <ele>168.908</ele>
        <time>2021-10-02T15:08:33Z</time>
      </trkpt>
      <trkpt lat="41.916130" lon="3.034029">
        <ele>168.311</ele>
        <time>2021-10-02T15:08:38Z</time>
      </trkpt>
      <trkpt lat="41.916048" lon="3.034136">
        <ele>169.040</ele>
        <time>2021-10-02T15:08:44Z</time>
      </trkpt>
      <trkpt lat="41.915811" lon="3.034328">
        <ele>170.554</ele>
        <time>2021-10-02T15:08:57Z</time>
      </trkpt>
      <trkpt lat="41.915639" lon="3.034601">
        <ele>173.026</ele>
        <time>2021-10-02T15:09:11Z</time>
      </trkpt>
      <trkpt lat="41.915381" lon="3.034959">
        <ele>176.336</ele>
        <time>2021-10-02T15:09:29Z</time>
      </trkpt>
      <trkpt lat="41.915369" lon="3.035152">
        <ele>181.194</ele>
        <time>2021-10-02T15:09:37Z</time>
      </trkpt>
      <trkpt lat="41.915304" lon="3.035237">
        <ele>181.469</ele>
        <time>2021-10-02T15:09:41Z</time>
      </trkpt>
      <trkpt lat="41.915204" lon="3.035354">
        <ele>183.398</ele>
        <time>2021-10-02T15:09:48Z</time>
      </trkpt>
      <trkpt lat="41.915142" lon="3.035377">
        <ele>185.951</ele>
        <time>2021-10-02T15:09:51Z</time>
      </trkpt>
      <trkpt lat="41.915030" lon="3.035387">
        <ele>189.901</ele>
        <time>2021-10-02T15:09:57Z</time>
      </trkpt>
      <trkpt lat="41.914977" lon="3.035395">
        <ele>191.611</ele>
        <time>2021-10-02T15:10:00Z</time>
      </trkpt>
      <trkpt lat="41.914854" lon="3.035415">
        <ele>194.908</ele>
        <time>2021-10-02T15:10:06Z</time>
      </trkpt>
      <trkpt lat="41.914759" lon="3.035424">
        <ele>197.534</ele>
        <time>2021-10-02T15:10:11Z</time>
      </trkpt>
      <trkpt lat="41.914690" lon="3.035477">
        <ele>200.033</ele>
        <time>2021-10-02T15:10:15Z</time>
      </trkpt>
      <trkpt lat="41.914656" lon="3.035500">
        <ele>200.687</ele>
        <time>2021-10-02T15:10:17Z</time>
      </trkpt>
      <trkpt lat="41.914614" lon="3.035540">
        <ele>201.549</ele>
        <time>2021-10-02T15:10:19Z</time>
      </trkpt>
      <trkpt lat="41.914582" lon="3.035575">
        <ele>202.439</ele>
        <time>2021-10-02T15:10:22Z</time>
      </trkpt>
      <trkpt lat="41.914550" lon="3.035598">
        <ele>203.047</ele>
        <time>2021-10-02T15:10:23Z</time>
      </trkpt>
      <trkpt lat="41.914485" lon="3.035661">
        <ele>204.372</ele>
        <time>2021-10-02T15:10:27Z</time>
      </trkpt>
      <trkpt lat="41.914434" lon="3.035683">
        <ele>205.591</ele>
        <time>2021-10-02T15:10:30Z</time>
      </trkpt>
      <trkpt lat="41.914394" lon="3.035696">
        <ele>206.619</ele>
        <time>2021-10-02T15:10:32Z</time>
      </trkpt>
      <trkpt lat="41.914300" lon="3.035743">
        <ele>208.609</ele>
        <time>2021-10-02T15:10:37Z</time>
      </trkpt>
      <trkpt lat="41.914252" lon="3.035762">
        <ele>208.319</ele>
        <time>2021-10-02T15:10:40Z</time>
      </trkpt>
      <trkpt lat="41.914167" lon="3.035811">
        <ele>209.008</ele>
        <time>2021-10-02T15:10:44Z</time>
      </trkpt>
      <trkpt lat="41.914074" lon="3.035829">
        <ele>209.060</ele>
        <time>2021-10-02T15:10:49Z</time>
      </trkpt>
      <trkpt lat="41.913998" lon="3.035829">
        <ele>209.389</ele>
        <time>2021-10-02T15:10:53Z</time>
      </trkpt>
      <trkpt lat="41.913803" lon="3.035842">
        <ele>211.573</ele>
        <time>2021-10-02T15:11:02Z</time>
      </trkpt>
      <trkpt lat="41.913603" lon="3.035923">
        <ele>212.855</ele>
        <time>2021-10-02T15:11:13Z</time>
      </trkpt>
      <trkpt lat="41.913505" lon="3.036043">
        <ele>214.835</ele>
        <time>2021-10-02T15:11:19Z</time>
      </trkpt>
      <trkpt lat="41.913360" lon="3.036178">
        <ele>216.043</ele>
        <time>2021-10-02T15:11:28Z</time>
      </trkpt>
      <trkpt lat="41.913238" lon="3.036334">
        <ele>217.148</ele>
        <time>2021-10-02T15:11:37Z</time>
      </trkpt>
      <trkpt lat="41.913127" lon="3.036477">
        <ele>217.047</ele>
        <time>2021-10-02T15:11:44Z</time>
      </trkpt>
      <trkpt lat="41.913034" lon="3.036597">
        <ele>215.036</ele>
        <time>2021-10-02T15:11:51Z</time>
      </trkpt>
      <trkpt lat="41.912956" lon="3.036738">
        <ele>213.317</ele>
        <time>2021-10-02T15:11:57Z</time>
      </trkpt>
      <trkpt lat="41.912846" lon="3.036932">
        <ele>209.118</ele>
        <time>2021-10-02T15:12:06Z</time>
      </trkpt>
      <trkpt lat="41.912706" lon="3.037204">
        <ele>208.008</ele>
        <time>2021-10-02T15:12:19Z</time>
      </trkpt>
      <trkpt lat="41.912602" lon="3.037347">
        <ele>206.722</ele>
        <time>2021-10-02T15:12:26Z</time>
      </trkpt>
      <trkpt lat="41.912314" lon="3.037500">
        <ele>203.261</ele>
        <time>2021-10-02T15:12:41Z</time>
      </trkpt>
      <trkpt lat="41.912184" lon="3.037656">
        <ele>203.645</ele>
        <time>2021-10-02T15:12:50Z</time>
      </trkpt>
      <trkpt lat="41.911971" lon="3.037822">
        <ele>204.527</ele>
        <time>2021-10-02T15:13:02Z</time>
      </trkpt>
      <trkpt lat="41.911844" lon="3.038191">
        <ele>207.197</ele>
        <time>2021-10-02T15:13:17Z</time>
      </trkpt>
      <trkpt lat="41.911751" lon="3.038430">
        <ele>213.155</ele>
        <time>2021-10-02T15:13:28Z</time>
      </trkpt>
      <trkpt lat="41.911576" lon="3.038498">
        <ele>213.410</ele>
        <time>2021-10-02T15:13:37Z</time>
      </trkpt>
      <trkpt lat="41.911568" lon="3.038563">
        <ele>214.359</ele>
        <time>2021-10-02T15:13:39Z</time>
      </trkpt>
      <trkpt lat="41.911631" lon="3.038662">
        <ele>216.296</ele>
        <time>2021-10-02T15:13:44Z</time>
      </trkpt>
      <trkpt lat="41.911670" lon="3.038769">
        <ele>217.131</ele>
        <time>2021-10-02T15:13:48Z</time>
      </trkpt>
      <trkpt lat="41.911714" lon="3.039024">
        <ele>220.024</ele>
        <time>2021-10-02T15:13:58Z</time>
      </trkpt>
      <trkpt lat="41.911755" lon="3.039325">
        <ele>221.308</ele>
        <time>2021-10-02T15:14:10Z</time>
      </trkpt>
      <trkpt lat="41.911710" lon="3.039599">
        <ele>223.958</ele>
        <time>2021-10-02T15:14:20Z</time>
      </trkpt>
      <trkpt lat="41.911691" lon="3.039885">
        <ele>224.417</ele>
        <time>2021-10-02T15:14:31Z</time>
      </trkpt>
      <trkpt lat="41.911652" lon="3.040187">
        <ele>223.651</ele>
        <time>2021-10-02T15:14:42Z</time>
      </trkpt>
      <trkpt lat="41.911566" lon="3.040463">
        <ele>223.393</ele>
        <time>2021-10-02T15:14:53Z</time>
      </trkpt>
      <trkpt lat="41.911526" lon="3.040630">
        <ele>223.553</ele>
        <time>2021-10-02T15:14:59Z</time>
      </trkpt>
      <trkpt lat="41.911466" lon="3.040840">
        <ele>223.361</ele>
        <time>2021-10-02T15:15:08Z</time>
      </trkpt>
      <trkpt lat="41.911430" lon="3.041033">
        <ele>222.756</ele>
        <time>2021-10-02T15:15:15Z</time>
      </trkpt>
      <trkpt lat="41.911363" lon="3.041303">
        <ele>220.025</ele>
        <time>2021-10-02T15:15:26Z</time>
      </trkpt>
      <trkpt lat="41.911218" lon="3.041285">
        <ele>218.071</ele>
        <time>2021-10-02T15:15:33Z</time>
      </trkpt>
      <trkpt lat="41.911142" lon="3.041238">
        <ele>216.341</ele>
        <time>2021-10-02T15:15:37Z</time>
      </trkpt>
      <trkpt lat="41.910993" lon="3.041290">
        <ele>215.915</ele>
        <time>2021-10-02T15:15:45Z</time>
      </trkpt>
      <trkpt lat="41.910897" lon="3.041430">
        <ele>217.208</ele>
        <time>2021-10-02T15:15:50Z</time>
      </trkpt>
      <trkpt lat="41.910761" lon="3.041577">
        <ele>219.886</ele>
        <time>2021-10-02T15:15:57Z</time>
      </trkpt>
      <trkpt lat="41.910640" lon="3.041665">
        <ele>223.045</ele>
        <time>2021-10-02T15:16:03Z</time>
      </trkpt>
      <trkpt lat="41.910418" lon="3.041774">
        <ele>229.749</ele>
        <time>2021-10-02T15:16:13Z</time>
      </trkpt>
      <trkpt lat="41.910123" lon="3.041730">
        <ele>232.661</ele>
        <time>2021-10-02T15:16:25Z</time>
      </trkpt>
      <trkpt lat="41.909973" lon="3.041800">
        <ele>234.391</ele>
        <time>2021-10-02T15:16:31Z</time>
      </trkpt>
      <trkpt lat="41.909818" lon="3.042274">
        <ele>241.149</ele>
        <time>2021-10-02T15:16:46Z</time>
      </trkpt>
      <trkpt lat="41.909550" lon="3.042838">
        <ele>240.914</ele>
        <time>2021-10-02T15:17:06Z</time>
      </trkpt>
      <trkpt lat="41.909473" lon="3.043099">
        <ele>239.183</ele>
        <time>2021-10-02T15:17:15Z</time>
      </trkpt>
      <trkpt lat="41.909204" lon="3.043615">
        <ele>237.454</ele>
        <time>2021-10-02T15:17:34Z</time>
      </trkpt>
      <trkpt lat="41.909089" lon="3.043902">
        <ele>235.856</ele>
        <time>2021-10-02T15:17:43Z</time>
      </trkpt>
      <trkpt lat="41.909113" lon="3.044225">
        <ele>236.111</ele>
        <time>2021-10-02T15:17:53Z</time>
      </trkpt>
      <trkpt lat="41.909041" lon="3.044553">
        <ele>234.608</ele>
        <time>2021-10-02T15:18:03Z</time>
      </trkpt>
      <trkpt lat="41.909045" lon="3.044755">
        <ele>235.034</ele>
        <time>2021-10-02T15:18:09Z</time>
      </trkpt>
      <trkpt lat="41.909087" lon="3.045005">
        <ele>235.053</ele>
        <time>2021-10-02T15:18:17Z</time>
      </trkpt>
      <trkpt lat="41.909107" lon="3.045341">
        <ele>235.077</ele>
        <time>2021-10-02T15:18:27Z</time>
      </trkpt>
      <trkpt lat="41.909113" lon="3.045527">
        <ele>235.059</ele>
        <time>2021-10-02T15:18:32Z</time>
      </trkpt>
      <trkpt lat="41.909123" lon="3.045633">
        <ele>236.419</ele>
        <time>2021-10-02T15:18:36Z</time>
      </trkpt>
      <trkpt lat="41.909057" lon="3.046047">
        <ele>239.857</ele>
        <time>2021-10-02T15:18:48Z</time>
      </trkpt>
      <trkpt lat="41.909174" lon="3.046405">
        <ele>235.352</ele>
        <time>2021-10-02T15:19:00Z</time>
      </trkpt>
      <trkpt lat="41.909187" lon="3.046533">
        <ele>233.071</ele>
        <time>2021-10-02T15:19:04Z</time>
      </trkpt>
      <trkpt lat="41.909176" lon="3.046697">
        <ele>233.685</ele>
        <time>2021-10-02T15:19:09Z</time>
      </trkpt>
      <trkpt lat="41.909144" lon="3.046851">
        <ele>235.089</ele>
        <time>2021-10-02T15:19:13Z</time>
      </trkpt>
      <trkpt lat="41.909048" lon="3.047128">
        <ele>237.017</ele>
        <time>2021-10-02T15:19:23Z</time>
      </trkpt>
      <trkpt lat="41.909022" lon="3.047433">
        <ele>237.608</ele>
        <time>2021-10-02T15:19:32Z</time>
      </trkpt>
      <trkpt lat="41.908955" lon="3.047761">
        <ele>242.627</ele>
        <time>2021-10-02T15:19:42Z</time>
      </trkpt>
      <trkpt lat="41.908945" lon="3.047960">
        <ele>246.326</ele>
        <time>2021-10-02T15:19:48Z</time>
      </trkpt>
      <trkpt lat="41.908967" lon="3.048062">
        <ele>247.030</ele>
        <time>2021-10-02T15:19:51Z</time>
      </trkpt>
      <trkpt lat="41.909056" lon="3.048189">
        <ele>248.062</ele>
        <time>2021-10-02T15:19:56Z</time>
      </trkpt>
      <trkpt lat="41.909153" lon="3.048335">
        <ele>250.042</ele>
        <time>2021-10-02T15:20:02Z</time>
      </trkpt>
      <trkpt lat="41.909190" lon="3.048531">
        <ele>251.020</ele>
        <time>2021-10-02T15:20:08Z</time>
      </trkpt>
      <trkpt lat="41.909206" lon="3.048739">
        <ele>250.465</ele>
        <time>2021-10-02T15:20:15Z</time>
      </trkpt>
      <trkpt lat="41.909202" lon="3.048845">
        <ele>250.064</ele>
        <time>2021-10-02T15:20:18Z</time>
      </trkpt>
      <trkpt lat="41.909151" lon="3.049047">
        <ele>251.471</ele>
        <time>2021-10-02T15:20:24Z</time>
      </trkpt>
      <trkpt lat="41.909075" lon="3.049180">
        <ele>252.041</ele>
        <time>2021-10-02T15:20:29Z</time>
      </trkpt>
      <trkpt lat="41.908904" lon="3.049285">
        <ele>252.515</ele>
        <time>2021-10-02T15:20:37Z</time>
      </trkpt>
      <trkpt lat="41.908764" lon="3.049299">
        <ele>250.908</ele>
        <time>2021-10-02T15:20:42Z</time>
      </trkpt>
      <trkpt lat="41.908598" lon="3.049430">
        <ele>250.936</ele>
        <time>2021-10-02T15:20:50Z</time>
      </trkpt>
      <trkpt lat="41.908263" lon="3.049717">
        <ele>250.045</ele>
        <time>2021-10-02T15:21:06Z</time>
      </trkpt>
      <trkpt lat="41.908012" lon="3.049919">
        <ele>249.829</ele>
        <time>2021-10-02T15:21:18Z</time>
      </trkpt>
      <trkpt lat="41.907969" lon="3.049977">
        <ele>248.941</ele>
        <time>2021-10-02T15:21:20Z</time>
      </trkpt>
      <trkpt lat="41.907970" lon="3.050070">
        <ele>248.411</ele>
        <time>2021-10-02T15:21:23Z</time>
      </trkpt>
      <trkpt lat="41.908043" lon="3.050261">
        <ele>246.879</ele>
        <time>2021-10-02T15:21:29Z</time>
      </trkpt>
      <trkpt lat="41.908080" lon="3.050421">
        <ele>249.824</ele>
        <time>2021-10-02T15:21:34Z</time>
      </trkpt>
      <trkpt lat="41.908067" lon="3.050572">
        <ele>250.873</ele>
        <time>2021-10-02T15:21:39Z</time>
      </trkpt>
      <trkpt lat="41.907986" lon="3.050884">
        <ele>251.082</ele>
        <time>2021-10-02T15:21:49Z</time>
      </trkpt>
      <trkpt lat="41.907946" lon="3.051273">
        <ele>251.643</ele>
        <time>2021-10-02T15:22:00Z</time>
      </trkpt>
      <trkpt lat="41.907881" lon="3.051543">
        <ele>251.117</ele>
        <time>2021-10-02T15:22:09Z</time>
      </trkpt>
      <trkpt lat="41.907855" lon="3.051630">
        <ele>251.408</ele>
        <time>2021-10-02T15:22:12Z</time>
      </trkpt>
      <trkpt lat="41.907938" lon="3.051818">
        <ele>253.077</ele>
        <time>2021-10-02T15:22:18Z</time>
      </trkpt>
      <trkpt lat="41.908016" lon="3.052099">
        <ele>261.436</ele>
        <time>2021-10-02T15:22:27Z</time>
      </trkpt>
      <trkpt lat="41.908027" lon="3.052275">
        <ele>265.020</ele>
        <time>2021-10-02T15:22:32Z</time>
      </trkpt>
      <trkpt lat="41.908143" lon="3.052521">
        <ele>267.092</ele>
        <time>2021-10-02T15:22:41Z</time>
      </trkpt>
      <trkpt lat="41.908234" lon="3.052814">
        <ele>265.022</ele>
        <time>2021-10-02T15:22:50Z</time>
      </trkpt>
      <trkpt lat="41.908243" lon="3.053119">
        <ele>264.040</ele>
        <time>2021-10-02T15:22:59Z</time>
      </trkpt>
      <trkpt lat="41.908175" lon="3.053502">
        <ele>262.755</ele>
        <time>2021-10-02T15:23:11Z</time>
      </trkpt>
      <trkpt lat="41.908120" lon="3.053874">
        <ele>261.814</ele>
        <time>2021-10-02T15:23:23Z</time>
      </trkpt>
      <trkpt lat="41.908073" lon="3.054228">
        <ele>260.128</ele>
        <time>2021-10-02T15:23:33Z</time>
      </trkpt>
      <trkpt lat="41.908041" lon="3.054446">
        <ele>256.489</ele>
        <time>2021-10-02T15:23:40Z</time>
      </trkpt>
      <trkpt lat="41.907912" lon="3.054727">
        <ele>250.817</ele>
        <time>2021-10-02T15:23:50Z</time>
      </trkpt>
      <trkpt lat="41.907792" lon="3.054975">
        <ele>246.008</ele>
        <time>2021-10-02T15:23:59Z</time>
      </trkpt>
      <trkpt lat="41.907657" lon="3.055195">
        <ele>243.081</ele>
        <time>2021-10-02T15:24:07Z</time>
      </trkpt>
      <trkpt lat="41.907550" lon="3.055469">
        <ele>242.640</ele>
        <time>2021-10-02T15:24:16Z</time>
      </trkpt>
      <trkpt lat="41.907517" lon="3.055828">
        <ele>244.074</ele>
        <time>2021-10-02T15:24:27Z</time>
      </trkpt>
      <trkpt lat="41.907511" lon="3.056050">
        <ele>249.376</ele>
        <time>2021-10-02T15:24:34Z</time>
      </trkpt>
      <trkpt lat="41.907592" lon="3.056344">
        <ele>255.626</ele>
        <time>2021-10-02T15:24:43Z</time>
      </trkpt>
      <trkpt lat="41.907634" lon="3.056581">
        <ele>261.184</ele>
        <time>2021-10-02T15:24:51Z</time>
      </trkpt>
      <trkpt lat="41.907636" lon="3.057151">
        <ele>271.049</ele>
        <time>2021-10-02T15:25:08Z</time>
      </trkpt>
      <trkpt lat="41.907560" lon="3.057470">
        <ele>271.948</ele>
        <time>2021-10-02T15:25:18Z</time>
      </trkpt>
      <trkpt lat="41.907531" lon="3.057739">
        <ele>271.051</ele>
        <time>2021-10-02T15:25:26Z</time>
      </trkpt>
      <trkpt lat="41.907453" lon="3.057859">
        <ele>272.701</ele>
        <time>2021-10-02T15:25:30Z</time>
      </trkpt>
      <trkpt lat="41.907299" lon="3.058196">
        <ele>278.411</ele>
        <time>2021-10-02T15:25:42Z</time>
      </trkpt>
      <trkpt lat="41.907224" lon="3.058478">
        <ele>283.408</ele>
        <time>2021-10-02T15:25:51Z</time>
      </trkpt>
      <trkpt lat="41.907086" lon="3.058873">
        <ele>289.644</ele>
        <time>2021-10-02T15:26:04Z</time>
      </trkpt>
      <trkpt lat="41.907071" lon="3.059276">
        <ele>288.833</ele>
        <time>2021-10-02T15:26:16Z</time>
      </trkpt>
      <trkpt lat="41.907033" lon="3.059567">
        <ele>285.077</ele>
        <time>2021-10-02T15:26:25Z</time>
      </trkpt>
      <trkpt lat="41.906941" lon="3.060072">
        <ele>282.289</ele>
        <time>2021-10-02T15:26:41Z</time>
      </trkpt>
      <trkpt lat="41.906774" lon="3.060387">
        <ele>278.089</ele>
        <time>2021-10-02T15:26:52Z</time>
      </trkpt>
      <trkpt lat="41.906704" lon="3.060469">
        <ele>275.967</ele>
        <time>2021-10-02T15:26:57Z</time>
      </trkpt>
      <trkpt lat="41.906593" lon="3.060508">
        <ele>272.122</ele>
        <time>2021-10-02T15:27:02Z</time>
      </trkpt>
      <trkpt lat="41.906455" lon="3.060577">
        <ele>267.851</ele>
        <time>2021-10-02T15:27:10Z</time>
      </trkpt>
      <trkpt lat="41.906241" lon="3.060766">
        <ele>264.654</ele>
        <time>2021-10-02T15:27:22Z</time>
      </trkpt>
      <trkpt lat="41.906109" lon="3.060916">
        <ele>261.756</ele>
        <time>2021-10-02T15:27:31Z</time>
      </trkpt>
      <trkpt lat="41.905761" lon="3.061174">
        <ele>259.711</ele>
        <time>2021-10-02T15:27:50Z</time>
      </trkpt>
      <trkpt lat="41.905712" lon="3.061279">
        <ele>259.408</ele>
        <time>2021-10-02T15:27:55Z</time>
      </trkpt>
      <trkpt lat="41.905563" lon="3.061370">
        <ele>259.024</ele>
        <time>2021-10-02T15:28:03Z</time>
      </trkpt>
      <trkpt lat="41.905448" lon="3.061469">
        <ele>259.043</ele>
        <time>2021-10-02T15:28:10Z</time>
      </trkpt>
      <trkpt lat="41.905335" lon="3.061676">
        <ele>257.957</ele>
        <time>2021-10-02T15:28:19Z</time>
      </trkpt>
      <trkpt lat="41.905146" lon="3.061810">
        <ele>257.299</ele>
        <time>2021-10-02T15:28:29Z</time>
      </trkpt>
      <trkpt lat="41.905060" lon="3.061848">
        <ele>257.769</ele>
        <time>2021-10-02T15:28:34Z</time>
      </trkpt>
      <trkpt lat="41.904946" lon="3.061966">
        <ele>255.467</ele>
        <time>2021-10-02T15:28:41Z</time>
      </trkpt>
      <trkpt lat="41.904920" lon="3.062047">
        <ele>254.892</ele>
        <time>2021-10-02T15:28:44Z</time>
      </trkpt>
      <trkpt lat="41.904904" lon="3.062171">
        <ele>253.161</ele>
        <time>2021-10-02T15:28:49Z</time>
      </trkpt>
      <trkpt lat="41.905010" lon="3.062513">
        <ele>249.728</ele>
        <time>2021-10-02T15:29:02Z</time>
      </trkpt>
      <trkpt lat="41.905011" lon="3.062674">
        <ele>249.289</ele>
        <time>2021-10-02T15:29:08Z</time>
      </trkpt>
      <trkpt lat="41.904991" lon="3.062864">
        <ele>247.317</ele>
        <time>2021-10-02T15:29:15Z</time>
      </trkpt>
      <trkpt lat="41.904927" lon="3.063025">
        <ele>246.308</ele>
        <time>2021-10-02T15:29:22Z</time>
      </trkpt>
      <trkpt lat="41.904836" lon="3.063151">
        <ele>246.061</ele>
        <time>2021-10-02T15:29:28Z</time>
      </trkpt>
      <trkpt lat="41.904734" lon="3.063357">
        <ele>244.040</ele>
        <time>2021-10-02T15:29:37Z</time>
      </trkpt>
      <trkpt lat="41.904691" lon="3.063452">
        <ele>242.494</ele>
        <time>2021-10-02T15:29:42Z</time>
      </trkpt>
      <trkpt lat="41.904616" lon="3.063563">
        <ele>240.676</ele>
        <time>2021-10-02T15:29:47Z</time>
      </trkpt>
      <trkpt lat="41.904513" lon="3.063623">
        <ele>239.616</ele>
        <time>2021-10-02T15:29:53Z</time>
      </trkpt>
      <trkpt lat="41.904394" lon="3.063661">
        <ele>238.034</ele>
        <time>2021-10-02T15:29:59Z</time>
      </trkpt>
      <trkpt lat="41.904279" lon="3.063589">
        <ele>237.129</ele>
        <time>2021-10-02T15:30:05Z</time>
      </trkpt>
      <trkpt lat="41.904213" lon="3.063524">
        <ele>236.698</ele>
        <time>2021-10-02T15:30:09Z</time>
      </trkpt>
      <trkpt lat="41.904164" lon="3.063445">
        <ele>236.437</ele>
        <time>2021-10-02T15:30:13Z</time>
      </trkpt>
      <trkpt lat="41.904103" lon="3.063373">
        <ele>235.549</ele>
        <time>2021-10-02T15:30:17Z</time>
      </trkpt>
      <trkpt lat="41.904005" lon="3.063352">
        <ele>234.113</ele>
        <time>2021-10-02T15:30:21Z</time>
      </trkpt>
      <trkpt lat="41.903756" lon="3.063406">
        <ele>231.508</ele>
        <time>2021-10-02T15:30:34Z</time>
      </trkpt>
      <trkpt lat="41.903586" lon="3.063204">
        <ele>228.822</ele>
        <time>2021-10-02T15:30:45Z</time>
      </trkpt>
      <trkpt lat="41.903466" lon="3.063177">
        <ele>226.061</ele>
        <time>2021-10-02T15:30:51Z</time>
      </trkpt>
      <trkpt lat="41.903503" lon="3.063285">
        <ele>225.275</ele>
        <time>2021-10-02T15:30:55Z</time>
      </trkpt>
      <trkpt lat="41.903528" lon="3.063310">
        <ele>225.087</ele>
        <time>2021-10-02T15:30:57Z</time>
      </trkpt>
      <trkpt lat="41.903563" lon="3.063355">
        <ele>225.037</ele>
        <time>2021-10-02T15:30:59Z</time>
      </trkpt>
      <trkpt lat="41.903583" lon="3.063383">
        <ele>224.785</ele>
        <time>2021-10-02T15:31:01Z</time>
      </trkpt>
      <trkpt lat="41.903598" lon="3.063422">
        <ele>224.040</ele>
        <time>2021-10-02T15:31:02Z</time>
      </trkpt>
      <trkpt lat="41.903612" lon="3.063458">
        <ele>224.459</ele>
        <time>2021-10-02T15:31:04Z</time>
      </trkpt>
      <trkpt lat="41.903628" lon="3.063492">
        <ele>224.595</ele>
        <time>2021-10-02T15:31:05Z</time>
      </trkpt>
      <trkpt lat="41.903640" lon="3.063530">
        <ele>224.149</ele>
        <time>2021-10-02T15:31:07Z</time>
      </trkpt>
      <trkpt lat="41.903650" lon="3.063565">
        <ele>224.323</ele>
        <time>2021-10-02T15:31:08Z</time>
      </trkpt>
      <trkpt lat="41.903663" lon="3.063630">
        <ele>224.308</ele>
        <time>2021-10-02T15:31:11Z</time>
      </trkpt>
      <trkpt lat="41.903667" lon="3.063695">
        <ele>224.058</ele>
        <time>2021-10-02T15:31:13Z</time>
      </trkpt>
      <trkpt lat="41.903663" lon="3.063760">
        <ele>223.537</ele>
        <time>2021-10-02T15:31:15Z</time>
      </trkpt>
      <trkpt lat="41.903663" lon="3.063825">
        <ele>223.111</ele>
        <time>2021-10-02T15:31:18Z</time>
      </trkpt>
      <trkpt lat="41.903670" lon="3.063860">
        <ele>222.913</ele>
        <time>2021-10-02T15:31:19Z</time>
      </trkpt>
      <trkpt lat="41.903680" lon="3.063898">
        <ele>222.823</ele>
        <time>2021-10-02T15:31:21Z</time>
      </trkpt>
      <trkpt lat="41.903692" lon="3.063937">
        <ele>221.961</ele>
        <time>2021-10-02T15:31:22Z</time>
      </trkpt>
      <trkpt lat="41.903712" lon="3.063977">
        <ele>221.726</ele>
        <time>2021-10-02T15:31:24Z</time>
      </trkpt>
      <trkpt lat="41.903730" lon="3.064010">
        <ele>221.335</ele>
        <time>2021-10-02T15:31:25Z</time>
      </trkpt>
      <trkpt lat="41.903753" lon="3.064042">
        <ele>220.939</ele>
        <time>2021-10-02T15:31:27Z</time>
      </trkpt>
      <trkpt lat="41.903778" lon="3.064073">
        <ele>220.301</ele>
        <time>2021-10-02T15:31:29Z</time>
      </trkpt>
      <trkpt lat="41.903800" lon="3.064107">
        <ele>220.321</ele>
        <time>2021-10-02T15:31:30Z</time>
      </trkpt>
      <trkpt lat="41.903827" lon="3.064138">
        <ele>219.308</ele>
        <time>2021-10-02T15:31:32Z</time>
      </trkpt>
      <trkpt lat="41.903852" lon="3.064172">
        <ele>219.692</ele>
        <time>2021-10-02T15:31:34Z</time>
      </trkpt>
      <trkpt lat="41.903878" lon="3.064210">
        <ele>219.091</ele>
        <time>2021-10-02T15:31:36Z</time>
      </trkpt>
      <trkpt lat="41.903903" lon="3.064243">
        <ele>218.565</ele>
        <time>2021-10-02T15:31:37Z</time>
      </trkpt>
      <trkpt lat="41.903928" lon="3.064278">
        <ele>218.137</ele>
        <time>2021-10-02T15:31:39Z</time>
      </trkpt>
      <trkpt lat="41.903958" lon="3.064318">
        <ele>217.247</ele>
        <time>2021-10-02T15:31:41Z</time>
      </trkpt>
      <trkpt lat="41.904002" lon="3.064375">
        <ele>217.135</ele>
        <time>2021-10-02T15:31:44Z</time>
      </trkpt>
      <trkpt lat="41.904028" lon="3.064405">
        <ele>216.690</ele>
        <time>2021-10-02T15:31:46Z</time>
      </trkpt>
      <trkpt lat="41.904050" lon="3.064440">
        <ele>216.139</ele>
        <time>2021-10-02T15:31:48Z</time>
      </trkpt>
      <trkpt lat="41.904080" lon="3.064475">
        <ele>216.032</ele>
        <time>2021-10-02T15:31:50Z</time>
      </trkpt>
      <trkpt lat="41.904102" lon="3.064512">
        <ele>215.192</ele>
        <time>2021-10-02T15:31:51Z</time>
      </trkpt>
      <trkpt lat="41.904127" lon="3.064543">
        <ele>215.211</ele>
        <time>2021-10-02T15:31:53Z</time>
      </trkpt>
      <trkpt lat="41.904157" lon="3.064577">
        <ele>214.808</ele>
        <time>2021-10-02T15:31:55Z</time>
      </trkpt>
      <trkpt lat="41.904182" lon="3.064610">
        <ele>214.242</ele>
        <time>2021-10-02T15:31:57Z</time>
      </trkpt>
      <trkpt lat="41.904213" lon="3.064642">
        <ele>214.341</ele>
        <time>2021-10-02T15:31:59Z</time>
      </trkpt>
      <trkpt lat="41.904242" lon="3.064672">
        <ele>213.655</ele>
        <time>2021-10-02T15:32:00Z</time>
      </trkpt>
      <trkpt lat="41.904268" lon="3.064698">
        <ele>213.747</ele>
        <time>2021-10-02T15:32:02Z</time>
      </trkpt>
      <trkpt lat="41.904293" lon="3.064725">
        <ele>213.317</ele>
        <time>2021-10-02T15:32:04Z</time>
      </trkpt>
      <trkpt lat="41.904320" lon="3.064750">
        <ele>212.925</ele>
        <time>2021-10-02T15:32:05Z</time>
      </trkpt>
      <trkpt lat="41.904348" lon="3.064775">
        <ele>212.530</ele>
        <time>2021-10-02T15:32:07Z</time>
      </trkpt>
      <trkpt lat="41.904380" lon="3.064795">
        <ele>212.259</ele>
        <time>2021-10-02T15:32:09Z</time>
      </trkpt>
      <trkpt lat="41.904412" lon="3.064818">
        <ele>211.897</ele>
        <time>2021-10-02T15:32:10Z</time>
      </trkpt>
      <trkpt lat="41.904440" lon="3.064838">
        <ele>211.423</ele>
        <time>2021-10-02T15:32:12Z</time>
      </trkpt>
      <trkpt lat="41.904480" lon="3.064853">
        <ele>211.225</ele>
        <time>2021-10-02T15:32:14Z</time>
      </trkpt>
      <trkpt lat="41.904515" lon="3.064868">
        <ele>211.008</ele>
        <time>2021-10-02T15:32:16Z</time>
      </trkpt>
      <trkpt lat="41.904553" lon="3.064878">
        <ele>211.088</ele>
        <time>2021-10-02T15:32:18Z</time>
      </trkpt>
      <trkpt lat="41.904585" lon="3.064890">
        <ele>210.677</ele>
        <time>2021-10-02T15:32:19Z</time>
      </trkpt>
      <trkpt lat="41.904620" lon="3.064900">
        <ele>210.451</ele>
        <time>2021-10-02T15:32:21Z</time>
      </trkpt>
      <trkpt lat="41.904655" lon="3.064902">
        <ele>210.493</ele>
        <time>2021-10-02T15:32:23Z</time>
      </trkpt>
      <trkpt lat="41.904693" lon="3.064905">
        <ele>210.323</ele>
        <time>2021-10-02T15:32:25Z</time>
      </trkpt>
      <trkpt lat="41.904732" lon="3.064900">
        <ele>210.441</ele>
        <time>2021-10-02T15:32:27Z</time>
      </trkpt>
      <trkpt lat="41.904770" lon="3.064892">
        <ele>210.016</ele>
        <time>2021-10-02T15:32:28Z</time>
      </trkpt>
      <trkpt lat="41.904813" lon="3.064936">
        <ele>209.025</ele>
        <time>2021-10-02T15:32:33Z</time>
      </trkpt>
      <trkpt lat="41.904838" lon="3.064997">
        <ele>208.265</ele>
        <time>2021-10-02T15:32:36Z</time>
      </trkpt>
      <trkpt lat="41.904878" lon="3.065025">
        <ele>207.168</ele>
        <time>2021-10-02T15:32:38Z</time>
      </trkpt>
      <trkpt lat="41.904921" lon="3.065082">
        <ele>205.214</ele>
        <time>2021-10-02T15:32:41Z</time>
      </trkpt>
      <trkpt lat="41.904949" lon="3.065139">
        <ele>203.508</ele>
        <time>2021-10-02T15:32:43Z</time>
      </trkpt>
      <trkpt lat="41.905008" lon="3.065168">
        <ele>202.055</ele>
        <time>2021-10-02T15:32:46Z</time>
      </trkpt>
      <trkpt lat="41.905063" lon="3.065216">
        <ele>200.674</ele>
        <time>2021-10-02T15:32:50Z</time>
      </trkpt>
      <trkpt lat="41.905100" lon="3.065244">
        <ele>199.128</ele>
        <time>2021-10-02T15:32:52Z</time>
      </trkpt>
      <trkpt lat="41.905128" lon="3.065314">
        <ele>198.040</ele>
        <time>2021-10-02T15:32:55Z</time>
      </trkpt>
      <trkpt lat="41.905170" lon="3.065338">
        <ele>198.010</ele>
        <time>2021-10-02T15:32:59Z</time>
      </trkpt>
      <trkpt lat="41.905173" lon="3.065408">
        <ele>198.068</ele>
        <time>2021-10-02T15:33:01Z</time>
      </trkpt>
      <trkpt lat="41.905197" lon="3.065465">
        <ele>197.093</ele>
        <time>2021-10-02T15:33:04Z</time>
      </trkpt>
      <trkpt lat="41.905232" lon="3.065510">
        <ele>197.072</ele>
        <time>2021-10-02T15:33:06Z</time>
      </trkpt>
      <trkpt lat="41.905270" lon="3.065543">
        <ele>196.966</ele>
        <time>2021-10-02T15:33:09Z</time>
      </trkpt>
      <trkpt lat="41.905312" lon="3.065575">
        <ele>195.929</ele>
        <time>2021-10-02T15:33:11Z</time>
      </trkpt>
      <trkpt lat="41.905357" lon="3.065595">
        <ele>195.021</ele>
        <time>2021-10-02T15:33:13Z</time>
      </trkpt>
      <trkpt lat="41.905400" lon="3.065615">
        <ele>194.608</ele>
        <time>2021-10-02T15:33:16Z</time>
      </trkpt>
      <trkpt lat="41.905440" lon="3.065643">
        <ele>194.015</ele>
        <time>2021-10-02T15:33:18Z</time>
      </trkpt>
      <trkpt lat="41.905478" lon="3.065673">
        <ele>194.074</ele>
        <time>2021-10-02T15:33:20Z</time>
      </trkpt>
      <trkpt lat="41.905510" lon="3.065707">
        <ele>193.568</ele>
        <time>2021-10-02T15:33:22Z</time>
      </trkpt>
      <trkpt lat="41.905528" lon="3.065753">
        <ele>193.060</ele>
        <time>2021-10-02T15:33:24Z</time>
      </trkpt>
      <trkpt lat="41.905520" lon="3.065807">
        <ele>192.420</ele>
        <time>2021-10-02T15:33:26Z</time>
      </trkpt>
      <trkpt lat="41.905490" lon="3.065840">
        <ele>191.898</ele>
        <time>2021-10-02T15:33:28Z</time>
      </trkpt>
      <trkpt lat="41.905452" lon="3.065863">
        <ele>190.653</ele>
        <time>2021-10-02T15:33:30Z</time>
      </trkpt>
      <trkpt lat="41.905417" lon="3.065887">
        <ele>189.532</ele>
        <time>2021-10-02T15:33:32Z</time>
      </trkpt>
      <trkpt lat="41.905378" lon="3.065907">
        <ele>188.927</ele>
        <time>2021-10-02T15:33:34Z</time>
      </trkpt>
      <trkpt lat="41.905337" lon="3.065933">
        <ele>188.068</ele>
        <time>2021-10-02T15:33:36Z</time>
      </trkpt>
      <trkpt lat="41.905298" lon="3.065965">
        <ele>187.014</ele>
        <time>2021-10-02T15:33:38Z</time>
      </trkpt>
      <trkpt lat="41.905250" lon="3.066008">
        <ele>186.708</ele>
        <time>2021-10-02T15:33:41Z</time>
      </trkpt>
      <trkpt lat="41.905232" lon="3.066060">
        <ele>185.571</ele>
        <time>2021-10-02T15:33:43Z</time>
      </trkpt>
      <trkpt lat="41.905240" lon="3.066127">
        <ele>185.030</ele>
        <time>2021-10-02T15:33:46Z</time>
      </trkpt>
      <trkpt lat="41.905257" lon="3.066160">
        <ele>185.044</ele>
        <time>2021-10-02T15:33:47Z</time>
      </trkpt>
      <trkpt lat="41.905280" lon="3.066188">
        <ele>184.766</ele>
        <time>2021-10-02T15:33:48Z</time>
      </trkpt>
      <trkpt lat="41.905298" lon="3.066233">
        <ele>184.176</ele>
        <time>2021-10-02T15:33:50Z</time>
      </trkpt>
      <trkpt lat="41.905277" lon="3.066290">
        <ele>183.894</ele>
        <time>2021-10-02T15:33:53Z</time>
      </trkpt>
      <trkpt lat="41.905250" lon="3.066325">
        <ele>184.089</ele>
        <time>2021-10-02T15:33:55Z</time>
      </trkpt>
      <trkpt lat="41.905218" lon="3.066363">
        <ele>184.088</ele>
        <time>2021-10-02T15:33:57Z</time>
      </trkpt>
      <trkpt lat="41.905180" lon="3.066417">
        <ele>185.163</ele>
        <time>2021-10-02T15:33:59Z</time>
      </trkpt>
      <trkpt lat="41.905138" lon="3.066487">
        <ele>185.144</ele>
        <time>2021-10-02T15:34:03Z</time>
      </trkpt>
      <trkpt lat="41.905093" lon="3.066560">
        <ele>185.818</ele>
        <time>2021-10-02T15:34:06Z</time>
      </trkpt>
      <trkpt lat="41.905040" lon="3.066628">
        <ele>187.008</ele>
        <time>2021-10-02T15:34:10Z</time>
      </trkpt>
      <trkpt lat="41.904982" lon="3.066690">
        <ele>188.195</ele>
        <time>2021-10-02T15:34:13Z</time>
      </trkpt>
      <trkpt lat="41.904933" lon="3.066758">
        <ele>189.084</ele>
        <time>2021-10-02T15:34:17Z</time>
      </trkpt>
      <trkpt lat="41.904888" lon="3.066835">
        <ele>189.588</ele>
        <time>2021-10-02T15:34:20Z</time>
      </trkpt>
      <trkpt lat="41.904853" lon="3.066922">
        <ele>189.170</ele>
        <time>2021-10-02T15:34:24Z</time>
      </trkpt>
      <trkpt lat="41.904822" lon="3.067005">
        <ele>189.210</ele>
        <time>2021-10-02T15:34:27Z</time>
      </trkpt>
      <trkpt lat="41.904793" lon="3.067095">
        <ele>189.978</ele>
        <time>2021-10-02T15:34:31Z</time>
      </trkpt>
      <trkpt lat="41.904760" lon="3.067187">
        <ele>190.413</ele>
        <time>2021-10-02T15:34:35Z</time>
      </trkpt>
      <trkpt lat="41.904742" lon="3.067285">
        <ele>190.672</ele>
        <time>2021-10-02T15:34:38Z</time>
      </trkpt>
      <trkpt lat="41.904732" lon="3.067380">
        <ele>190.836</ele>
        <time>2021-10-02T15:34:42Z</time>
      </trkpt>
      <trkpt lat="41.904713" lon="3.067483">
        <ele>191.317</ele>
        <time>2021-10-02T15:34:46Z</time>
      </trkpt>
      <trkpt lat="41.904693" lon="3.067585">
        <ele>191.718</ele>
        <time>2021-10-02T15:34:50Z</time>
      </trkpt>
      <trkpt lat="41.904672" lon="3.067678">
        <ele>192.208</ele>
        <time>2021-10-02T15:34:53Z</time>
      </trkpt>
      <trkpt lat="41.904655" lon="3.067778">
        <ele>192.732</ele>
        <time>2021-10-02T15:34:57Z</time>
      </trkpt>
      <trkpt lat="41.904642" lon="3.067877">
        <ele>193.051</ele>
        <time>2021-10-02T15:35:01Z</time>
      </trkpt>
      <trkpt lat="41.904637" lon="3.067977">
        <ele>194.175</ele>
        <time>2021-10-02T15:35:04Z</time>
      </trkpt>
      <trkpt lat="41.904627" lon="3.068075">
        <ele>195.947</ele>
        <time>2021-10-02T15:35:08Z</time>
      </trkpt>
      <trkpt lat="41.904620" lon="3.068157">
        <ele>196.987</ele>
        <time>2021-10-02T15:35:11Z</time>
      </trkpt>
      <trkpt lat="41.904610" lon="3.068232">
        <ele>198.315</ele>
        <time>2021-10-02T15:35:14Z</time>
      </trkpt>
      <trkpt lat="41.904603" lon="3.068295">
        <ele>199.290</ele>
        <time>2021-10-02T15:35:16Z</time>
      </trkpt>
      <trkpt lat="41.904617" lon="3.068365">
        <ele>200.899</ele>
        <time>2021-10-02T15:35:19Z</time>
      </trkpt>
      <trkpt lat="41.904637" lon="3.068440">
        <ele>203.412</ele>
        <time>2021-10-02T15:35:21Z</time>
      </trkpt>
      <trkpt lat="41.904672" lon="3.068520">
        <ele>205.532</ele>
        <time>2021-10-02T15:35:25Z</time>
      </trkpt>
      <trkpt lat="41.904703" lon="3.068605">
        <ele>207.605</ele>
        <time>2021-10-02T15:35:28Z</time>
      </trkpt>
      <trkpt lat="41.904732" lon="3.068692">
        <ele>209.208</ele>
        <time>2021-10-02T15:35:32Z</time>
      </trkpt>
      <trkpt lat="41.904755" lon="3.068755">
        <ele>210.360</ele>
        <time>2021-10-02T15:35:34Z</time>
      </trkpt>
      <trkpt lat="41.904773" lon="3.068825">
        <ele>211.159</ele>
        <time>2021-10-02T15:35:37Z</time>
      </trkpt>
      <trkpt lat="41.904783" lon="3.068888">
        <ele>212.183</ele>
        <time>2021-10-02T15:35:39Z</time>
      </trkpt>
      <trkpt lat="41.904783" lon="3.068943">
        <ele>212.485</ele>
        <time>2021-10-02T15:35:41Z</time>
      </trkpt>
      <trkpt lat="41.904760" lon="3.068993">
        <ele>212.415</ele>
        <time>2021-10-02T15:35:44Z</time>
      </trkpt>
      <trkpt lat="41.904720" lon="3.069028">
        <ele>212.023</ele>
        <time>2021-10-02T15:35:46Z</time>
      </trkpt>
      <trkpt lat="41.904675" lon="3.069058">
        <ele>211.098</ele>
        <time>2021-10-02T15:35:48Z</time>
      </trkpt>
      <trkpt lat="41.904623" lon="3.069075">
        <ele>210.817</ele>
        <time>2021-10-02T15:35:51Z</time>
      </trkpt>
      <trkpt lat="41.904585" lon="3.069085">
        <ele>211.051</ele>
        <time>2021-10-02T15:35:53Z</time>
      </trkpt>
      <trkpt lat="41.904560" lon="3.069102">
        <ele>211.001</ele>
        <time>2021-10-02T15:35:54Z</time>
      </trkpt>
      <trkpt lat="41.904543" lon="3.069137">
        <ele>211.711</ele>
        <time>2021-10-02T15:35:56Z</time>
      </trkpt>
      <trkpt lat="41.904540" lon="3.069188">
        <ele>212.708</ele>
        <time>2021-10-02T15:35:58Z</time>
      </trkpt>
      <trkpt lat="41.904547" lon="3.069255">
        <ele>213.194</ele>
        <time>2021-10-02T15:36:00Z</time>
      </trkpt>
      <trkpt lat="41.904562" lon="3.069320">
        <ele>213.953</ele>
        <time>2021-10-02T15:36:03Z</time>
      </trkpt>
      <trkpt lat="41.904585" lon="3.069378">
        <ele>214.087</ele>
        <time>2021-10-02T15:36:05Z</time>
      </trkpt>
      <trkpt lat="41.904613" lon="3.069430">
        <ele>214.499</ele>
        <time>2021-10-02T15:36:07Z</time>
      </trkpt>
      <trkpt lat="41.904652" lon="3.069475">
        <ele>215.099</ele>
        <time>2021-10-02T15:36:10Z</time>
      </trkpt>
      <trkpt lat="41.904693" lon="3.069513">
        <ele>215.457</ele>
        <time>2021-10-02T15:36:12Z</time>
      </trkpt>
      <trkpt lat="41.904735" lon="3.069552">
        <ele>216.382</ele>
        <time>2021-10-02T15:36:15Z</time>
      </trkpt>
      <trkpt lat="41.904770" lon="3.069605">
        <ele>217.151</ele>
        <time>2021-10-02T15:36:18Z</time>
      </trkpt>
      <trkpt lat="41.904812" lon="3.069675">
        <ele>217.229</ele>
        <time>2021-10-02T15:36:21Z</time>
      </trkpt>
      <trkpt lat="41.904860" lon="3.069753">
        <ele>217.100</ele>
        <time>2021-10-02T15:36:25Z</time>
      </trkpt>
      <trkpt lat="41.904912" lon="3.069833">
        <ele>217.620</ele>
        <time>2021-10-02T15:36:28Z</time>
      </trkpt>
      <trkpt lat="41.904960" lon="3.069902">
        <ele>217.308</ele>
        <time>2021-10-02T15:36:32Z</time>
      </trkpt>
      <trkpt lat="41.905010" lon="3.069958">
        <ele>218.021</ele>
        <time>2021-10-02T15:36:35Z</time>
      </trkpt>
      <trkpt lat="41.905058" lon="3.070008">
        <ele>218.040</ele>
        <time>2021-10-02T15:36:38Z</time>
      </trkpt>
      <trkpt lat="41.905097" lon="3.070055">
        <ele>218.194</ele>
        <time>2021-10-02T15:36:41Z</time>
      </trkpt>
      <trkpt lat="41.905128" lon="3.070103">
        <ele>218.016</ele>
        <time>2021-10-02T15:36:43Z</time>
      </trkpt>
      <trkpt lat="41.905138" lon="3.070160">
        <ele>218.926</ele>
        <time>2021-10-02T15:36:45Z</time>
      </trkpt>
      <trkpt lat="41.905138" lon="3.070220">
        <ele>219.874</ele>
        <time>2021-10-02T15:36:47Z</time>
      </trkpt>
      <trkpt lat="41.905118" lon="3.070275">
        <ele>220.689</ele>
        <time>2021-10-02T15:36:50Z</time>
      </trkpt>
      <trkpt lat="41.905093" lon="3.070325">
        <ele>221.298</ele>
        <time>2021-10-02T15:36:52Z</time>
      </trkpt>
      <trkpt lat="41.905062" lon="3.070370">
        <ele>221.726</ele>
        <time>2021-10-02T15:36:54Z</time>
      </trkpt>
      <trkpt lat="41.905037" lon="3.070410">
        <ele>222.047</ele>
        <time>2021-10-02T15:36:56Z</time>
      </trkpt>
      <trkpt lat="41.905007" lon="3.070447">
        <ele>221.711</ele>
        <time>2021-10-02T15:36:58Z</time>
      </trkpt>
      <trkpt lat="41.904972" lon="3.070482">
        <ele>221.608</ele>
        <time>2021-10-02T15:37:00Z</time>
      </trkpt>
      <trkpt lat="41.904943" lon="3.070520">
        <ele>220.931</ele>
        <time>2021-10-02T15:37:02Z</time>
      </trkpt>
      <trkpt lat="41.904923" lon="3.070568">
        <ele>221.180</ele>
        <time>2021-10-02T15:37:04Z</time>
      </trkpt>
      <trkpt lat="41.904920" lon="3.070638">
        <ele>221.934</ele>
        <time>2021-10-02T15:37:07Z</time>
      </trkpt>
      <trkpt lat="41.904930" lon="3.070720">
        <ele>222.656</ele>
        <time>2021-10-02T15:37:10Z</time>
      </trkpt>
      <trkpt lat="41.904943" lon="3.070813">
        <ele>223.676</ele>
        <time>2021-10-02T15:37:13Z</time>
      </trkpt>
      <trkpt lat="41.904972" lon="3.070900">
        <ele>224.024</ele>
        <time>2021-10-02T15:37:17Z</time>
      </trkpt>
      <trkpt lat="41.904992" lon="3.070985">
        <ele>224.019</ele>
        <time>2021-10-02T15:37:20Z</time>
      </trkpt>
      <trkpt lat="41.905000" lon="3.071062">
        <ele>224.228</ele>
        <time>2021-10-02T15:37:23Z</time>
      </trkpt>
      <trkpt lat="41.905007" lon="3.071145">
        <ele>224.429</ele>
        <time>2021-10-02T15:37:26Z</time>
      </trkpt>
      <trkpt lat="41.905010" lon="3.071225">
        <ele>224.700</ele>
        <time>2021-10-02T15:37:29Z</time>
      </trkpt>
      <trkpt lat="41.905020" lon="3.071300">
        <ele>225.520</ele>
        <time>2021-10-02T15:37:32Z</time>
      </trkpt>
      <trkpt lat="41.905033" lon="3.071373">
        <ele>226.908</ele>
        <time>2021-10-02T15:37:34Z</time>
      </trkpt>
      <trkpt lat="41.905040" lon="3.071435">
        <ele>228.131</ele>
        <time>2021-10-02T15:37:37Z</time>
      </trkpt>
      <trkpt lat="41.905042" lon="3.071483">
        <ele>228.130</ele>
        <time>2021-10-02T15:37:38Z</time>
      </trkpt>
      <trkpt lat="41.905037" lon="3.071523">
        <ele>228.514</ele>
        <time>2021-10-02T15:37:40Z</time>
      </trkpt>
      <trkpt lat="41.905017" lon="3.071562">
        <ele>228.676</ele>
        <time>2021-10-02T15:37:42Z</time>
      </trkpt>
      <trkpt lat="41.904992" lon="3.071600">
        <ele>228.026</ele>
        <time>2021-10-02T15:37:43Z</time>
      </trkpt>
      <trkpt lat="41.904968" lon="3.071648">
        <ele>228.034</ele>
        <time>2021-10-02T15:37:45Z</time>
      </trkpt>
      <trkpt lat="41.904957" lon="3.071703">
        <ele>228.669</ele>
        <time>2021-10-02T15:37:48Z</time>
      </trkpt>
      <trkpt lat="41.904957" lon="3.071767">
        <ele>229.168</ele>
        <time>2021-10-02T15:37:50Z</time>
      </trkpt>
      <trkpt lat="41.904962" lon="3.071833">
        <ele>229.489</ele>
        <time>2021-10-02T15:37:52Z</time>
      </trkpt>
      <trkpt lat="41.904962" lon="3.071885">
        <ele>229.406</ele>
        <time>2021-10-02T15:37:54Z</time>
      </trkpt>
      <trkpt lat="41.904950" lon="3.071930">
        <ele>229.326</ele>
        <time>2021-10-02T15:37:56Z</time>
      </trkpt>
      <trkpt lat="41.904930" lon="3.071970">
        <ele>229.608</ele>
        <time>2021-10-02T15:37:58Z</time>
      </trkpt>
      <trkpt lat="41.904912" lon="3.072032">
        <ele>229.347</ele>
        <time>2021-10-02T15:38:00Z</time>
      </trkpt>
      <trkpt lat="41.904930" lon="3.072063">
        <ele>230.156</ele>
        <time>2021-10-02T15:38:02Z</time>
      </trkpt>
      <trkpt lat="41.904960" lon="3.072085">
        <ele>230.890</ele>
        <time>2021-10-02T15:38:03Z</time>
      </trkpt>
      <trkpt lat="41.904995" lon="3.072110">
        <ele>231.182</ele>
        <time>2021-10-02T15:38:05Z</time>
      </trkpt>
      <trkpt lat="41.905020" lon="3.072143">
        <ele>231.772</ele>
        <time>2021-10-02T15:38:07Z</time>
      </trkpt>
      <trkpt lat="41.905037" lon="3.072193">
        <ele>232.040</ele>
        <time>2021-10-02T15:38:09Z</time>
      </trkpt>
      <trkpt lat="41.905040" lon="3.072248">
        <ele>232.175</ele>
        <time>2021-10-02T15:38:11Z</time>
      </trkpt>
      <trkpt lat="41.905037" lon="3.072300">
        <ele>232.084</ele>
        <time>2021-10-02T15:38:13Z</time>
      </trkpt>
      <trkpt lat="41.905023" lon="3.072368">
        <ele>232.074</ele>
        <time>2021-10-02T15:38:15Z</time>
      </trkpt>
      <trkpt lat="41.904982" lon="3.072398">
        <ele>231.856</ele>
        <time>2021-10-02T15:38:18Z</time>
      </trkpt>
      <trkpt lat="41.904933" lon="3.072420">
        <ele>231.021</ele>
        <time>2021-10-02T15:38:20Z</time>
      </trkpt>
      <trkpt lat="41.904895" lon="3.072445">
        <ele>231.008</ele>
        <time>2021-10-02T15:38:22Z</time>
      </trkpt>
      <trkpt lat="41.904877" lon="3.072475">
        <ele>231.056</ele>
        <time>2021-10-02T15:38:24Z</time>
      </trkpt>
      <trkpt lat="41.904877" lon="3.072533">
        <ele>231.025</ele>
        <time>2021-10-02T15:38:26Z</time>
      </trkpt>
      <trkpt lat="41.904882" lon="3.072602">
        <ele>231.359</ele>
        <time>2021-10-02T15:38:28Z</time>
      </trkpt>
      <trkpt lat="41.904912" lon="3.072685">
        <ele>232.291</ele>
        <time>2021-10-02T15:38:32Z</time>
      </trkpt>
      <trkpt lat="41.904940" lon="3.072765">
        <ele>233.021</ele>
        <time>2021-10-02T15:38:35Z</time>
      </trkpt>
      <trkpt lat="41.904968" lon="3.072840">
        <ele>234.169</ele>
        <time>2021-10-02T15:38:38Z</time>
      </trkpt>
      <trkpt lat="41.904995" lon="3.072908">
        <ele>235.084</ele>
        <time>2021-10-02T15:38:41Z</time>
      </trkpt>
      <trkpt lat="41.905020" lon="3.072962">
        <ele>235.823</ele>
        <time>2021-10-02T15:38:43Z</time>
      </trkpt>
      <trkpt lat="41.905042" lon="3.073015">
        <ele>236.376</ele>
        <time>2021-10-02T15:38:45Z</time>
      </trkpt>
      <trkpt lat="41.905058" lon="3.073070">
        <ele>237.590</ele>
        <time>2021-10-02T15:38:47Z</time>
      </trkpt>
      <trkpt lat="41.905072" lon="3.073127">
        <ele>237.819</ele>
        <time>2021-10-02T15:38:50Z</time>
      </trkpt>
      <trkpt lat="41.905078" lon="3.073190">
        <ele>238.108</ele>
        <time>2021-10-02T15:38:52Z</time>
      </trkpt>
      <trkpt lat="41.905090" lon="3.073253">
        <ele>239.246</ele>
        <time>2021-10-02T15:38:54Z</time>
      </trkpt>
      <trkpt lat="41.905100" lon="3.073310">
        <ele>239.595</ele>
        <time>2021-10-02T15:38:56Z</time>
      </trkpt>
      <trkpt lat="41.905117" lon="3.073363">
        <ele>239.859</ele>
        <time>2021-10-02T15:38:58Z</time>
      </trkpt>
      <trkpt lat="41.905138" lon="3.073410">
        <ele>240.351</ele>
        <time>2021-10-02T15:39:00Z</time>
      </trkpt>
      <trkpt lat="41.905160" lon="3.073452">
        <ele>240.811</ele>
        <time>2021-10-02T15:39:02Z</time>
      </trkpt>
      <trkpt lat="41.905187" lon="3.073483">
        <ele>241.479</ele>
        <time>2021-10-02T15:39:04Z</time>
      </trkpt>
      <trkpt lat="41.905202" lon="3.073518">
        <ele>241.764</ele>
        <time>2021-10-02T15:39:06Z</time>
      </trkpt>
      <trkpt lat="41.905212" lon="3.073565">
        <ele>241.913</ele>
        <time>2021-10-02T15:39:07Z</time>
      </trkpt>
      <trkpt lat="41.905197" lon="3.073610">
        <ele>241.651</ele>
        <time>2021-10-02T15:39:09Z</time>
      </trkpt>
      <trkpt lat="41.905167" lon="3.073643">
        <ele>241.001</ele>
        <time>2021-10-02T15:39:11Z</time>
      </trkpt>
      <trkpt lat="41.905128" lon="3.073655">
        <ele>240.811</ele>
        <time>2021-10-02T15:39:13Z</time>
      </trkpt>
      <trkpt lat="41.905087" lon="3.073657">
        <ele>240.008</ele>
        <time>2021-10-02T15:39:15Z</time>
      </trkpt>
      <trkpt lat="41.905052" lon="3.073645">
        <ele>239.674</ele>
        <time>2021-10-02T15:39:17Z</time>
      </trkpt>
      <trkpt lat="41.905020" lon="3.073623">
        <ele>239.383</ele>
        <time>2021-10-02T15:39:19Z</time>
      </trkpt>
      <trkpt lat="41.904998" lon="3.073592">
        <ele>239.027</ele>
        <time>2021-10-02T15:39:20Z</time>
      </trkpt>
      <trkpt lat="41.904968" lon="3.073563">
        <ele>239.019</ele>
        <time>2021-10-02T15:39:22Z</time>
      </trkpt>
      <trkpt lat="41.904933" lon="3.073535">
        <ele>238.969</ele>
        <time>2021-10-02T15:39:24Z</time>
      </trkpt>
      <trkpt lat="41.904898" lon="3.073505">
        <ele>239.027</ele>
        <time>2021-10-02T15:39:26Z</time>
      </trkpt>
      <trkpt lat="41.904860" lon="3.073478">
        <ele>238.982</ele>
        <time>2021-10-02T15:39:28Z</time>
      </trkpt>
      <trkpt lat="41.904832" lon="3.073450">
        <ele>238.751</ele>
        <time>2021-10-02T15:39:30Z</time>
      </trkpt>
      <trkpt lat="41.904797" lon="3.073420">
        <ele>238.963</ele>
        <time>2021-10-02T15:39:32Z</time>
      </trkpt>
      <trkpt lat="41.904758" lon="3.073390">
        <ele>238.444</ele>
        <time>2021-10-02T15:39:34Z</time>
      </trkpt>
      <trkpt lat="41.904710" lon="3.073365">
        <ele>238.018</ele>
        <time>2021-10-02T15:39:37Z</time>
      </trkpt>
      <trkpt lat="41.904655" lon="3.073347">
        <ele>237.708</ele>
        <time>2021-10-02T15:39:39Z</time>
      </trkpt>
      <trkpt lat="41.904592" lon="3.073347">
        <ele>238.385</ele>
        <time>2021-10-02T15:39:42Z</time>
      </trkpt>
      <trkpt lat="41.904518" lon="3.073363">
        <ele>238.934</ele>
        <time>2021-10-02T15:39:46Z</time>
      </trkpt>
      <trkpt lat="41.904443" lon="3.073370">
        <ele>239.168</ele>
        <time>2021-10-02T15:39:50Z</time>
      </trkpt>
      <trkpt lat="41.904380" lon="3.073385">
        <ele>239.360</ele>
        <time>2021-10-02T15:39:53Z</time>
      </trkpt>
      <trkpt lat="41.904313" lon="3.073410">
        <ele>239.520</ele>
        <time>2021-10-02T15:39:56Z</time>
      </trkpt>
      <trkpt lat="41.904242" lon="3.073447">
        <ele>239.528</ele>
        <time>2021-10-02T15:40:00Z</time>
      </trkpt>
      <trkpt lat="41.904175" lon="3.073502">
        <ele>239.643</ele>
        <time>2021-10-02T15:40:04Z</time>
      </trkpt>
      <trkpt lat="41.904120" lon="3.073558">
        <ele>241.132</ele>
        <time>2021-10-02T15:40:07Z</time>
      </trkpt>
      <trkpt lat="41.904070" lon="3.073605">
        <ele>242.098</ele>
        <time>2021-10-02T15:40:10Z</time>
      </trkpt>
      <trkpt lat="41.904035" lon="3.073652">
        <ele>242.815</ele>
        <time>2021-10-02T15:40:13Z</time>
      </trkpt>
      <trkpt lat="41.904000" lon="3.073687">
        <ele>243.326</ele>
        <time>2021-10-02T15:40:15Z</time>
      </trkpt>
      <trkpt lat="41.903970" lon="3.073718">
        <ele>243.908</ele>
        <time>2021-10-02T15:40:17Z</time>
      </trkpt>
      <trkpt lat="41.903970" lon="3.073773">
        <ele>244.818</ele>
        <time>2021-10-02T15:40:19Z</time>
      </trkpt>
      <trkpt lat="41.904005" lon="3.073793">
        <ele>245.327</ele>
        <time>2021-10-02T15:40:21Z</time>
      </trkpt>
      <trkpt lat="41.904057" lon="3.073807">
        <ele>246.361</ele>
        <time>2021-10-02T15:40:23Z</time>
      </trkpt>
      <trkpt lat="41.904120" lon="3.073827">
        <ele>247.463</ele>
        <time>2021-10-02T15:40:26Z</time>
      </trkpt>
      <trkpt lat="41.904200" lon="3.073867">
        <ele>248.713</ele>
        <time>2021-10-02T15:40:31Z</time>
      </trkpt>
      <trkpt lat="41.904278" lon="3.073920">
        <ele>249.681</ele>
        <time>2021-10-02T15:40:35Z</time>
      </trkpt>
      <trkpt lat="41.904348" lon="3.073973">
        <ele>251.126</ele>
        <time>2021-10-02T15:40:39Z</time>
      </trkpt>
      <trkpt lat="41.904415" lon="3.074030">
        <ele>252.085</ele>
        <time>2021-10-02T15:40:43Z</time>
      </trkpt>
      <trkpt lat="41.904473" lon="3.074088">
        <ele>253.064</ele>
        <time>2021-10-02T15:40:46Z</time>
      </trkpt>
      <trkpt lat="41.904518" lon="3.074147">
        <ele>253.406</ele>
        <time>2021-10-02T15:40:49Z</time>
      </trkpt>
      <trkpt lat="41.904560" lon="3.074215">
        <ele>254.116</ele>
        <time>2021-10-02T15:40:53Z</time>
      </trkpt>
      <trkpt lat="41.904585" lon="3.074283">
        <ele>254.208</ele>
        <time>2021-10-02T15:40:55Z</time>
      </trkpt>
      <trkpt lat="41.904610" lon="3.074357">
        <ele>254.915</ele>
        <time>2021-10-02T15:40:58Z</time>
      </trkpt>
      <trkpt lat="41.904623" lon="3.074428">
        <ele>255.844</ele>
        <time>2021-10-02T15:41:01Z</time>
      </trkpt>
      <trkpt lat="41.904637" lon="3.074493">
        <ele>256.478</ele>
        <time>2021-10-02T15:41:04Z</time>
      </trkpt>
      <trkpt lat="41.904652" lon="3.074555">
        <ele>256.340</ele>
        <time>2021-10-02T15:41:06Z</time>
      </trkpt>
      <trkpt lat="41.904672" lon="3.074608">
        <ele>256.620</ele>
        <time>2021-10-02T15:41:08Z</time>
      </trkpt>
      <trkpt lat="41.904693" lon="3.074657">
        <ele>256.768</ele>
        <time>2021-10-02T15:41:10Z</time>
      </trkpt>
      <trkpt lat="41.904720" lon="3.074698">
        <ele>257.163</ele>
        <time>2021-10-02T15:41:12Z</time>
      </trkpt>
      <trkpt lat="41.904745" lon="3.074737">
        <ele>257.232</ele>
        <time>2021-10-02T15:41:14Z</time>
      </trkpt>
      <trkpt lat="41.904770" lon="3.074770">
        <ele>256.936</ele>
        <time>2021-10-02T15:41:16Z</time>
      </trkpt>
      <trkpt lat="41.904790" lon="3.074810">
        <ele>257.017</ele>
        <time>2021-10-02T15:41:18Z</time>
      </trkpt>
      <trkpt lat="41.904808" lon="3.074850">
        <ele>257.018</ele>
        <time>2021-10-02T15:41:19Z</time>
      </trkpt>
      <trkpt lat="41.904822" lon="3.074905">
        <ele>257.408</ele>
        <time>2021-10-02T15:41:21Z</time>
      </trkpt>
      <trkpt lat="41.904840" lon="3.074955">
        <ele>257.632</ele>
        <time>2021-10-02T15:41:23Z</time>
      </trkpt>
      <trkpt lat="41.904880" lon="3.075003">
        <ele>257.441</ele>
        <time>2021-10-02T15:41:26Z</time>
      </trkpt>
      <trkpt lat="41.904915" lon="3.075017">
        <ele>257.035</ele>
        <time>2021-10-02T15:41:28Z</time>
      </trkpt>
      <trkpt lat="41.904960" lon="3.075040">
        <ele>257.157</ele>
        <time>2021-10-02T15:41:30Z</time>
      </trkpt>
      <trkpt lat="41.904995" lon="3.075075">
        <ele>256.647</ele>
        <time>2021-10-02T15:41:32Z</time>
      </trkpt>
      <trkpt lat="41.905042" lon="3.075107">
        <ele>256.175</ele>
        <time>2021-10-02T15:41:35Z</time>
      </trkpt>
      <trkpt lat="41.905090" lon="3.075135">
        <ele>255.970</ele>
        <time>2021-10-02T15:41:37Z</time>
      </trkpt>
      <trkpt lat="41.905113" lon="3.075155">
        <ele>256.149</ele>
        <time>2021-10-02T15:41:39Z</time>
      </trkpt>
      <trkpt lat="41.905152" lon="3.075197">
        <ele>255.689</ele>
        <time>2021-10-02T15:41:41Z</time>
      </trkpt>
      <trkpt lat="41.905180" lon="3.075245">
        <ele>255.206</ele>
        <time>2021-10-02T15:41:43Z</time>
      </trkpt>
      <trkpt lat="41.905197" lon="3.075275">
        <ele>255.226</ele>
        <time>2021-10-02T15:41:45Z</time>
      </trkpt>
      <trkpt lat="41.905222" lon="3.075333">
        <ele>254.408</ele>
        <time>2021-10-02T15:41:47Z</time>
      </trkpt>
      <trkpt lat="41.905240" lon="3.075363">
        <ele>253.937</ele>
        <time>2021-10-02T15:41:49Z</time>
      </trkpt>
      <trkpt lat="41.905260" lon="3.075390">
        <ele>253.496</ele>
        <time>2021-10-02T15:41:50Z</time>
      </trkpt>
      <trkpt lat="41.905285" lon="3.075413">
        <ele>253.120</ele>
        <time>2021-10-02T15:41:52Z</time>
      </trkpt>
      <trkpt lat="41.905308" lon="3.075437">
        <ele>252.862</ele>
        <time>2021-10-02T15:41:53Z</time>
      </trkpt>
      <trkpt lat="41.905327" lon="3.075470">
        <ele>252.762</ele>
        <time>2021-10-02T15:41:55Z</time>
      </trkpt>
      <trkpt lat="41.905347" lon="3.075495">
        <ele>252.790</ele>
        <time>2021-10-02T15:41:56Z</time>
      </trkpt>
      <trkpt lat="41.905365" lon="3.075527">
        <ele>252.565</ele>
        <time>2021-10-02T15:41:57Z</time>
      </trkpt>
      <trkpt lat="41.905400" lon="3.075585">
        <ele>251.584</ele>
        <time>2021-10-02T15:42:00Z</time>
      </trkpt>
      <trkpt lat="41.905420" lon="3.075612">
        <ele>251.499</ele>
        <time>2021-10-02T15:42:01Z</time>
      </trkpt>
      <trkpt lat="41.905445" lon="3.075640">
        <ele>251.307</ele>
        <time>2021-10-02T15:42:03Z</time>
      </trkpt>
      <trkpt lat="41.905472" lon="3.075668">
        <ele>250.827</ele>
        <time>2021-10-02T15:42:05Z</time>
      </trkpt>
      <trkpt lat="41.905497" lon="3.075698">
        <ele>250.708</ele>
        <time>2021-10-02T15:42:06Z</time>
      </trkpt>
      <trkpt lat="41.905525" lon="3.075730">
        <ele>250.778</ele>
        <time>2021-10-02T15:42:08Z</time>
      </trkpt>
      <trkpt lat="41.905548" lon="3.075760">
        <ele>250.417</ele>
        <time>2021-10-02T15:42:10Z</time>
      </trkpt>
      <trkpt lat="41.905573" lon="3.075795">
        <ele>249.711</ele>
        <time>2021-10-02T15:42:11Z</time>
      </trkpt>
      <trkpt lat="41.905597" lon="3.075830">
        <ele>249.263</ele>
        <time>2021-10-02T15:42:13Z</time>
      </trkpt>
      <trkpt lat="41.905615" lon="3.075865">
        <ele>249.013</ele>
        <time>2021-10-02T15:42:15Z</time>
      </trkpt>
      <trkpt lat="41.905643" lon="3.075903">
        <ele>249.011</ele>
        <time>2021-10-02T15:42:17Z</time>
      </trkpt>
      <trkpt lat="41.905667" lon="3.075937">
        <ele>249.176</ele>
        <time>2021-10-02T15:42:18Z</time>
      </trkpt>
      <trkpt lat="41.905685" lon="3.075972">
        <ele>249.345</ele>
        <time>2021-10-02T15:42:20Z</time>
      </trkpt>
      <trkpt lat="41.905712" lon="3.076005">
        <ele>249.275</ele>
        <time>2021-10-02T15:42:22Z</time>
      </trkpt>
      <trkpt lat="41.905737" lon="3.076035">
        <ele>248.728</ele>
        <time>2021-10-02T15:42:23Z</time>
      </trkpt>
      <trkpt lat="41.905762" lon="3.076063">
        <ele>248.320</ele>
        <time>2021-10-02T15:42:25Z</time>
      </trkpt>
      <trkpt lat="41.905792" lon="3.076085">
        <ele>248.008</ele>
        <time>2021-10-02T15:42:27Z</time>
      </trkpt>
      <trkpt lat="41.905827" lon="3.076102">
        <ele>248.466</ele>
        <time>2021-10-02T15:42:28Z</time>
      </trkpt>
      <trkpt lat="41.905855" lon="3.076110">
        <ele>248.515</ele>
        <time>2021-10-02T15:42:30Z</time>
      </trkpt>
      <trkpt lat="41.905887" lon="3.076118">
        <ele>248.489</ele>
        <time>2021-10-02T15:42:31Z</time>
      </trkpt>
      <trkpt lat="41.905913" lon="3.076130">
        <ele>248.391</ele>
        <time>2021-10-02T15:42:33Z</time>
      </trkpt>
      <trkpt lat="41.905960" lon="3.076152">
        <ele>247.771</ele>
        <time>2021-10-02T15:42:35Z</time>
      </trkpt>
      <trkpt lat="41.905997" lon="3.076190">
        <ele>246.819</ele>
        <time>2021-10-02T15:42:38Z</time>
      </trkpt>
      <trkpt lat="41.906025" lon="3.076245">
        <ele>245.694</ele>
        <time>2021-10-02T15:42:40Z</time>
      </trkpt>
      <trkpt lat="41.906040" lon="3.076277">
        <ele>245.343</ele>
        <time>2021-10-02T15:42:41Z</time>
      </trkpt>
      <trkpt lat="41.906053" lon="3.076335">
        <ele>244.875</ele>
        <time>2021-10-02T15:42:44Z</time>
      </trkpt>
      <trkpt lat="41.906060" lon="3.076370">
        <ele>244.228</ele>
        <time>2021-10-02T15:42:45Z</time>
      </trkpt>
      <trkpt lat="41.906060" lon="3.076427">
        <ele>243.920</ele>
        <time>2021-10-02T15:42:47Z</time>
      </trkpt>
      <trkpt lat="41.906060" lon="3.076487">
        <ele>243.808</ele>
        <time>2021-10-02T15:42:49Z</time>
      </trkpt>
      <trkpt lat="41.906050" lon="3.076548">
        <ele>243.696</ele>
        <time>2021-10-02T15:42:52Z</time>
      </trkpt>
      <trkpt lat="41.906035" lon="3.076608">
        <ele>243.355</ele>
        <time>2021-10-02T15:42:54Z</time>
      </trkpt>
      <trkpt lat="41.906025" lon="3.076672">
        <ele>243.049</ele>
        <time>2021-10-02T15:42:56Z</time>
      </trkpt>
      <trkpt lat="41.906015" lon="3.076708">
        <ele>242.251</ele>
        <time>2021-10-02T15:42:58Z</time>
      </trkpt>
      <trkpt lat="41.906008" lon="3.076743">
        <ele>241.731</ele>
        <time>2021-10-02T15:42:59Z</time>
      </trkpt>
      <trkpt lat="41.905997" lon="3.076810">
        <ele>241.469</ele>
        <time>2021-10-02T15:43:02Z</time>
      </trkpt>
      <trkpt lat="41.905987" lon="3.076878">
        <ele>241.224</ele>
        <time>2021-10-02T15:43:04Z</time>
      </trkpt>
      <trkpt lat="41.905977" lon="3.076915">
        <ele>241.073</ele>
        <time>2021-10-02T15:43:06Z</time>
      </trkpt>
      <trkpt lat="41.905973" lon="3.076953">
        <ele>240.881</ele>
        <time>2021-10-02T15:43:07Z</time>
      </trkpt>
      <trkpt lat="41.905970" lon="3.077022">
        <ele>240.161</ele>
        <time>2021-10-02T15:43:10Z</time>
      </trkpt>
      <trkpt lat="41.905970" lon="3.077065">
        <ele>239.817</ele>
        <time>2021-10-02T15:43:11Z</time>
      </trkpt>
      <trkpt lat="41.905977" lon="3.077127">
        <ele>239.608</ele>
        <time>2021-10-02T15:43:14Z</time>
      </trkpt>
      <trkpt lat="41.905983" lon="3.077195">
        <ele>239.117</ele>
        <time>2021-10-02T15:43:16Z</time>
      </trkpt>
      <trkpt lat="41.905987" lon="3.077233">
        <ele>238.986</ele>
        <time>2021-10-02T15:43:18Z</time>
      </trkpt>
      <trkpt lat="41.906005" lon="3.077295">
        <ele>237.820</ele>
        <time>2021-10-02T15:43:20Z</time>
      </trkpt>
      <trkpt lat="41.906022" lon="3.077330">
        <ele>237.392</ele>
        <time>2021-10-02T15:43:22Z</time>
      </trkpt>
      <trkpt lat="41.906035" lon="3.077362">
        <ele>236.912</ele>
        <time>2021-10-02T15:43:23Z</time>
      </trkpt>
      <trkpt lat="41.906053" lon="3.077390">
        <ele>236.470</ele>
        <time>2021-10-02T15:43:24Z</time>
      </trkpt>
      <trkpt lat="41.906088" lon="3.077450">
        <ele>235.715</ele>
        <time>2021-10-02T15:43:27Z</time>
      </trkpt>
      <trkpt lat="41.906108" lon="3.077480">
        <ele>235.714</ele>
        <time>2021-10-02T15:43:29Z</time>
      </trkpt>
      <trkpt lat="41.906127" lon="3.077507">
        <ele>235.337</ele>
        <time>2021-10-02T15:43:30Z</time>
      </trkpt>
      <trkpt lat="41.906162" lon="3.077555">
        <ele>234.549</ele>
        <time>2021-10-02T15:43:32Z</time>
      </trkpt>
      <trkpt lat="41.906195" lon="3.077610">
        <ele>233.613</ele>
        <time>2021-10-02T15:43:35Z</time>
      </trkpt>
      <trkpt lat="41.906230" lon="3.077665">
        <ele>232.808</ele>
        <time>2021-10-02T15:43:38Z</time>
      </trkpt>
      <trkpt lat="41.906252" lon="3.077692">
        <ele>232.382</ele>
        <time>2021-10-02T15:43:39Z</time>
      </trkpt>
      <trkpt lat="41.906275" lon="3.077712">
        <ele>232.031</ele>
        <time>2021-10-02T15:43:40Z</time>
      </trkpt>
      <trkpt lat="41.906325" lon="3.077755">
        <ele>231.445</ele>
        <time>2021-10-02T15:43:43Z</time>
      </trkpt>
      <trkpt lat="41.906348" lon="3.077780">
        <ele>231.037</ele>
        <time>2021-10-02T15:43:45Z</time>
      </trkpt>
      <trkpt lat="41.906373" lon="3.077800">
        <ele>230.697</ele>
        <time>2021-10-02T15:43:46Z</time>
      </trkpt>
      <trkpt lat="41.906402" lon="3.077813">
        <ele>230.385</ele>
        <time>2021-10-02T15:43:48Z</time>
      </trkpt>
      <trkpt lat="41.906432" lon="3.077830">
        <ele>230.080</ele>
        <time>2021-10-02T15:43:49Z</time>
      </trkpt>
      <trkpt lat="41.906463" lon="3.077848">
        <ele>229.799</ele>
        <time>2021-10-02T15:43:51Z</time>
      </trkpt>
      <trkpt lat="41.906498" lon="3.077873">
        <ele>229.339</ele>
        <time>2021-10-02T15:43:53Z</time>
      </trkpt>
      <trkpt lat="41.906537" lon="3.077897">
        <ele>228.901</ele>
        <time>2021-10-02T15:43:55Z</time>
      </trkpt>
      <trkpt lat="41.906578" lon="3.077915">
        <ele>228.621</ele>
        <time>2021-10-02T15:43:57Z</time>
      </trkpt>
      <trkpt lat="41.906620" lon="3.077928">
        <ele>228.408</ele>
        <time>2021-10-02T15:43:59Z</time>
      </trkpt>
      <trkpt lat="41.906665" lon="3.077922">
        <ele>228.222</ele>
        <time>2021-10-02T15:44:01Z</time>
      </trkpt>
      <trkpt lat="41.906710" lon="3.077900">
        <ele>227.631</ele>
        <time>2021-10-02T15:44:04Z</time>
      </trkpt>
      <trkpt lat="41.906758" lon="3.077865">
        <ele>227.725</ele>
        <time>2021-10-02T15:44:06Z</time>
      </trkpt>
      <trkpt lat="41.906800" lon="3.077832">
        <ele>227.797</ele>
        <time>2021-10-02T15:44:09Z</time>
      </trkpt>
      <trkpt lat="41.906838" lon="3.077795">
        <ele>227.527</ele>
        <time>2021-10-02T15:44:11Z</time>
      </trkpt>
      <trkpt lat="41.906870" lon="3.077755">
        <ele>227.425</ele>
        <time>2021-10-02T15:44:13Z</time>
      </trkpt>
      <trkpt lat="41.906908" lon="3.077712">
        <ele>227.340</ele>
        <time>2021-10-02T15:44:16Z</time>
      </trkpt>
      <trkpt lat="41.906943" lon="3.077672">
        <ele>227.369</ele>
        <time>2021-10-02T15:44:18Z</time>
      </trkpt>
      <trkpt lat="41.906975" lon="3.077632">
        <ele>227.529</ele>
        <time>2021-10-02T15:44:20Z</time>
      </trkpt>
      <trkpt lat="41.907000" lon="3.077590">
        <ele>228.300</ele>
        <time>2021-10-02T15:44:22Z</time>
      </trkpt>
      <trkpt lat="41.907037" lon="3.077553">
        <ele>228.120</ele>
        <time>2021-10-02T15:44:25Z</time>
      </trkpt>
      <trkpt lat="41.907062" lon="3.077530">
        <ele>228.008</ele>
        <time>2021-10-02T15:44:26Z</time>
      </trkpt>
      <trkpt lat="41.907120" lon="3.077545">
        <ele>228.381</ele>
        <time>2021-10-02T15:44:29Z</time>
      </trkpt>
      <trkpt lat="41.907155" lon="3.077598">
        <ele>228.010</ele>
        <time>2021-10-02T15:44:32Z</time>
      </trkpt>
      <trkpt lat="41.907160" lon="3.077637">
        <ele>227.524</ele>
        <time>2021-10-02T15:44:33Z</time>
      </trkpt>
      <trkpt lat="41.907167" lon="3.077705">
        <ele>226.526</ele>
        <time>2021-10-02T15:44:36Z</time>
      </trkpt>
      <trkpt lat="41.907167" lon="3.077745">
        <ele>225.856</ele>
        <time>2021-10-02T15:44:37Z</time>
      </trkpt>
      <trkpt lat="41.907177" lon="3.077810">
        <ele>225.624</ele>
        <time>2021-10-02T15:44:40Z</time>
      </trkpt>
      <trkpt lat="41.907180" lon="3.077877">
        <ele>225.759</ele>
        <time>2021-10-02T15:44:42Z</time>
      </trkpt>
      <trkpt lat="41.907180" lon="3.077920">
        <ele>225.778</ele>
        <time>2021-10-02T15:44:44Z</time>
      </trkpt>
      <trkpt lat="41.907187" lon="3.077955">
        <ele>225.846</ele>
        <time>2021-10-02T15:44:45Z</time>
      </trkpt>
      <trkpt lat="41.907187" lon="3.077993">
        <ele>225.288</ele>
        <time>2021-10-02T15:44:46Z</time>
      </trkpt>
      <trkpt lat="41.907197" lon="3.078030">
        <ele>224.716</ele>
        <time>2021-10-02T15:44:48Z</time>
      </trkpt>
      <trkpt lat="41.907202" lon="3.078067">
        <ele>224.208</ele>
        <time>2021-10-02T15:44:49Z</time>
      </trkpt>
      <trkpt lat="41.907222" lon="3.078135">
        <ele>223.973</ele>
        <time>2021-10-02T15:44:52Z</time>
      </trkpt>
      <trkpt lat="41.907253" lon="3.078195">
        <ele>223.332</ele>
        <time>2021-10-02T15:44:55Z</time>
      </trkpt>
      <trkpt lat="41.907273" lon="3.078223">
        <ele>223.426</ele>
        <time>2021-10-02T15:44:56Z</time>
      </trkpt>
      <trkpt lat="41.907295" lon="3.078252">
        <ele>223.388</ele>
        <time>2021-10-02T15:44:58Z</time>
      </trkpt>
      <trkpt lat="41.907318" lon="3.078283">
        <ele>223.448</ele>
        <time>2021-10-02T15:44:59Z</time>
      </trkpt>
      <trkpt lat="41.907337" lon="3.078310">
        <ele>223.056</ele>
        <time>2021-10-02T15:45:01Z</time>
      </trkpt>
      <trkpt lat="41.907357" lon="3.078343">
        <ele>222.571</ele>
        <time>2021-10-02T15:45:02Z</time>
      </trkpt>
      <trkpt lat="41.907372" lon="3.078377">
        <ele>222.040</ele>
        <time>2021-10-02T15:45:04Z</time>
      </trkpt>
      <trkpt lat="41.907395" lon="3.078437">
        <ele>221.955</ele>
        <time>2021-10-02T15:45:06Z</time>
      </trkpt>
      <trkpt lat="41.907413" lon="3.078490">
        <ele>221.007</ele>
        <time>2021-10-02T15:45:08Z</time>
      </trkpt>
      <trkpt lat="41.907423" lon="3.078542">
        <ele>221.117</ele>
        <time>2021-10-02T15:45:10Z</time>
      </trkpt>
      <trkpt lat="41.907420" lon="3.078590">
        <ele>221.008</ele>
        <time>2021-10-02T15:45:12Z</time>
      </trkpt>
      <trkpt lat="41.907417" lon="3.078663">
        <ele>221.024</ele>
        <time>2021-10-02T15:45:15Z</time>
      </trkpt>
      <trkpt lat="41.907417" lon="3.078718">
        <ele>221.073</ele>
        <time>2021-10-02T15:45:17Z</time>
      </trkpt>
      <trkpt lat="41.907420" lon="3.078775">
        <ele>221.057</ele>
        <time>2021-10-02T15:45:19Z</time>
      </trkpt>
      <trkpt lat="41.907423" lon="3.078825">
        <ele>220.599</ele>
        <time>2021-10-02T15:45:21Z</time>
      </trkpt>
      <trkpt lat="41.907427" lon="3.078880">
        <ele>219.629</ele>
        <time>2021-10-02T15:45:23Z</time>
      </trkpt>
      <trkpt lat="41.907440" lon="3.078923">
        <ele>218.937</ele>
        <time>2021-10-02T15:45:24Z</time>
      </trkpt>
      <trkpt lat="41.907452" lon="3.078995">
        <ele>218.492</ele>
        <time>2021-10-02T15:45:27Z</time>
      </trkpt>
      <trkpt lat="41.907452" lon="3.079038">
        <ele>217.761</ele>
        <time>2021-10-02T15:45:29Z</time>
      </trkpt>
      <trkpt lat="41.907452" lon="3.079080">
        <ele>217.271</ele>
        <time>2021-10-02T15:45:30Z</time>
      </trkpt>
      <trkpt lat="41.907437" lon="3.079145">
        <ele>215.741</ele>
        <time>2021-10-02T15:45:33Z</time>
      </trkpt>
      <trkpt lat="41.907417" lon="3.079180">
        <ele>214.615</ele>
        <time>2021-10-02T15:45:34Z</time>
      </trkpt>
      <trkpt lat="41.907385" lon="3.079237">
        <ele>213.708</ele>
        <time>2021-10-02T15:45:37Z</time>
      </trkpt>
      <trkpt lat="41.907343" lon="3.079277">
        <ele>212.396</ele>
        <time>2021-10-02T15:45:40Z</time>
      </trkpt>
      <trkpt lat="41.907305" lon="3.079315">
        <ele>211.755</ele>
        <time>2021-10-02T15:45:42Z</time>
      </trkpt>
      <trkpt lat="41.907257" lon="3.079345">
        <ele>210.429</ele>
        <time>2021-10-02T15:45:45Z</time>
      </trkpt>
      <trkpt lat="41.907218" lon="3.079393">
        <ele>209.691</ele>
        <time>2021-10-02T15:45:47Z</time>
      </trkpt>
      <trkpt lat="41.907197" lon="3.079422">
        <ele>208.781</ele>
        <time>2021-10-02T15:45:49Z</time>
      </trkpt>
      <trkpt lat="41.907173" lon="3.079445">
        <ele>208.149</ele>
        <time>2021-10-02T15:45:50Z</time>
      </trkpt>
      <trkpt lat="41.907155" lon="3.079472">
        <ele>207.824</ele>
        <time>2021-10-02T15:45:51Z</time>
      </trkpt>
      <trkpt lat="41.907138" lon="3.079540">
        <ele>206.573</ele>
        <time>2021-10-02T15:45:54Z</time>
      </trkpt>
      <trkpt lat="41.907135" lon="3.079593">
        <ele>205.979</ele>
        <time>2021-10-02T15:45:56Z</time>
      </trkpt>
      <trkpt lat="41.907142" lon="3.079665">
        <ele>205.405</ele>
        <time>2021-10-02T15:45:59Z</time>
      </trkpt>
      <trkpt lat="41.907148" lon="3.079720">
        <ele>204.625</ele>
        <time>2021-10-02T15:46:01Z</time>
      </trkpt>
      <trkpt lat="41.907173" lon="3.079773">
        <ele>203.908</ele>
        <time>2021-10-02T15:46:03Z</time>
      </trkpt>
      <trkpt lat="41.907218" lon="3.079825">
        <ele>203.956</ele>
        <time>2021-10-02T15:46:06Z</time>
      </trkpt>
      <trkpt lat="41.907243" lon="3.079860">
        <ele>203.335</ele>
        <time>2021-10-02T15:46:08Z</time>
      </trkpt>
      <trkpt lat="41.907273" lon="3.079898">
        <ele>202.739</ele>
        <time>2021-10-02T15:46:10Z</time>
      </trkpt>
      <trkpt lat="41.907319" lon="3.079976">
        <ele>201.471</ele>
        <time>2021-10-02T15:46:14Z</time>
      </trkpt>
      <trkpt lat="41.907230" lon="3.080071">
        <ele>198.851</ele>
        <time>2021-10-02T15:46:20Z</time>
      </trkpt>
      <trkpt lat="41.907135" lon="3.080124">
        <ele>198.929</ele>
        <time>2021-10-02T15:46:25Z</time>
      </trkpt>
      <trkpt lat="41.906817" lon="3.080128">
        <ele>195.634</ele>
        <time>2021-10-02T15:46:40Z</time>
      </trkpt>
      <trkpt lat="41.906633" lon="3.080199">
        <ele>196.373</ele>
        <time>2021-10-02T15:46:50Z</time>
      </trkpt>
      <trkpt lat="41.906294" lon="3.079973">
        <ele>194.549</ele>
        <time>2021-10-02T15:47:08Z</time>
      </trkpt>
      <trkpt lat="41.906237" lon="3.080016">
        <ele>194.202</ele>
        <time>2021-10-02T15:47:12Z</time>
      </trkpt>
      <trkpt lat="41.906206" lon="3.080137">
        <ele>194.622</ele>
        <time>2021-10-02T15:47:16Z</time>
      </trkpt>
      <trkpt lat="41.906227" lon="3.080376">
        <ele>192.808</ele>
        <time>2021-10-02T15:47:25Z</time>
      </trkpt>
      <trkpt lat="41.906159" lon="3.080616">
        <ele>193.723</ele>
        <time>2021-10-02T15:47:34Z</time>
      </trkpt>
      <trkpt lat="41.906045" lon="3.080771">
        <ele>194.862</ele>
        <time>2021-10-02T15:47:42Z</time>
      </trkpt>
      <trkpt lat="41.905881" lon="3.080868">
        <ele>194.636</ele>
        <time>2021-10-02T15:47:51Z</time>
      </trkpt>
      <trkpt lat="41.905751" lon="3.080891">
        <ele>194.438</ele>
        <time>2021-10-02T15:47:57Z</time>
      </trkpt>
      <trkpt lat="41.905599" lon="3.080876">
        <ele>195.488</ele>
        <time>2021-10-02T15:47:59Z</time>
      </trkpt>
      <trkpt lat="41.905151" lon="3.080885">
        <ele>198.496</ele>
        <time>2021-10-02T15:48:10Z</time>
      </trkpt>
      <trkpt lat="41.904984" lon="3.080910">
        <ele>198.911</ele>
        <time>2021-10-02T15:48:15Z</time>
      </trkpt>
      <trkpt lat="41.904882" lon="3.080907">
        <ele>200.870</ele>
        <time>2021-10-02T15:48:17Z</time>
      </trkpt>
      <trkpt lat="41.904748" lon="3.080867">
        <ele>202.783</ele>
        <time>2021-10-02T15:48:21Z</time>
      </trkpt>
      <trkpt lat="41.904607" lon="3.080904">
        <ele>202.925</ele>
        <time>2021-10-02T15:48:24Z</time>
      </trkpt>
      <trkpt lat="41.904488" lon="3.080885">
        <ele>204.517</ele>
        <time>2021-10-02T15:48:28Z</time>
      </trkpt>
      <trkpt lat="41.904233" lon="3.081025">
        <ele>203.608</ele>
        <time>2021-10-02T15:48:35Z</time>
      </trkpt>
      <trkpt lat="41.903947" lon="3.081039">
        <ele>204.477</ele>
        <time>2021-10-02T15:48:42Z</time>
      </trkpt>
      <trkpt lat="41.903833" lon="3.081024">
        <ele>203.996</ele>
        <time>2021-10-02T15:48:45Z</time>
      </trkpt>
      <trkpt lat="41.903686" lon="3.081003">
        <ele>204.350</ele>
        <time>2021-10-02T15:48:49Z</time>
      </trkpt>
      <trkpt lat="41.903528" lon="3.081013">
        <ele>203.142</ele>
        <time>2021-10-02T15:48:53Z</time>
      </trkpt>
      <trkpt lat="41.903243" lon="3.080887">
        <ele>204.212</ele>
        <time>2021-10-02T15:49:00Z</time>
      </trkpt>
      <trkpt lat="41.903169" lon="3.080798">
        <ele>204.710</ele>
        <time>2021-10-02T15:49:03Z</time>
      </trkpt>
      <trkpt lat="41.903030" lon="3.080831">
        <ele>204.575</ele>
        <time>2021-10-02T15:49:06Z</time>
      </trkpt>
      <trkpt lat="41.902913" lon="3.080835">
        <ele>205.194</ele>
        <time>2021-10-02T15:49:09Z</time>
      </trkpt>
      <trkpt lat="41.902836" lon="3.080804">
        <ele>204.699</ele>
        <time>2021-10-02T15:49:11Z</time>
      </trkpt>
      <trkpt lat="41.902653" lon="3.080677">
        <ele>203.907</ele>
        <time>2021-10-02T15:49:17Z</time>
      </trkpt>
      <trkpt lat="41.902541" lon="3.080554">
        <ele>203.027</ele>
        <time>2021-10-02T15:49:20Z</time>
      </trkpt>
      <trkpt lat="41.902450" lon="3.080742">
        <ele>202.108</ele>
        <time>2021-10-02T15:49:25Z</time>
      </trkpt>
      <trkpt lat="41.902652" lon="3.080945">
        <ele>203.038</ele>
        <time>2021-10-02T15:49:31Z</time>
      </trkpt>
      <trkpt lat="41.902704" lon="3.081033">
        <ele>203.777</ele>
        <time>2021-10-02T15:49:33Z</time>
      </trkpt>
      <trkpt lat="41.902786" lon="3.081175">
        <ele>206.021</ele>
        <time>2021-10-02T15:49:37Z</time>
      </trkpt>
      <trkpt lat="41.902855" lon="3.081317">
        <ele>208.233</ele>
        <time>2021-10-02T15:49:40Z</time>
      </trkpt>
      <trkpt lat="41.902915" lon="3.081421">
        <ele>209.683</ele>
        <time>2021-10-02T15:49:42Z</time>
      </trkpt>
      <trkpt lat="41.902982" lon="3.081535">
        <ele>211.391</ele>
        <time>2021-10-02T15:49:45Z</time>
      </trkpt>
      <trkpt lat="41.903099" lon="3.081713">
        <ele>212.546</ele>
        <time>2021-10-02T15:49:50Z</time>
      </trkpt>
      <trkpt lat="41.903369" lon="3.082110">
        <ele>216.145</ele>
        <time>2021-10-02T15:50:00Z</time>
      </trkpt>
      <trkpt lat="41.903471" lon="3.082267">
        <ele>217.442</ele>
        <time>2021-10-02T15:50:04Z</time>
      </trkpt>
      <trkpt lat="41.903485" lon="3.082318">
        <ele>217.722</ele>
        <time>2021-10-02T15:50:05Z</time>
      </trkpt>
      <trkpt lat="41.903507" lon="3.082449">
        <ele>217.814</ele>
        <time>2021-10-02T15:50:08Z</time>
      </trkpt>
      <trkpt lat="41.903444" lon="3.082646">
        <ele>219.408</ele>
        <time>2021-10-02T15:50:12Z</time>
      </trkpt>
      <trkpt lat="41.903402" lon="3.082795">
        <ele>221.763</ele>
        <time>2021-10-02T15:50:15Z</time>
      </trkpt>
      <trkpt lat="41.903404" lon="3.082952">
        <ele>223.142</ele>
        <time>2021-10-02T15:50:18Z</time>
      </trkpt>
      <trkpt lat="41.903443" lon="3.083107">
        <ele>223.156</ele>
        <time>2021-10-02T15:50:21Z</time>
      </trkpt>
      <trkpt lat="41.903523" lon="3.083165">
        <ele>223.388</ele>
        <time>2021-10-02T15:50:23Z</time>
      </trkpt>
      <trkpt lat="41.903609" lon="3.083174">
        <ele>223.738</ele>
        <time>2021-10-02T15:50:25Z</time>
      </trkpt>
      <trkpt lat="41.903672" lon="3.083167">
        <ele>224.216</ele>
        <time>2021-10-02T15:50:27Z</time>
      </trkpt>
      <trkpt lat="41.903792" lon="3.083110">
        <ele>224.031</ele>
        <time>2021-10-02T15:50:30Z</time>
      </trkpt>
      <trkpt lat="41.903933" lon="3.083048">
        <ele>224.040</ele>
        <time>2021-10-02T15:50:34Z</time>
      </trkpt>
      <trkpt lat="41.903983" lon="3.083024">
        <ele>224.353</ele>
        <time>2021-10-02T15:50:36Z</time>
      </trkpt>
      <trkpt lat="41.904177" lon="3.083008">
        <ele>228.004</ele>
        <time>2021-10-02T15:50:41Z</time>
      </trkpt>
      <trkpt lat="41.904292" lon="3.083022">
        <ele>229.414</ele>
        <time>2021-10-02T15:50:43Z</time>
      </trkpt>
      <trkpt lat="41.904417" lon="3.083032">
        <ele>230.408</ele>
        <time>2021-10-02T15:50:47Z</time>
      </trkpt>
      <trkpt lat="41.904606" lon="3.083035">
        <ele>231.234</ele>
        <time>2021-10-02T15:50:51Z</time>
      </trkpt>
      <trkpt lat="41.904845" lon="3.083038">
        <ele>233.413</ele>
        <time>2021-10-02T15:50:58Z</time>
      </trkpt>
      <trkpt lat="41.905002" lon="3.083059">
        <ele>235.717</ele>
        <time>2021-10-02T15:51:02Z</time>
      </trkpt>
      <trkpt lat="41.905056" lon="3.083074">
        <ele>236.149</ele>
        <time>2021-10-02T15:51:03Z</time>
      </trkpt>
      <trkpt lat="41.905101" lon="3.083153">
        <ele>237.739</ele>
        <time>2021-10-02T15:51:05Z</time>
      </trkpt>
      <trkpt lat="41.905117" lon="3.083047">
        <ele>235.677</ele>
        <time>2021-10-02T15:51:07Z</time>
      </trkpt>
      <trkpt lat="41.905129" lon="3.082872">
        <ele>231.482</ele>
        <time>2021-10-02T15:51:11Z</time>
      </trkpt>
      <trkpt lat="41.905277" lon="3.082696">
        <ele>226.131</ele>
        <time>2021-10-02T15:51:16Z</time>
      </trkpt>
      <trkpt lat="41.905370" lon="3.082698">
        <ele>225.131</ele>
        <time>2021-10-02T15:51:18Z</time>
      </trkpt>
      <trkpt lat="41.905466" lon="3.082695">
        <ele>223.061</ele>
        <time>2021-10-02T15:51:20Z</time>
      </trkpt>
      <trkpt lat="41.905519" lon="3.082797">
        <ele>223.507</ele>
        <time>2021-10-02T15:51:23Z</time>
      </trkpt>
      <trkpt lat="41.905571" lon="3.082886">
        <ele>222.908</ele>
        <time>2021-10-02T15:51:25Z</time>
      </trkpt>
      <trkpt lat="41.905578" lon="3.083039">
        <ele>224.132</ele>
        <time>2021-10-02T15:51:28Z</time>
      </trkpt>
      <trkpt lat="41.905594" lon="3.083196">
        <ele>225.921</ele>
        <time>2021-10-02T15:51:31Z</time>
      </trkpt>
      <trkpt lat="41.905549" lon="3.083462">
        <ele>229.855</ele>
        <time>2021-10-02T15:51:36Z</time>
      </trkpt>
      <trkpt lat="41.905506" lon="3.083690">
        <ele>232.237</ele>
        <time>2021-10-02T15:51:41Z</time>
      </trkpt>
      <trkpt lat="41.905481" lon="3.083917">
        <ele>232.947</ele>
        <time>2021-10-02T15:51:45Z</time>
      </trkpt>
      <trkpt lat="41.905479" lon="3.084149">
        <ele>231.915</ele>
        <time>2021-10-02T15:51:50Z</time>
      </trkpt>
      <trkpt lat="41.905473" lon="3.084209">
        <ele>232.160</ele>
        <time>2021-10-02T15:51:51Z</time>
      </trkpt>
      <trkpt lat="41.905407" lon="3.084367">
        <ele>233.359</ele>
        <time>2021-10-02T15:51:55Z</time>
      </trkpt>
      <trkpt lat="41.905364" lon="3.084473">
        <ele>234.895</ele>
        <time>2021-10-02T15:51:57Z</time>
      </trkpt>
      <trkpt lat="41.905265" lon="3.084632">
        <ele>237.549</ele>
        <time>2021-10-02T15:52:01Z</time>
      </trkpt>
      <trkpt lat="41.905159" lon="3.084780">
        <ele>239.823</ele>
        <time>2021-10-02T15:52:05Z</time>
      </trkpt>
      <trkpt lat="41.905098" lon="3.084895">
        <ele>240.208</ele>
        <time>2021-10-02T15:52:07Z</time>
      </trkpt>
      <trkpt lat="41.905034" lon="3.084976">
        <ele>241.188</ele>
        <time>2021-10-02T15:52:10Z</time>
      </trkpt>
      <trkpt lat="41.904939" lon="3.085183">
        <ele>239.927</ele>
        <time>2021-10-02T15:52:14Z</time>
      </trkpt>
      <trkpt lat="41.904865" lon="3.085316">
        <ele>241.091</ele>
        <time>2021-10-02T15:52:17Z</time>
      </trkpt>
      <trkpt lat="41.904700" lon="3.085522">
        <ele>243.833</ele>
        <time>2021-10-02T15:52:23Z</time>
      </trkpt>
      <trkpt lat="41.904530" lon="3.085733">
        <ele>244.923</ele>
        <time>2021-10-02T15:52:29Z</time>
      </trkpt>
      <trkpt lat="41.904441" lon="3.085863">
        <ele>244.721</ele>
        <time>2021-10-02T15:52:33Z</time>
      </trkpt>
      <trkpt lat="41.904327" lon="3.086009">
        <ele>244.846</ele>
        <time>2021-10-02T15:52:37Z</time>
      </trkpt>
      <trkpt lat="41.904185" lon="3.086197">
        <ele>242.235</ele>
        <time>2021-10-02T15:52:42Z</time>
      </trkpt>
      <trkpt lat="41.904117" lon="3.086373">
        <ele>239.212</ele>
        <time>2021-10-02T15:52:45Z</time>
      </trkpt>
      <trkpt lat="41.904075" lon="3.086477">
        <ele>238.532</ele>
        <time>2021-10-02T15:52:48Z</time>
      </trkpt>
      <trkpt lat="41.904063" lon="3.086596">
        <ele>238.205</ele>
        <time>2021-10-02T15:52:50Z</time>
      </trkpt>
      <trkpt lat="41.904091" lon="3.086745">
        <ele>236.708</ele>
        <time>2021-10-02T15:52:53Z</time>
      </trkpt>
      <trkpt lat="41.904214" lon="3.086808">
        <ele>237.070</ele>
        <time>2021-10-02T15:52:56Z</time>
      </trkpt>
      <trkpt lat="41.904360" lon="3.086814">
        <ele>238.179</ele>
        <time>2021-10-02T15:53:00Z</time>
      </trkpt>
      <trkpt lat="41.904516" lon="3.086858">
        <ele>239.443</ele>
        <time>2021-10-02T15:53:04Z</time>
      </trkpt>
      <trkpt lat="41.904692" lon="3.086840">
        <ele>239.225</ele>
        <time>2021-10-02T15:53:09Z</time>
      </trkpt>
      <trkpt lat="41.904762" lon="3.086860">
        <ele>238.825</ele>
        <time>2021-10-02T15:53:10Z</time>
      </trkpt>
      <trkpt lat="41.904860" lon="3.086871">
        <ele>237.423</ele>
        <time>2021-10-02T15:53:13Z</time>
      </trkpt>
      <trkpt lat="41.904918" lon="3.086919">
        <ele>236.578</ele>
        <time>2021-10-02T15:53:15Z</time>
      </trkpt>
      <trkpt lat="41.905015" lon="3.087060">
        <ele>236.537</ele>
        <time>2021-10-02T15:53:18Z</time>
      </trkpt>
      <trkpt lat="41.905133" lon="3.087198">
        <ele>235.433</ele>
        <time>2021-10-02T15:53:22Z</time>
      </trkpt>
      <trkpt lat="41.905171" lon="3.087187">
        <ele>235.523</ele>
        <time>2021-10-02T15:53:23Z</time>
      </trkpt>
      <trkpt lat="41.905197" lon="3.087079">
        <ele>236.615</ele>
        <time>2021-10-02T15:53:26Z</time>
      </trkpt>
      <trkpt lat="41.905199" lon="3.086980">
        <ele>236.708</ele>
        <time>2021-10-02T15:53:27Z</time>
      </trkpt>
      <trkpt lat="41.905198" lon="3.086785">
        <ele>237.722</ele>
        <time>2021-10-02T15:53:31Z</time>
      </trkpt>
      <trkpt lat="41.905227" lon="3.086641">
        <ele>237.771</ele>
        <time>2021-10-02T15:53:34Z</time>
      </trkpt>
      <trkpt lat="41.905306" lon="3.086569">
        <ele>238.265</ele>
        <time>2021-10-02T15:53:36Z</time>
      </trkpt>
      <trkpt lat="41.905480" lon="3.086499">
        <ele>240.967</ele>
        <time>2021-10-02T15:53:41Z</time>
      </trkpt>
      <trkpt lat="41.905636" lon="3.086485">
        <ele>243.957</ele>
        <time>2021-10-02T15:53:45Z</time>
      </trkpt>
      <trkpt lat="41.905743" lon="3.086471">
        <ele>245.335</ele>
        <time>2021-10-02T15:53:48Z</time>
      </trkpt>
      <trkpt lat="41.905823" lon="3.086542">
        <ele>247.740</ele>
        <time>2021-10-02T15:53:50Z</time>
      </trkpt>
      <trkpt lat="41.905810" lon="3.086689">
        <ele>248.019</ele>
        <time>2021-10-02T15:53:53Z</time>
      </trkpt>
      <trkpt lat="41.905781" lon="3.086805">
        <ele>248.069</ele>
        <time>2021-10-02T15:53:55Z</time>
      </trkpt>
      <trkpt lat="41.905755" lon="3.086881">
        <ele>248.004</ele>
        <time>2021-10-02T15:53:57Z</time>
      </trkpt>
      <trkpt lat="41.905723" lon="3.086991">
        <ele>247.024</ele>
        <time>2021-10-02T15:53:59Z</time>
      </trkpt>
      <trkpt lat="41.905743" lon="3.087070">
        <ele>247.008</ele>
        <time>2021-10-02T15:54:01Z</time>
      </trkpt>
      <trkpt lat="41.905798" lon="3.087181">
        <ele>247.275</ele>
        <time>2021-10-02T15:54:03Z</time>
      </trkpt>
      <trkpt lat="41.905860" lon="3.087231">
        <ele>248.094</ele>
        <time>2021-10-02T15:54:05Z</time>
      </trkpt>
      <trkpt lat="41.905866" lon="3.087593">
        <ele>246.318</ele>
        <time>2021-10-02T15:54:12Z</time>
      </trkpt>
      <trkpt lat="41.905869" lon="3.087967">
        <ele>247.020</ele>
        <time>2021-10-02T15:54:19Z</time>
      </trkpt>
      <trkpt lat="41.905869" lon="3.088368">
        <ele>247.020</ele>
        <time>2021-10-02T15:54:27Z</time>
      </trkpt>
      <trkpt lat="41.905913" lon="3.088578">
        <ele>246.078</ele>
        <time>2021-10-02T15:54:31Z</time>
      </trkpt>
      <trkpt lat="41.905884" lon="3.088859">
        <ele>246.053</ele>
        <time>2021-10-02T15:54:36Z</time>
      </trkpt>
      <trkpt lat="41.905818" lon="3.089015">
        <ele>247.062</ele>
        <time>2021-10-02T15:54:40Z</time>
      </trkpt>
      <trkpt lat="41.905722" lon="3.089238">
        <ele>249.354</ele>
        <time>2021-10-02T15:54:45Z</time>
      </trkpt>
      <trkpt lat="41.905660" lon="3.089406">
        <ele>250.956</ele>
        <time>2021-10-02T15:54:48Z</time>
      </trkpt>
      <trkpt lat="41.905670" lon="3.089492">
        <ele>250.811</ele>
        <time>2021-10-02T15:54:50Z</time>
      </trkpt>
      <trkpt lat="41.905627" lon="3.089722">
        <ele>251.008</ele>
        <time>2021-10-02T15:54:54Z</time>
      </trkpt>
      <trkpt lat="41.905649" lon="3.089809">
        <ele>250.384</ele>
        <time>2021-10-02T15:54:56Z</time>
      </trkpt>
      <trkpt lat="41.905683" lon="3.089860">
        <ele>250.063</ele>
        <time>2021-10-02T15:54:57Z</time>
      </trkpt>
      <trkpt lat="41.905824" lon="3.089921">
        <ele>249.047</ele>
        <time>2021-10-02T15:55:01Z</time>
      </trkpt>
      <trkpt lat="41.905916" lon="3.089980">
        <ele>248.039</ele>
        <time>2021-10-02T15:55:04Z</time>
      </trkpt>
      <trkpt lat="41.905996" lon="3.090066">
        <ele>248.489</ele>
        <time>2021-10-02T15:55:06Z</time>
      </trkpt>
      <trkpt lat="41.906050" lon="3.090155">
        <ele>248.627</ele>
        <time>2021-10-02T15:55:09Z</time>
      </trkpt>
      <trkpt lat="41.906083" lon="3.090255">
        <ele>248.542</ele>
        <time>2021-10-02T15:55:11Z</time>
      </trkpt>
      <trkpt lat="41.906096" lon="3.090373">
        <ele>249.241</ele>
        <time>2021-10-02T15:55:13Z</time>
      </trkpt>
      <trkpt lat="41.906126" lon="3.090461">
        <ele>249.889</ele>
        <time>2021-10-02T15:55:15Z</time>
      </trkpt>
      <trkpt lat="41.906151" lon="3.090517">
        <ele>250.006</ele>
        <time>2021-10-02T15:55:16Z</time>
      </trkpt>
      <trkpt lat="41.906201" lon="3.090596">
        <ele>250.626</ele>
        <time>2021-10-02T15:55:18Z</time>
      </trkpt>
      <trkpt lat="41.906245" lon="3.090642">
        <ele>250.408</ele>
        <time>2021-10-02T15:55:19Z</time>
      </trkpt>
      <trkpt lat="41.906292" lon="3.090756">
        <ele>250.967</ele>
        <time>2021-10-02T15:55:22Z</time>
      </trkpt>
      <trkpt lat="41.906289" lon="3.090872">
        <ele>251.086</ele>
        <time>2021-10-02T15:55:24Z</time>
      </trkpt>
      <trkpt lat="41.906233" lon="3.090924">
        <ele>252.060</ele>
        <time>2021-10-02T15:55:26Z</time>
      </trkpt>
      <trkpt lat="41.906278" lon="3.091034">
        <ele>252.092</ele>
        <time>2021-10-02T15:55:28Z</time>
      </trkpt>
      <trkpt lat="41.906318" lon="3.091111">
        <ele>251.142</ele>
        <time>2021-10-02T15:55:30Z</time>
      </trkpt>
      <trkpt lat="41.906350" lon="3.091279">
        <ele>251.020</ele>
        <time>2021-10-02T15:55:33Z</time>
      </trkpt>
      <trkpt lat="41.906367" lon="3.091406">
        <ele>251.075</ele>
        <time>2021-10-02T15:55:36Z</time>
      </trkpt>
      <trkpt lat="41.906414" lon="3.091484">
        <ele>250.544</ele>
        <time>2021-10-02T15:55:38Z</time>
      </trkpt>
      <trkpt lat="41.906488" lon="3.091554">
        <ele>250.013</ele>
        <time>2021-10-02T15:55:40Z</time>
      </trkpt>
      <trkpt lat="41.906572" lon="3.091599">
        <ele>248.843</ele>
        <time>2021-10-02T15:55:42Z</time>
      </trkpt>
      <trkpt lat="41.906664" lon="3.091636">
        <ele>248.007</ele>
        <time>2021-10-02T15:55:45Z</time>
      </trkpt>
      <trkpt lat="41.906741" lon="3.091685">
        <ele>247.008</ele>
        <time>2021-10-02T15:55:47Z</time>
      </trkpt>
      <trkpt lat="41.906802" lon="3.091749">
        <ele>245.550</ele>
        <time>2021-10-02T15:55:49Z</time>
      </trkpt>
      <trkpt lat="41.906862" lon="3.091827">
        <ele>243.829</ele>
        <time>2021-10-02T15:55:51Z</time>
      </trkpt>
      <trkpt lat="41.906904" lon="3.091871">
        <ele>243.133</ele>
        <time>2021-10-02T15:55:52Z</time>
      </trkpt>
      <trkpt lat="41.906970" lon="3.091932">
        <ele>242.075</ele>
        <time>2021-10-02T15:55:54Z</time>
      </trkpt>
      <trkpt lat="41.907021" lon="3.091967">
        <ele>241.345</ele>
        <time>2021-10-02T15:55:56Z</time>
      </trkpt>
      <trkpt lat="41.907083" lon="3.091993">
        <ele>240.393</ele>
        <time>2021-10-02T15:55:58Z</time>
      </trkpt>
      <trkpt lat="41.907168" lon="3.092002">
        <ele>239.358</ele>
        <time>2021-10-02T15:56:00Z</time>
      </trkpt>
      <trkpt lat="41.907246" lon="3.092007">
        <ele>237.997</ele>
        <time>2021-10-02T15:56:02Z</time>
      </trkpt>
      <trkpt lat="41.907273" lon="3.092027">
        <ele>237.522</ele>
        <time>2021-10-02T15:56:03Z</time>
      </trkpt>
      <trkpt lat="41.907355" lon="3.092115">
        <ele>235.262</ele>
        <time>2021-10-02T15:56:05Z</time>
      </trkpt>
      <trkpt lat="41.907440" lon="3.092207">
        <ele>234.008</ele>
        <time>2021-10-02T15:56:08Z</time>
      </trkpt>
      <trkpt lat="41.907503" lon="3.092274">
        <ele>232.908</ele>
        <time>2021-10-02T15:56:10Z</time>
      </trkpt>
      <trkpt lat="41.907521" lon="3.092285">
        <ele>232.671</ele>
        <time>2021-10-02T15:56:11Z</time>
      </trkpt>
      <trkpt lat="41.907638" lon="3.092341">
        <ele>230.940</ele>
        <time>2021-10-02T15:56:14Z</time>
      </trkpt>
      <trkpt lat="41.907737" lon="3.092399">
        <ele>229.234</ele>
        <time>2021-10-02T15:56:17Z</time>
      </trkpt>
      <trkpt lat="41.907792" lon="3.092430">
        <ele>228.496</ele>
        <time>2021-10-02T15:56:18Z</time>
      </trkpt>
      <trkpt lat="41.907900" lon="3.092539">
        <ele>226.136</ele>
        <time>2021-10-02T15:56:22Z</time>
      </trkpt>
      <trkpt lat="41.907990" lon="3.092627">
        <ele>223.624</ele>
        <time>2021-10-02T15:56:24Z</time>
      </trkpt>
      <trkpt lat="41.908128" lon="3.092733">
        <ele>221.019</ele>
        <time>2021-10-02T15:56:29Z</time>
      </trkpt>
      <trkpt lat="41.908240" lon="3.092822">
        <ele>219.298</ele>
        <time>2021-10-02T15:56:32Z</time>
      </trkpt>
      <trkpt lat="41.908295" lon="3.092872">
        <ele>218.694</ele>
        <time>2021-10-02T15:56:34Z</time>
      </trkpt>
      <trkpt lat="41.908394" lon="3.092938">
        <ele>216.557</ele>
        <time>2021-10-02T15:56:36Z</time>
      </trkpt>
      <trkpt lat="41.908471" lon="3.092985">
        <ele>215.022</ele>
        <time>2021-10-02T15:56:39Z</time>
      </trkpt>
      <trkpt lat="41.908528" lon="3.093023">
        <ele>213.108</ele>
        <time>2021-10-02T15:56:40Z</time>
      </trkpt>
      <trkpt lat="41.908567" lon="3.093088">
        <ele>211.268</ele>
        <time>2021-10-02T15:56:42Z</time>
      </trkpt>
      <trkpt lat="41.908578" lon="3.093193">
        <ele>209.267</ele>
        <time>2021-10-02T15:56:44Z</time>
      </trkpt>
      <trkpt lat="41.908573" lon="3.093220">
        <ele>208.891</ele>
        <time>2021-10-02T15:56:44Z</time>
      </trkpt>
      <trkpt lat="41.908568" lon="3.093248">
        <ele>208.533</ele>
        <time>2021-10-02T15:56:45Z</time>
      </trkpt>
      <trkpt lat="41.908544" lon="3.093307">
        <ele>208.213</ele>
        <time>2021-10-02T15:56:46Z</time>
      </trkpt>
      <trkpt lat="41.908539" lon="3.093392">
        <ele>207.011</ele>
        <time>2021-10-02T15:56:47Z</time>
      </trkpt>
      <trkpt lat="41.908509" lon="3.093577">
        <ele>205.936</ele>
        <time>2021-10-02T15:56:55Z</time>
      </trkpt>
      <trkpt lat="41.908479" lon="3.093717">
        <ele>204.685</ele>
        <time>2021-10-02T15:57:00Z</time>
      </trkpt>
      <trkpt lat="41.908485" lon="3.093840">
        <ele>204.068</ele>
        <time>2021-10-02T15:57:03Z</time>
      </trkpt>
      <trkpt lat="41.908548" lon="3.093922">
        <ele>204.042</ele>
        <time>2021-10-02T15:57:07Z</time>
      </trkpt>
      <trkpt lat="41.908685" lon="3.093985">
        <ele>203.926</ele>
        <time>2021-10-02T15:57:13Z</time>
      </trkpt>
      <trkpt lat="41.909082" lon="3.093765">
        <ele>199.008</ele>
        <time>2021-10-02T15:57:30Z</time>
      </trkpt>
      <trkpt lat="41.909336" lon="3.093801">
        <ele>197.095</ele>
        <time>2021-10-02T15:57:40Z</time>
      </trkpt>
      <trkpt lat="41.909432" lon="3.093881">
        <ele>196.044</ele>
        <time>2021-10-02T15:57:45Z</time>
      </trkpt>
      <trkpt lat="41.909470" lon="3.093977">
        <ele>195.828</ele>
        <time>2021-10-02T15:57:48Z</time>
      </trkpt>
      <trkpt lat="41.909496" lon="3.094247">
        <ele>195.730</ele>
        <time>2021-10-02T15:57:56Z</time>
      </trkpt>
      <trkpt lat="41.909497" lon="3.094367">
        <ele>195.760</ele>
        <time>2021-10-02T15:57:59Z</time>
      </trkpt>
      <trkpt lat="41.909355" lon="3.094576">
        <ele>196.788</ele>
        <time>2021-10-02T15:58:08Z</time>
      </trkpt>
      <trkpt lat="41.909220" lon="3.094875">
        <ele>199.983</ele>
        <time>2021-10-02T15:58:18Z</time>
      </trkpt>
      <trkpt lat="41.909095" lon="3.095083">
        <ele>202.542</ele>
        <time>2021-10-02T15:58:26Z</time>
      </trkpt>
      <trkpt lat="41.908973" lon="3.095249">
        <ele>204.339</ele>
        <time>2021-10-02T15:58:33Z</time>
      </trkpt>
      <trkpt lat="41.908933" lon="3.095310">
        <ele>204.101</ele>
        <time>2021-10-02T15:58:36Z</time>
      </trkpt>
      <trkpt lat="41.908866" lon="3.095441">
        <ele>203.121</ele>
        <time>2021-10-02T15:58:40Z</time>
      </trkpt>
      <trkpt lat="41.908716" lon="3.095570">
        <ele>203.908</ele>
        <time>2021-10-02T15:58:47Z</time>
      </trkpt>
      <trkpt lat="41.908604" lon="3.095822">
        <ele>204.372</ele>
        <time>2021-10-02T15:58:56Z</time>
      </trkpt>
      <trkpt lat="41.908514" lon="3.096000">
        <ele>205.231</ele>
        <time>2021-10-02T15:59:05Z</time>
      </trkpt>
      <trkpt lat="41.908501" lon="3.096138">
        <ele>207.095</ele>
        <time>2021-10-02T15:59:09Z</time>
      </trkpt>
      <trkpt lat="41.908480" lon="3.096215">
        <ele>207.847</ele>
        <time>2021-10-02T15:59:11Z</time>
      </trkpt>
      <trkpt lat="41.908432" lon="3.096430">
        <ele>208.857</ele>
        <time>2021-10-02T15:59:18Z</time>
      </trkpt>
      <trkpt lat="41.908410" lon="3.096626">
        <ele>208.825</ele>
        <time>2021-10-02T15:59:24Z</time>
      </trkpt>
      <trkpt lat="41.908433" lon="3.096694">
        <ele>209.020</ele>
        <time>2021-10-02T15:59:26Z</time>
      </trkpt>
      <trkpt lat="41.908511" lon="3.096740">
        <ele>210.619</ele>
        <time>2021-10-02T15:59:29Z</time>
      </trkpt>
      <trkpt lat="41.908757" lon="3.096786">
        <ele>213.617</ele>
        <time>2021-10-02T15:59:39Z</time>
      </trkpt>
      <trkpt lat="41.909002" lon="3.096862">
        <ele>216.287</ele>
        <time>2021-10-02T15:59:49Z</time>
      </trkpt>
      <trkpt lat="41.909121" lon="3.097001">
        <ele>216.515</ele>
        <time>2021-10-02T15:59:56Z</time>
      </trkpt>
      <trkpt lat="41.909145" lon="3.097141">
        <ele>215.708</ele>
        <time>2021-10-02T16:00:00Z</time>
      </trkpt>
      <trkpt lat="41.909065" lon="3.097349">
        <ele>216.010</ele>
        <time>2021-10-02T16:00:07Z</time>
      </trkpt>
      <trkpt lat="41.909004" lon="3.097460">
        <ele>216.029</ele>
        <time>2021-10-02T16:00:11Z</time>
      </trkpt>
      <trkpt lat="41.908976" lon="3.097561">
        <ele>216.273</ele>
        <time>2021-10-02T16:00:14Z</time>
      </trkpt>
      <trkpt lat="41.909139" lon="3.097646">
        <ele>220.295</ele>
        <time>2021-10-02T16:00:21Z</time>
      </trkpt>
      <trkpt lat="41.909220" lon="3.097716">
        <ele>223.245</ele>
        <time>2021-10-02T16:00:25Z</time>
      </trkpt>
      <trkpt lat="41.909308" lon="3.097748">
        <ele>225.193</ele>
        <time>2021-10-02T16:00:29Z</time>
      </trkpt>
      <trkpt lat="41.909458" lon="3.097830">
        <ele>227.668</ele>
        <time>2021-10-02T16:00:35Z</time>
      </trkpt>
      <trkpt lat="41.909581" lon="3.097825">
        <ele>229.847</ele>
        <time>2021-10-02T16:00:40Z</time>
      </trkpt>
      <trkpt lat="41.909686" lon="3.097865">
        <ele>231.717</ele>
        <time>2021-10-02T16:00:45Z</time>
      </trkpt>
      <trkpt lat="41.909821" lon="3.097928">
        <ele>233.787</ele>
        <time>2021-10-02T16:00:50Z</time>
      </trkpt>
      <trkpt lat="41.909937" lon="3.098058">
        <ele>235.615</ele>
        <time>2021-10-02T16:00:56Z</time>
      </trkpt>
      <trkpt lat="41.909984" lon="3.098185">
        <ele>237.008</ele>
        <time>2021-10-02T16:01:01Z</time>
      </trkpt>
      <trkpt lat="41.909971" lon="3.098398">
        <ele>238.070</ele>
        <time>2021-10-02T16:01:07Z</time>
      </trkpt>
      <trkpt lat="41.909941" lon="3.098499">
        <ele>238.059</ele>
        <time>2021-10-02T16:01:10Z</time>
      </trkpt>
      <trkpt lat="41.909891" lon="3.098588">
        <ele>238.033</ele>
        <time>2021-10-02T16:01:14Z</time>
      </trkpt>
      <trkpt lat="41.909836" lon="3.098719">
        <ele>238.075</ele>
        <time>2021-10-02T16:01:18Z</time>
      </trkpt>
      <trkpt lat="41.909784" lon="3.098828">
        <ele>238.045</ele>
        <time>2021-10-02T16:01:22Z</time>
      </trkpt>
      <trkpt lat="41.909769" lon="3.098938">
        <ele>238.053</ele>
        <time>2021-10-02T16:01:25Z</time>
      </trkpt>
      <trkpt lat="41.909820" lon="3.098970">
        <ele>238.068</ele>
        <time>2021-10-02T16:01:28Z</time>
      </trkpt>
      <trkpt lat="41.909899" lon="3.098991">
        <ele>239.017</ele>
        <time>2021-10-02T16:01:31Z</time>
      </trkpt>
      <trkpt lat="41.909992" lon="3.099019">
        <ele>240.095</ele>
        <time>2021-10-02T16:01:35Z</time>
      </trkpt>
      <trkpt lat="41.910076" lon="3.099035">
        <ele>241.049</ele>
        <time>2021-10-02T16:01:38Z</time>
      </trkpt>
      <trkpt lat="41.910245" lon="3.099114">
        <ele>242.123</ele>
        <time>2021-10-02T16:01:45Z</time>
      </trkpt>
      <trkpt lat="41.910349" lon="3.099143">
        <ele>243.008</ele>
        <time>2021-10-02T16:01:49Z</time>
      </trkpt>
      <trkpt lat="41.910343" lon="3.099295">
        <ele>243.378</ele>
        <time>2021-10-02T16:01:54Z</time>
      </trkpt>
      <trkpt lat="41.910326" lon="3.099408">
        <ele>243.977</ele>
        <time>2021-10-02T16:01:57Z</time>
      </trkpt>
      <trkpt lat="41.910357" lon="3.099497">
        <ele>244.071</ele>
        <time>2021-10-02T16:02:00Z</time>
      </trkpt>
      <trkpt lat="41.910421" lon="3.099643">
        <ele>243.393</ele>
        <time>2021-10-02T16:02:05Z</time>
      </trkpt>
      <trkpt lat="41.910458" lon="3.099783">
        <ele>243.093</ele>
        <time>2021-10-02T16:02:10Z</time>
      </trkpt>
      <trkpt lat="41.910418" lon="3.099881">
        <ele>243.021</ele>
        <time>2021-10-02T16:02:13Z</time>
      </trkpt>
      <trkpt lat="41.910355" lon="3.099938">
        <ele>243.096</ele>
        <time>2021-10-02T16:02:15Z</time>
      </trkpt>
      <trkpt lat="41.910300" lon="3.099966">
        <ele>243.085</ele>
        <time>2021-10-02T16:02:18Z</time>
      </trkpt>
      <trkpt lat="41.910241" lon="3.099986">
        <ele>243.435</ele>
        <time>2021-10-02T16:02:21Z</time>
      </trkpt>
      <trkpt lat="41.910208" lon="3.100103">
        <ele>244.086</ele>
        <time>2021-10-02T16:02:24Z</time>
      </trkpt>
      <trkpt lat="41.910176" lon="3.100238">
        <ele>244.014</ele>
        <time>2021-10-02T16:02:29Z</time>
      </trkpt>
      <trkpt lat="41.910133" lon="3.100603">
        <ele>244.008</ele>
        <time>2021-10-02T16:02:40Z</time>
      </trkpt>
      <trkpt lat="41.910100" lon="3.101075">
        <ele>244.072</ele>
        <time>2021-10-02T16:02:54Z</time>
      </trkpt>
      <trkpt lat="41.910068" lon="3.101452">
        <ele>244.041</ele>
        <time>2021-10-02T16:03:05Z</time>
      </trkpt>
      <trkpt lat="41.909957" lon="3.101955">
        <ele>244.025</ele>
        <time>2021-10-02T16:03:21Z</time>
      </trkpt>
      <trkpt lat="41.909869" lon="3.102358">
        <ele>246.857</ele>
        <time>2021-10-02T16:03:33Z</time>
      </trkpt>
      <trkpt lat="41.909838" lon="3.102543">
        <ele>248.047</ele>
        <time>2021-10-02T16:03:39Z</time>
      </trkpt>
      <trkpt lat="41.909811" lon="3.102754">
        <ele>248.435</ele>
        <time>2021-10-02T16:03:45Z</time>
      </trkpt>
      <trkpt lat="41.909842" lon="3.102883">
        <ele>249.050</ele>
        <time>2021-10-02T16:03:49Z</time>
      </trkpt>
      <trkpt lat="41.909848" lon="3.103182">
        <ele>250.059</ele>
        <time>2021-10-02T16:03:58Z</time>
      </trkpt>
      <trkpt lat="41.909858" lon="3.103425">
        <ele>251.747</ele>
        <time>2021-10-02T16:04:05Z</time>
      </trkpt>
      <trkpt lat="41.909658" lon="3.103795">
        <ele>254.029</ele>
        <time>2021-10-02T16:04:19Z</time>
      </trkpt>
      <trkpt lat="41.909670" lon="3.103808">
        <ele>254.021</ele>
        <time>2021-10-02T16:04:20Z</time>
      </trkpt>
      <trkpt lat="41.909519" lon="3.104071">
        <ele>256.908</ele>
        <time>2021-10-02T16:04:29Z</time>
      </trkpt>
      <trkpt lat="41.909502" lon="3.104236">
        <ele>258.083</ele>
        <time>2021-10-02T16:04:34Z</time>
      </trkpt>
      <trkpt lat="41.909522" lon="3.104461">
        <ele>259.732</ele>
        <time>2021-10-02T16:04:41Z</time>
      </trkpt>
      <trkpt lat="41.909639" lon="3.104756">
        <ele>258.036</ele>
        <time>2021-10-02T16:04:51Z</time>
      </trkpt>
    </trkseg>
  </trk>
</gpx>
